<?xml version="1.0" encoding="UTF-8" standalone="no" ?>
<gpx xmlns="http://www.topografix.com/GPX/1/1" xmlns:xsi="http://www.w3.org/2001/XMLSchema-instance" xsi:schemaLocation="http://www.topografix.com/GPX/1/1 http://www.topografix.com/GPX/1/1/gpx.xsd" version="1.1" creator="VisuGPX - https://www.visugpx.com">
  <metadata>
    <name>77- Pk Maintenon abris de carriers</name>
    <desc><![CDATA[Randonnée de 10,4Km en partant de la D58 ,avenue de Maintenon,hors sentiers Denecourt.]]></desc>
  </metadata>
  <trk>
    <name><![CDATA[Pk maintenon abri carriers]]></name>
    <trkseg>
      <trkpt lat="48.39197" lon="2.70371">
        <ele>78.97</ele>
        <time>2013-11-23T08:11:04Z</time>
      </trkpt>
      <trkpt lat="48.39197" lon="2.70371">
        <ele>78.97</ele>
        <time>2013-11-23T08:11:05Z</time>
      </trkpt>
      <trkpt lat="48.39197" lon="2.70371">
        <ele>78</ele>
        <time>2013-11-23T08:11:06Z</time>
      </trkpt>
      <trkpt lat="48.39196" lon="2.70372">
        <ele>78.97</ele>
        <time>2013-11-23T08:11:31Z</time>
      </trkpt>
      <trkpt lat="48.39197" lon="2.70373">
        <ele>78.97</ele>
        <time>2013-11-23T08:11:47Z</time>
      </trkpt>
      <trkpt lat="48.39195" lon="2.70374">
        <ele>78.97</ele>
        <time>2013-11-23T08:12:07Z</time>
      </trkpt>
      <trkpt lat="48.39194" lon="2.70374">
        <ele>78.97</ele>
        <time>2013-11-23T08:12:24Z</time>
      </trkpt>
      <trkpt lat="48.39195" lon="2.70374">
        <ele>78.48</ele>
        <time>2013-11-23T08:12:46Z</time>
      </trkpt>
      <trkpt lat="48.39196" lon="2.70375">
        <ele>78.97</ele>
        <time>2013-11-23T08:13:03Z</time>
      </trkpt>
      <trkpt lat="48.39193" lon="2.70375">
        <ele>78.97</ele>
        <time>2013-11-23T08:13:16Z</time>
      </trkpt>
      <trkpt lat="48.39194" lon="2.70375">
        <ele>78.97</ele>
        <time>2013-11-23T08:13:22Z</time>
      </trkpt>
      <trkpt lat="48.39185" lon="2.7038">
        <ele>78.97</ele>
        <time>2013-11-23T08:13:32Z</time>
      </trkpt>
      <trkpt lat="48.39184" lon="2.7038">
        <ele>78.97</ele>
        <time>2013-11-23T08:13:33Z</time>
      </trkpt>
      <trkpt lat="48.39183" lon="2.70381">
        <ele>78.97</ele>
        <time>2013-11-23T08:13:34Z</time>
      </trkpt>
      <trkpt lat="48.3917" lon="2.70385">
        <ele>78.48</ele>
        <time>2013-11-23T08:13:49Z</time>
      </trkpt>
      <trkpt lat="48.39149" lon="2.70391">
        <ele>78.97</ele>
        <time>2013-11-23T08:14:10Z</time>
      </trkpt>
      <trkpt lat="48.39135" lon="2.70396">
        <ele>79.93</ele>
        <time>2013-11-23T08:14:25Z</time>
      </trkpt>
      <trkpt lat="48.39118" lon="2.70398">
        <ele>79.45</ele>
        <time>2013-11-23T08:14:40Z</time>
      </trkpt>
      <trkpt lat="48.39094" lon="2.70401">
        <ele>79.45</ele>
        <time>2013-11-23T08:14:58Z</time>
      </trkpt>
      <trkpt lat="48.39083" lon="2.70406">
        <ele>79.93</ele>
        <time>2013-11-23T08:15:14Z</time>
      </trkpt>
      <trkpt lat="48.39062" lon="2.70409">
        <ele>80.89</ele>
        <time>2013-11-23T08:15:30Z</time>
      </trkpt>
      <trkpt lat="48.3906" lon="2.7041">
        <ele>81.85</ele>
        <time>2013-11-23T08:15:32Z</time>
      </trkpt>
      <trkpt lat="48.39051" lon="2.70414">
        <ele>78.48</ele>
        <time>2013-11-23T08:15:40Z</time>
      </trkpt>
      <trkpt lat="48.3905" lon="2.70415">
        <ele>83.77</ele>
        <time>2013-11-23T08:15:41Z</time>
      </trkpt>
      <trkpt lat="48.39035" lon="2.70427">
        <ele>81.85</ele>
        <time>2013-11-23T08:15:58Z</time>
      </trkpt>
      <trkpt lat="48.39023" lon="2.70436">
        <ele>82.33</ele>
        <time>2013-11-23T08:16:12Z</time>
      </trkpt>
      <trkpt lat="48.39003" lon="2.7044">
        <ele>83.29</ele>
        <time>2013-11-23T08:16:29Z</time>
      </trkpt>
      <trkpt lat="48.38981" lon="2.70442">
        <ele>83.77</ele>
        <time>2013-11-23T08:16:49Z</time>
      </trkpt>
      <trkpt lat="48.38956" lon="2.7046">
        <ele>85.21</ele>
        <time>2013-11-23T08:17:15Z</time>
      </trkpt>
      <trkpt lat="48.38938" lon="2.70465">
        <ele>86.66</ele>
        <time>2013-11-23T08:17:35Z</time>
      </trkpt>
      <trkpt lat="48.38916" lon="2.70468">
        <ele>89.54</ele>
        <time>2013-11-23T08:17:59Z</time>
      </trkpt>
      <trkpt lat="48.38894" lon="2.70476">
        <ele>91.94</ele>
        <time>2013-11-23T08:18:18Z</time>
      </trkpt>
      <trkpt lat="48.38888" lon="2.70474">
        <ele>92.9</ele>
        <time>2013-11-23T08:18:34Z</time>
      </trkpt>
      <trkpt lat="48.38886" lon="2.70476">
        <ele>93.87</ele>
        <time>2013-11-23T08:18:37Z</time>
      </trkpt>
      <trkpt lat="48.38878" lon="2.7048">
        <ele>95.31</ele>
        <time>2013-11-23T08:18:44Z</time>
      </trkpt>
      <trkpt lat="48.38861" lon="2.70489">
        <ele>98.19</ele>
        <time>2013-11-23T08:19:02Z</time>
      </trkpt>
      <trkpt lat="48.38845" lon="2.70494">
        <ele>101.08</ele>
        <time>2013-11-23T08:19:21Z</time>
      </trkpt>
      <trkpt lat="48.38833" lon="2.70497">
        <ele>103.48</ele>
        <time>2013-11-23T08:19:36Z</time>
      </trkpt>
      <trkpt lat="48.3882" lon="2.705">
        <ele>107.81</ele>
        <time>2013-11-23T08:19:49Z</time>
      </trkpt>
      <trkpt lat="48.38819" lon="2.70501">
        <ele>106.84</ele>
        <time>2013-11-23T08:19:50Z</time>
      </trkpt>
      <trkpt lat="48.38808" lon="2.70502">
        <ele>105.88</ele>
        <time>2013-11-23T08:20:03Z</time>
      </trkpt>
      <trkpt lat="48.38807" lon="2.70503">
        <ele>109.73</ele>
        <time>2013-11-23T08:20:04Z</time>
      </trkpt>
      <trkpt lat="48.38794" lon="2.70505">
        <ele>113.57</ele>
        <time>2013-11-23T08:20:20Z</time>
      </trkpt>
      <trkpt lat="48.38793" lon="2.70505">
        <ele>113.57</ele>
        <time>2013-11-23T08:20:21Z</time>
      </trkpt>
      <trkpt lat="48.38786" lon="2.70505">
        <ele>112.61</ele>
        <time>2013-11-23T08:20:31Z</time>
      </trkpt>
      <trkpt lat="48.38785" lon="2.70505">
        <ele>116.46</ele>
        <time>2013-11-23T08:20:32Z</time>
      </trkpt>
      <trkpt lat="48.38785" lon="2.70506">
        <ele>115.01</ele>
        <time>2013-11-23T08:20:33Z</time>
      </trkpt>
      <trkpt lat="48.38775" lon="2.70507">
        <ele>116.94</ele>
        <time>2013-11-23T08:20:49Z</time>
      </trkpt>
      <trkpt lat="48.38767" lon="2.7051">
        <ele>118.38</ele>
        <time>2013-11-23T08:21:00Z</time>
      </trkpt>
      <trkpt lat="48.38757" lon="2.70517">
        <ele>121.74</ele>
        <time>2013-11-23T08:21:14Z</time>
      </trkpt>
      <trkpt lat="48.38744" lon="2.70521">
        <ele>124.15</ele>
        <time>2013-11-23T08:21:29Z</time>
      </trkpt>
      <trkpt lat="48.38736" lon="2.70518">
        <ele>124.63</ele>
        <time>2013-11-23T08:21:45Z</time>
      </trkpt>
      <trkpt lat="48.3873" lon="2.70521">
        <ele>125.59</ele>
        <time>2013-11-23T08:22:03Z</time>
      </trkpt>
      <trkpt lat="48.38723" lon="2.70523">
        <ele>126.07</ele>
        <time>2013-11-23T08:22:17Z</time>
      </trkpt>
      <trkpt lat="48.38711" lon="2.70521">
        <ele>126.07</ele>
        <time>2013-11-23T08:22:32Z</time>
      </trkpt>
      <trkpt lat="48.38709" lon="2.70519">
        <ele>125.59</ele>
        <time>2013-11-23T08:22:34Z</time>
      </trkpt>
      <trkpt lat="48.38695" lon="2.70515">
        <ele>125.59</ele>
        <time>2013-11-23T08:22:49Z</time>
      </trkpt>
      <trkpt lat="48.38687" lon="2.70504">
        <ele>125.11</ele>
        <time>2013-11-23T08:23:01Z</time>
      </trkpt>
      <trkpt lat="48.38677" lon="2.70491">
        <ele>125.59</ele>
        <time>2013-11-23T08:23:15Z</time>
      </trkpt>
      <trkpt lat="48.38671" lon="2.70473">
        <ele>124.15</ele>
        <time>2013-11-23T08:23:31Z</time>
      </trkpt>
      <trkpt lat="48.38667" lon="2.70457">
        <ele>121.26</ele>
        <time>2013-11-23T08:23:45Z</time>
      </trkpt>
      <trkpt lat="48.38663" lon="2.70458">
        <ele>120.3</ele>
        <time>2013-11-23T08:23:59Z</time>
      </trkpt>
      <trkpt lat="48.38659" lon="2.7046">
        <ele>118.86</ele>
        <time>2013-11-23T08:24:12Z</time>
      </trkpt>
      <trkpt lat="48.3865" lon="2.70471">
        <ele>116.94</ele>
        <time>2013-11-23T08:24:24Z</time>
      </trkpt>
      <trkpt lat="48.38644" lon="2.70487">
        <ele>115.98</ele>
        <time>2013-11-23T08:24:36Z</time>
      </trkpt>
      <trkpt lat="48.38636" lon="2.70497">
        <ele>114.05</ele>
        <time>2013-11-23T08:24:50Z</time>
      </trkpt>
      <trkpt lat="48.38628" lon="2.70507">
        <ele>111.65</ele>
        <time>2013-11-23T08:25:04Z</time>
      </trkpt>
      <trkpt lat="48.38615" lon="2.70509">
        <ele>110.69</ele>
        <time>2013-11-23T08:25:19Z</time>
      </trkpt>
      <trkpt lat="48.38607" lon="2.70517">
        <ele>110.21</ele>
        <time>2013-11-23T08:25:33Z</time>
      </trkpt>
      <trkpt lat="48.38598" lon="2.70524">
        <ele>108.29</ele>
        <time>2013-11-23T08:25:48Z</time>
      </trkpt>
      <trkpt lat="48.3859" lon="2.70536">
        <ele>106.36</ele>
        <time>2013-11-23T08:26:04Z</time>
      </trkpt>
      <trkpt lat="48.38579" lon="2.70547">
        <ele>105.88</ele>
        <time>2013-11-23T08:26:19Z</time>
      </trkpt>
      <trkpt lat="48.38577" lon="2.70556">
        <ele>105.88</ele>
        <time>2013-11-23T08:26:34Z</time>
      </trkpt>
      <trkpt lat="48.38572" lon="2.70573">
        <ele>105.4</ele>
        <time>2013-11-23T08:26:45Z</time>
      </trkpt>
      <trkpt lat="48.38565" lon="2.70578">
        <ele>104.44</ele>
        <time>2013-11-23T08:27:00Z</time>
      </trkpt>
      <trkpt lat="48.38564" lon="2.70582">
        <ele>103.48</ele>
        <time>2013-11-23T08:27:14Z</time>
      </trkpt>
      <trkpt lat="48.38558" lon="2.70582">
        <ele>102.04</ele>
        <time>2013-11-23T08:27:23Z</time>
      </trkpt>
      <trkpt lat="48.38552" lon="2.70588">
        <ele>101.56</ele>
        <time>2013-11-23T08:27:30Z</time>
      </trkpt>
      <trkpt lat="48.38546" lon="2.70592">
        <ele>97.71</ele>
        <time>2013-11-23T08:27:35Z</time>
      </trkpt>
      <trkpt lat="48.38545" lon="2.70593">
        <ele>101.56</ele>
        <time>2013-11-23T08:27:36Z</time>
      </trkpt>
      <trkpt lat="48.38533" lon="2.70598">
        <ele>100.11</ele>
        <time>2013-11-23T08:27:46Z</time>
      </trkpt>
      <trkpt lat="48.38519" lon="2.70606">
        <ele>100.11</ele>
        <time>2013-11-23T08:27:59Z</time>
      </trkpt>
      <trkpt lat="48.38506" lon="2.70628">
        <ele>101.08</ele>
        <time>2013-11-23T08:28:17Z</time>
      </trkpt>
      <trkpt lat="48.38498" lon="2.70641">
        <ele>104.44</ele>
        <time>2013-11-23T08:28:30Z</time>
      </trkpt>
      <trkpt lat="48.38484" lon="2.70659">
        <ele>106.36</ele>
        <time>2013-11-23T08:28:47Z</time>
      </trkpt>
      <trkpt lat="48.38474" lon="2.70668">
        <ele>106.36</ele>
        <time>2013-11-23T08:29:04Z</time>
      </trkpt>
      <trkpt lat="48.38455" lon="2.70681">
        <ele>107.81</ele>
        <time>2013-11-23T08:29:22Z</time>
      </trkpt>
      <trkpt lat="48.38448" lon="2.70695">
        <ele>110.69</ele>
        <time>2013-11-23T08:29:41Z</time>
      </trkpt>
      <trkpt lat="48.38438" lon="2.70699">
        <ele>114.05</ele>
        <time>2013-11-23T08:29:56Z</time>
      </trkpt>
      <trkpt lat="48.38435" lon="2.70713">
        <ele>115.98</ele>
        <time>2013-11-23T08:30:15Z</time>
      </trkpt>
      <trkpt lat="48.3842" lon="2.70726">
        <ele>118.38</ele>
        <time>2013-11-23T08:30:35Z</time>
      </trkpt>
      <trkpt lat="48.38412" lon="2.7073">
        <ele>121.74</ele>
        <time>2013-11-23T08:30:52Z</time>
      </trkpt>
      <trkpt lat="48.38405" lon="2.70741">
        <ele>124.63</ele>
        <time>2013-11-23T08:31:09Z</time>
      </trkpt>
      <trkpt lat="48.38394" lon="2.70751">
        <ele>127.51</ele>
        <time>2013-11-23T08:31:26Z</time>
      </trkpt>
      <trkpt lat="48.38392" lon="2.70756">
        <ele>128.47</ele>
        <time>2013-11-23T08:31:36Z</time>
      </trkpt>
      <trkpt lat="48.3839" lon="2.70751">
        <ele>127.51</ele>
        <time>2013-11-23T08:31:45Z</time>
      </trkpt>
      <trkpt lat="48.38386" lon="2.70748">
        <ele>126.55</ele>
        <time>2013-11-23T08:31:56Z</time>
      </trkpt>
      <trkpt lat="48.38385" lon="2.70757">
        <ele>126.07</ele>
        <time>2013-11-23T08:32:02Z</time>
      </trkpt>
      <trkpt lat="48.38384" lon="2.7076">
        <ele>126.55</ele>
        <time>2013-11-23T08:32:03Z</time>
      </trkpt>
      <trkpt lat="48.38383" lon="2.70771">
        <ele>126.55</ele>
        <time>2013-11-23T08:32:14Z</time>
      </trkpt>
      <trkpt lat="48.38383" lon="2.70773">
        <ele>126.55</ele>
        <time>2013-11-23T08:32:16Z</time>
      </trkpt>
      <trkpt lat="48.38382" lon="2.70778">
        <ele>126.07</ele>
        <time>2013-11-23T08:32:20Z</time>
      </trkpt>
      <trkpt lat="48.38381" lon="2.70782">
        <ele>127.03</ele>
        <time>2013-11-23T08:32:29Z</time>
      </trkpt>
      <trkpt lat="48.38383" lon="2.70779">
        <ele>126.55</ele>
        <time>2013-11-23T08:32:46Z</time>
      </trkpt>
      <trkpt lat="48.38384" lon="2.70782">
        <ele>127.03</ele>
        <time>2013-11-23T08:33:06Z</time>
      </trkpt>
      <trkpt lat="48.38386" lon="2.70784">
        <ele>127.51</ele>
        <time>2013-11-23T08:33:22Z</time>
      </trkpt>
      <trkpt lat="48.38386" lon="2.70794">
        <ele>127.03</ele>
        <time>2013-11-23T08:33:33Z</time>
      </trkpt>
      <trkpt lat="48.38381" lon="2.70801">
        <ele>126.55</ele>
        <time>2013-11-23T08:33:45Z</time>
      </trkpt>
      <trkpt lat="48.38374" lon="2.70811">
        <ele>127.03</ele>
        <time>2013-11-23T08:33:57Z</time>
      </trkpt>
      <trkpt lat="48.38371" lon="2.70816">
        <ele>129.92</ele>
        <time>2013-11-23T08:34:00Z</time>
      </trkpt>
      <trkpt lat="48.38368" lon="2.70818">
        <ele>126.55</ele>
        <time>2013-11-23T08:34:02Z</time>
      </trkpt>
      <trkpt lat="48.38364" lon="2.7082">
        <ele>127.51</ele>
        <time>2013-11-23T08:34:05Z</time>
      </trkpt>
      <trkpt lat="48.38359" lon="2.70827">
        <ele>127.99</ele>
        <time>2013-11-23T08:34:12Z</time>
      </trkpt>
      <trkpt lat="48.38358" lon="2.70831">
        <ele>127.99</ele>
        <time>2013-11-23T08:34:16Z</time>
      </trkpt>
      <trkpt lat="48.38358" lon="2.70836">
        <ele>127.51</ele>
        <time>2013-11-23T08:34:19Z</time>
      </trkpt>
      <trkpt lat="48.38357" lon="2.70853">
        <ele>127.99</ele>
        <time>2013-11-23T08:34:33Z</time>
      </trkpt>
      <trkpt lat="48.38357" lon="2.70863">
        <ele>128.47</ele>
        <time>2013-11-23T08:34:43Z</time>
      </trkpt>
      <trkpt lat="48.38358" lon="2.70864">
        <ele>128.95</ele>
        <time>2013-11-23T08:34:44Z</time>
      </trkpt>
      <trkpt lat="48.38359" lon="2.70879">
        <ele>128.95</ele>
        <time>2013-11-23T08:34:54Z</time>
      </trkpt>
      <trkpt lat="48.3836" lon="2.70881">
        <ele>128.95</ele>
        <time>2013-11-23T08:34:55Z</time>
      </trkpt>
      <trkpt lat="48.38355" lon="2.70889">
        <ele>128.95</ele>
        <time>2013-11-23T08:35:04Z</time>
      </trkpt>
      <trkpt lat="48.38354" lon="2.70893">
        <ele>128.95</ele>
        <time>2013-11-23T08:35:08Z</time>
      </trkpt>
      <trkpt lat="48.3835" lon="2.70907">
        <ele>128.95</ele>
        <time>2013-11-23T08:35:19Z</time>
      </trkpt>
      <trkpt lat="48.38349" lon="2.70909">
        <ele>128.47</ele>
        <time>2013-11-23T08:35:21Z</time>
      </trkpt>
      <trkpt lat="48.3835" lon="2.70926">
        <ele>129.43</ele>
        <time>2013-11-23T08:35:31Z</time>
      </trkpt>
      <trkpt lat="48.38348" lon="2.70936">
        <ele>128.47</ele>
        <time>2013-11-23T08:35:40Z</time>
      </trkpt>
      <trkpt lat="48.38343" lon="2.70948">
        <ele>128.47</ele>
        <time>2013-11-23T08:35:52Z</time>
      </trkpt>
      <trkpt lat="48.38334" lon="2.70959">
        <ele>128.95</ele>
        <time>2013-11-23T08:36:08Z</time>
      </trkpt>
      <trkpt lat="48.38324" lon="2.7097">
        <ele>129.43</ele>
        <time>2013-11-23T08:36:21Z</time>
      </trkpt>
      <trkpt lat="48.3832" lon="2.70987">
        <ele>127.99</ele>
        <time>2013-11-23T08:36:32Z</time>
      </trkpt>
      <trkpt lat="48.3832" lon="2.70998">
        <ele>128.95</ele>
        <time>2013-11-23T08:36:43Z</time>
      </trkpt>
      <trkpt lat="48.38317" lon="2.71015">
        <ele>127.99</ele>
        <time>2013-11-23T08:36:56Z</time>
      </trkpt>
      <trkpt lat="48.38318" lon="2.71036">
        <ele>128.47</ele>
        <time>2013-11-23T08:37:10Z</time>
      </trkpt>
      <trkpt lat="48.38312" lon="2.71044">
        <ele>128.95</ele>
        <time>2013-11-23T08:37:20Z</time>
      </trkpt>
      <trkpt lat="48.38305" lon="2.71052">
        <ele>128.95</ele>
        <time>2013-11-23T08:37:32Z</time>
      </trkpt>
      <trkpt lat="48.38304" lon="2.71063">
        <ele>130.4</ele>
        <time>2013-11-23T08:37:38Z</time>
      </trkpt>
      <trkpt lat="48.38304" lon="2.71065">
        <ele>130.4</ele>
        <time>2013-11-23T08:37:39Z</time>
      </trkpt>
      <trkpt lat="48.38302" lon="2.71079">
        <ele>129.43</ele>
        <time>2013-11-23T08:37:51Z</time>
      </trkpt>
      <trkpt lat="48.38303" lon="2.71086">
        <ele>130.4</ele>
        <time>2013-11-23T08:37:57Z</time>
      </trkpt>
      <trkpt lat="48.38302" lon="2.71088">
        <ele>129.92</ele>
        <time>2013-11-23T08:37:58Z</time>
      </trkpt>
      <trkpt lat="48.38302" lon="2.71098">
        <ele>130.4</ele>
        <time>2013-11-23T08:38:08Z</time>
      </trkpt>
      <trkpt lat="48.38303" lon="2.71099">
        <ele>130.4</ele>
        <time>2013-11-23T08:38:09Z</time>
      </trkpt>
      <trkpt lat="48.38299" lon="2.71106">
        <ele>129.92</ele>
        <time>2013-11-23T08:38:20Z</time>
      </trkpt>
      <trkpt lat="48.38295" lon="2.71121">
        <ele>132.32</ele>
        <time>2013-11-23T08:38:34Z</time>
      </trkpt>
      <trkpt lat="48.38295" lon="2.71138">
        <ele>131.84</ele>
        <time>2013-11-23T08:38:52Z</time>
      </trkpt>
      <trkpt lat="48.38291" lon="2.7115">
        <ele>131.36</ele>
        <time>2013-11-23T08:39:04Z</time>
      </trkpt>
      <trkpt lat="48.3829" lon="2.71164">
        <ele>130.4</ele>
        <time>2013-11-23T08:39:17Z</time>
      </trkpt>
      <trkpt lat="48.38291" lon="2.71178">
        <ele>129.92</ele>
        <time>2013-11-23T08:39:32Z</time>
      </trkpt>
      <trkpt lat="48.3829" lon="2.71192">
        <ele>129.92</ele>
        <time>2013-11-23T08:39:47Z</time>
      </trkpt>
      <trkpt lat="48.3829" lon="2.7121">
        <ele>130.4</ele>
        <time>2013-11-23T08:40:02Z</time>
      </trkpt>
      <trkpt lat="48.38288" lon="2.71224">
        <ele>130.88</ele>
        <time>2013-11-23T08:40:15Z</time>
      </trkpt>
      <trkpt lat="48.38282" lon="2.71234">
        <ele>129.43</ele>
        <time>2013-11-23T08:40:28Z</time>
      </trkpt>
      <trkpt lat="48.38277" lon="2.71243">
        <ele>127.03</ele>
        <time>2013-11-23T08:40:42Z</time>
      </trkpt>
      <trkpt lat="48.38274" lon="2.71253">
        <ele>124.63</ele>
        <time>2013-11-23T08:40:57Z</time>
      </trkpt>
      <trkpt lat="48.38268" lon="2.71268">
        <ele>122.71</ele>
        <time>2013-11-23T08:41:12Z</time>
      </trkpt>
      <trkpt lat="48.38265" lon="2.71281">
        <ele>121.74</ele>
        <time>2013-11-23T08:41:25Z</time>
      </trkpt>
      <trkpt lat="48.38263" lon="2.71286">
        <ele>119.82</ele>
        <time>2013-11-23T08:41:38Z</time>
      </trkpt>
      <trkpt lat="48.38258" lon="2.71299">
        <ele>117.42</ele>
        <time>2013-11-23T08:41:56Z</time>
      </trkpt>
      <trkpt lat="48.38255" lon="2.71321">
        <ele>117.9</ele>
        <time>2013-11-23T08:42:11Z</time>
      </trkpt>
      <trkpt lat="48.38257" lon="2.71328">
        <ele>118.38</ele>
        <time>2013-11-23T08:42:25Z</time>
      </trkpt>
      <trkpt lat="48.38259" lon="2.71342">
        <ele>115.98</ele>
        <time>2013-11-23T08:42:40Z</time>
      </trkpt>
      <trkpt lat="48.38257" lon="2.71356">
        <ele>113.09</ele>
        <time>2013-11-23T08:42:57Z</time>
      </trkpt>
      <trkpt lat="48.38255" lon="2.71373">
        <ele>111.17</ele>
        <time>2013-11-23T08:43:12Z</time>
      </trkpt>
      <trkpt lat="48.3825" lon="2.71386">
        <ele>109.73</ele>
        <time>2013-11-23T08:43:29Z</time>
      </trkpt>
      <trkpt lat="48.38248" lon="2.71387">
        <ele>111.65</ele>
        <time>2013-11-23T08:43:54Z</time>
      </trkpt>
      <trkpt lat="48.38243" lon="2.71381">
        <ele>111.65</ele>
        <time>2013-11-23T08:44:12Z</time>
      </trkpt>
      <trkpt lat="48.38237" lon="2.71371">
        <ele>110.21</ele>
        <time>2013-11-23T08:44:27Z</time>
      </trkpt>
      <trkpt lat="48.38231" lon="2.71363">
        <ele>109.73</ele>
        <time>2013-11-23T08:44:36Z</time>
      </trkpt>
      <trkpt lat="48.38227" lon="2.71356">
        <ele>106.36</ele>
        <time>2013-11-23T08:44:44Z</time>
      </trkpt>
      <trkpt lat="48.38218" lon="2.7134">
        <ele>105.88</ele>
        <time>2013-11-23T08:44:57Z</time>
      </trkpt>
      <trkpt lat="48.38217" lon="2.71336">
        <ele>106.36</ele>
        <time>2013-11-23T08:45:00Z</time>
      </trkpt>
      <trkpt lat="48.38211" lon="2.71325">
        <ele>104.92</ele>
        <time>2013-11-23T08:45:10Z</time>
      </trkpt>
      <trkpt lat="48.38211" lon="2.71322">
        <ele>103.96</ele>
        <time>2013-11-23T08:45:21Z</time>
      </trkpt>
      <trkpt lat="48.3821" lon="2.71322">
        <ele>105.4</ele>
        <time>2013-11-23T08:45:26Z</time>
      </trkpt>
      <trkpt lat="48.38211" lon="2.71323">
        <ele>104.92</ele>
        <time>2013-11-23T08:45:40Z</time>
      </trkpt>
      <trkpt lat="48.38212" lon="2.71321">
        <ele>104.92</ele>
        <time>2013-11-23T08:46:03Z</time>
      </trkpt>
      <trkpt lat="48.3821" lon="2.7132">
        <ele>105.4</ele>
        <time>2013-11-23T08:46:19Z</time>
      </trkpt>
      <trkpt lat="48.38206" lon="2.71309">
        <ele>105.4</ele>
        <time>2013-11-23T08:46:32Z</time>
      </trkpt>
      <trkpt lat="48.38197" lon="2.71282">
        <ele>104.92</ele>
        <time>2013-11-23T08:46:48Z</time>
      </trkpt>
      <trkpt lat="48.38196" lon="2.71281">
        <ele>83.29</ele>
        <time>2013-11-23T08:46:49Z</time>
      </trkpt>
      <trkpt lat="48.38195" lon="2.7128">
        <ele>126.55</ele>
        <time>2013-11-23T08:46:50Z</time>
      </trkpt>
      <trkpt lat="48.38195" lon="2.71279">
        <ele>104.44</ele>
        <time>2013-11-23T08:46:51Z</time>
      </trkpt>
      <trkpt lat="48.38189" lon="2.71268">
        <ele>105.4</ele>
        <time>2013-11-23T08:47:05Z</time>
      </trkpt>
      <trkpt lat="48.38184" lon="2.71252">
        <ele>106.84</ele>
        <time>2013-11-23T08:47:17Z</time>
      </trkpt>
      <trkpt lat="48.38182" lon="2.71246">
        <ele>107.32</ele>
        <time>2013-11-23T08:47:23Z</time>
      </trkpt>
      <trkpt lat="48.38177" lon="2.71232">
        <ele>107.81</ele>
        <time>2013-11-23T08:47:35Z</time>
      </trkpt>
      <trkpt lat="48.38174" lon="2.71227">
        <ele>108.29</ele>
        <time>2013-11-23T08:47:39Z</time>
      </trkpt>
      <trkpt lat="48.38174" lon="2.71225">
        <ele>108.77</ele>
        <time>2013-11-23T08:47:40Z</time>
      </trkpt>
      <trkpt lat="48.38171" lon="2.71216">
        <ele>109.73</ele>
        <time>2013-11-23T08:47:47Z</time>
      </trkpt>
      <trkpt lat="48.38171" lon="2.71215">
        <ele>109.25</ele>
        <time>2013-11-23T08:47:48Z</time>
      </trkpt>
      <trkpt lat="48.38168" lon="2.71206">
        <ele>110.21</ele>
        <time>2013-11-23T08:47:54Z</time>
      </trkpt>
      <trkpt lat="48.38168" lon="2.71205">
        <ele>110.21</ele>
        <time>2013-11-23T08:47:55Z</time>
      </trkpt>
      <trkpt lat="48.38164" lon="2.71198">
        <ele>111.65</ele>
        <time>2013-11-23T08:48:05Z</time>
      </trkpt>
      <trkpt lat="48.38158" lon="2.71185">
        <ele>113.57</ele>
        <time>2013-11-23T08:48:16Z</time>
      </trkpt>
      <trkpt lat="48.38158" lon="2.71183">
        <ele>114.05</ele>
        <time>2013-11-23T08:48:18Z</time>
      </trkpt>
      <trkpt lat="48.38154" lon="2.71175">
        <ele>115.01</ele>
        <time>2013-11-23T08:48:25Z</time>
      </trkpt>
      <trkpt lat="48.38149" lon="2.71163">
        <ele>116.94</ele>
        <time>2013-11-23T08:48:35Z</time>
      </trkpt>
      <trkpt lat="48.38147" lon="2.7116">
        <ele>120.78</ele>
        <time>2013-11-23T08:48:38Z</time>
      </trkpt>
      <trkpt lat="48.38147" lon="2.71159">
        <ele>117.9</ele>
        <time>2013-11-23T08:48:39Z</time>
      </trkpt>
      <trkpt lat="48.3814" lon="2.71144">
        <ele>120.78</ele>
        <time>2013-11-23T08:48:54Z</time>
      </trkpt>
      <trkpt lat="48.38131" lon="2.71133">
        <ele>123.19</ele>
        <time>2013-11-23T08:49:08Z</time>
      </trkpt>
      <trkpt lat="48.3813" lon="2.71129">
        <ele>122.71</ele>
        <time>2013-11-23T08:49:18Z</time>
      </trkpt>
      <trkpt lat="48.3812" lon="2.71116">
        <ele>125.11</ele>
        <time>2013-11-23T08:49:33Z</time>
      </trkpt>
      <trkpt lat="48.38108" lon="2.71099">
        <ele>125.59</ele>
        <time>2013-11-23T08:49:48Z</time>
      </trkpt>
      <trkpt lat="48.38101" lon="2.7109">
        <ele>124.63</ele>
        <time>2013-11-23T08:50:01Z</time>
      </trkpt>
      <trkpt lat="48.38093" lon="2.7108">
        <ele>125.59</ele>
        <time>2013-11-23T08:50:14Z</time>
      </trkpt>
      <trkpt lat="48.38092" lon="2.71078">
        <ele>125.59</ele>
        <time>2013-11-23T08:50:17Z</time>
      </trkpt>
      <trkpt lat="48.3809" lon="2.71073">
        <ele>125.59</ele>
        <time>2013-11-23T08:50:21Z</time>
      </trkpt>
      <trkpt lat="48.38089" lon="2.71071">
        <ele>125.11</ele>
        <time>2013-11-23T08:50:22Z</time>
      </trkpt>
      <trkpt lat="48.38082" lon="2.71061">
        <ele>126.07</ele>
        <time>2013-11-23T08:50:32Z</time>
      </trkpt>
      <trkpt lat="48.38072" lon="2.71049">
        <ele>126.07</ele>
        <time>2013-11-23T08:50:44Z</time>
      </trkpt>
      <trkpt lat="48.38062" lon="2.71036">
        <ele>126.07</ele>
        <time>2013-11-23T08:50:57Z</time>
      </trkpt>
      <trkpt lat="48.38046" lon="2.71023">
        <ele>127.03</ele>
        <time>2013-11-23T08:51:11Z</time>
      </trkpt>
      <trkpt lat="48.38036" lon="2.7101">
        <ele>126.07</ele>
        <time>2013-11-23T08:51:23Z</time>
      </trkpt>
      <trkpt lat="48.38022" lon="2.70995">
        <ele>127.03</ele>
        <time>2013-11-23T08:51:39Z</time>
      </trkpt>
      <trkpt lat="48.38014" lon="2.70986">
        <ele>127.51</ele>
        <time>2013-11-23T08:51:53Z</time>
      </trkpt>
      <trkpt lat="48.38011" lon="2.70981">
        <ele>127.51</ele>
        <time>2013-11-23T08:51:57Z</time>
      </trkpt>
      <trkpt lat="48.38001" lon="2.70967">
        <ele>127.03</ele>
        <time>2013-11-23T08:52:08Z</time>
      </trkpt>
      <trkpt lat="48.3799" lon="2.70959">
        <ele>127.99</ele>
        <time>2013-11-23T08:52:20Z</time>
      </trkpt>
      <trkpt lat="48.37986" lon="2.70955">
        <ele>127.99</ele>
        <time>2013-11-23T08:52:25Z</time>
      </trkpt>
      <trkpt lat="48.37981" lon="2.70947">
        <ele>127.51</ele>
        <time>2013-11-23T08:52:35Z</time>
      </trkpt>
      <trkpt lat="48.37969" lon="2.70937">
        <ele>127.99</ele>
        <time>2013-11-23T08:52:47Z</time>
      </trkpt>
      <trkpt lat="48.37958" lon="2.70923">
        <ele>127.99</ele>
        <time>2013-11-23T08:53:01Z</time>
      </trkpt>
      <trkpt lat="48.37948" lon="2.70911">
        <ele>128.47</ele>
        <time>2013-11-23T08:53:14Z</time>
      </trkpt>
      <trkpt lat="48.37937" lon="2.70901">
        <ele>127.99</ele>
        <time>2013-11-23T08:53:25Z</time>
      </trkpt>
      <trkpt lat="48.37926" lon="2.7089">
        <ele>127.99</ele>
        <time>2013-11-23T08:53:39Z</time>
      </trkpt>
      <trkpt lat="48.37914" lon="2.70877">
        <ele>128.47</ele>
        <time>2013-11-23T08:53:52Z</time>
      </trkpt>
      <trkpt lat="48.37901" lon="2.70865">
        <ele>128.47</ele>
        <time>2013-11-23T08:54:05Z</time>
      </trkpt>
      <trkpt lat="48.37887" lon="2.70851">
        <ele>128.95</ele>
        <time>2013-11-23T08:54:20Z</time>
      </trkpt>
      <trkpt lat="48.37871" lon="2.70837">
        <ele>129.43</ele>
        <time>2013-11-23T08:54:34Z</time>
      </trkpt>
      <trkpt lat="48.37855" lon="2.70821">
        <ele>129.43</ele>
        <time>2013-11-23T08:54:50Z</time>
      </trkpt>
      <trkpt lat="48.37837" lon="2.70803">
        <ele>128.95</ele>
        <time>2013-11-23T08:55:08Z</time>
      </trkpt>
      <trkpt lat="48.37821" lon="2.70787">
        <ele>128.95</ele>
        <time>2013-11-23T08:55:23Z</time>
      </trkpt>
      <trkpt lat="48.37807" lon="2.70776">
        <ele>128.47</ele>
        <time>2013-11-23T08:55:37Z</time>
      </trkpt>
      <trkpt lat="48.37798" lon="2.70766">
        <ele>128.95</ele>
        <time>2013-11-23T08:55:48Z</time>
      </trkpt>
      <trkpt lat="48.37789" lon="2.70756">
        <ele>128.47</ele>
        <time>2013-11-23T08:56:01Z</time>
      </trkpt>
      <trkpt lat="48.37779" lon="2.70745">
        <ele>128.47</ele>
        <time>2013-11-23T08:56:13Z</time>
      </trkpt>
      <trkpt lat="48.37777" lon="2.70742">
        <ele>128.47</ele>
        <time>2013-11-23T08:56:15Z</time>
      </trkpt>
      <trkpt lat="48.37776" lon="2.70741">
        <ele>128.47</ele>
        <time>2013-11-23T08:56:16Z</time>
      </trkpt>
      <trkpt lat="48.37765" lon="2.70729">
        <ele>128.47</ele>
        <time>2013-11-23T08:56:30Z</time>
      </trkpt>
      <trkpt lat="48.37745" lon="2.7071">
        <ele>128.47</ele>
        <time>2013-11-23T08:56:48Z</time>
      </trkpt>
      <trkpt lat="48.37728" lon="2.70692">
        <ele>127.99</ele>
        <time>2013-11-23T08:57:05Z</time>
      </trkpt>
      <trkpt lat="48.37715" lon="2.70681">
        <ele>127.03</ele>
        <time>2013-11-23T08:57:19Z</time>
      </trkpt>
      <trkpt lat="48.37704" lon="2.70666">
        <ele>126.55</ele>
        <time>2013-11-23T08:57:36Z</time>
      </trkpt>
      <trkpt lat="48.37693" lon="2.70652">
        <ele>125.59</ele>
        <time>2013-11-23T08:57:50Z</time>
      </trkpt>
      <trkpt lat="48.37677" lon="2.70639">
        <ele>125.59</ele>
        <time>2013-11-23T08:58:05Z</time>
      </trkpt>
      <trkpt lat="48.37665" lon="2.70622">
        <ele>124.63</ele>
        <time>2013-11-23T08:58:18Z</time>
      </trkpt>
      <trkpt lat="48.37663" lon="2.7062">
        <ele>124.63</ele>
        <time>2013-11-23T08:58:20Z</time>
      </trkpt>
      <trkpt lat="48.37651" lon="2.70619">
        <ele>125.59</ele>
        <time>2013-11-23T08:58:33Z</time>
      </trkpt>
      <trkpt lat="48.37634" lon="2.70624">
        <ele>125.11</ele>
        <time>2013-11-23T08:58:48Z</time>
      </trkpt>
      <trkpt lat="48.37619" lon="2.70632">
        <ele>124.15</ele>
        <time>2013-11-23T08:59:02Z</time>
      </trkpt>
      <trkpt lat="48.37606" lon="2.70637">
        <ele>125.11</ele>
        <time>2013-11-23T08:59:14Z</time>
      </trkpt>
      <trkpt lat="48.37603" lon="2.70636">
        <ele>125.59</ele>
        <time>2013-11-23T08:59:17Z</time>
      </trkpt>
      <trkpt lat="48.37601" lon="2.70636">
        <ele>125.11</ele>
        <time>2013-11-23T08:59:18Z</time>
      </trkpt>
      <trkpt lat="48.37586" lon="2.70639">
        <ele>126.07</ele>
        <time>2013-11-23T08:59:33Z</time>
      </trkpt>
      <trkpt lat="48.37583" lon="2.7064">
        <ele>126.07</ele>
        <time>2013-11-23T08:59:37Z</time>
      </trkpt>
      <trkpt lat="48.37568" lon="2.70644">
        <ele>126.55</ele>
        <time>2013-11-23T08:59:50Z</time>
      </trkpt>
      <trkpt lat="48.37556" lon="2.70643">
        <ele>127.51</ele>
        <time>2013-11-23T09:00:06Z</time>
      </trkpt>
      <trkpt lat="48.37538" lon="2.70648">
        <ele>127.51</ele>
        <time>2013-11-23T09:00:21Z</time>
      </trkpt>
      <trkpt lat="48.37531" lon="2.7066">
        <ele>127.99</ele>
        <time>2013-11-23T09:00:38Z</time>
      </trkpt>
      <trkpt lat="48.37519" lon="2.70664">
        <ele>127.51</ele>
        <time>2013-11-23T09:00:48Z</time>
      </trkpt>
      <trkpt lat="48.37506" lon="2.70671">
        <ele>127.03</ele>
        <time>2013-11-23T09:00:57Z</time>
      </trkpt>
      <trkpt lat="48.37505" lon="2.70672">
        <ele>127.03</ele>
        <time>2013-11-23T09:00:58Z</time>
      </trkpt>
      <trkpt lat="48.37497" lon="2.70674">
        <ele>127.03</ele>
        <time>2013-11-23T09:01:10Z</time>
      </trkpt>
      <trkpt lat="48.37478" lon="2.70677">
        <ele>127.51</ele>
        <time>2013-11-23T09:01:25Z</time>
      </trkpt>
      <trkpt lat="48.37477" lon="2.70676">
        <ele>127.51</ele>
        <time>2013-11-23T09:01:26Z</time>
      </trkpt>
      <trkpt lat="48.37467" lon="2.70672">
        <ele>127.51</ele>
        <time>2013-11-23T09:01:36Z</time>
      </trkpt>
      <trkpt lat="48.37458" lon="2.70676">
        <ele>127.51</ele>
        <time>2013-11-23T09:01:43Z</time>
      </trkpt>
      <trkpt lat="48.37458" lon="2.70678">
        <ele>127.51</ele>
        <time>2013-11-23T09:01:44Z</time>
      </trkpt>
      <trkpt lat="48.37458" lon="2.70696">
        <ele>127.99</ele>
        <time>2013-11-23T09:01:56Z</time>
      </trkpt>
      <trkpt lat="48.37458" lon="2.70698">
        <ele>127.51</ele>
        <time>2013-11-23T09:01:57Z</time>
      </trkpt>
      <trkpt lat="48.37451" lon="2.70718">
        <ele>127.99</ele>
        <time>2013-11-23T09:02:10Z</time>
      </trkpt>
      <trkpt lat="48.37449" lon="2.70737">
        <ele>127.99</ele>
        <time>2013-11-23T09:02:19Z</time>
      </trkpt>
      <trkpt lat="48.37449" lon="2.70738">
        <ele>127.51</ele>
        <time>2013-11-23T09:02:20Z</time>
      </trkpt>
      <trkpt lat="48.37449" lon="2.7074">
        <ele>127.51</ele>
        <time>2013-11-23T09:02:21Z</time>
      </trkpt>
      <trkpt lat="48.37444" lon="2.70758">
        <ele>128.47</ele>
        <time>2013-11-23T09:02:34Z</time>
      </trkpt>
      <trkpt lat="48.3744" lon="2.70775">
        <ele>128.95</ele>
        <time>2013-11-23T09:02:46Z</time>
      </trkpt>
      <trkpt lat="48.3744" lon="2.70784">
        <ele>128.47</ele>
        <time>2013-11-23T09:02:51Z</time>
      </trkpt>
      <trkpt lat="48.3744" lon="2.70785">
        <ele>128.95</ele>
        <time>2013-11-23T09:02:52Z</time>
      </trkpt>
      <trkpt lat="48.3744" lon="2.70787">
        <ele>128.95</ele>
        <time>2013-11-23T09:02:53Z</time>
      </trkpt>
      <trkpt lat="48.3744" lon="2.70801">
        <ele>128.95</ele>
        <time>2013-11-23T09:03:04Z</time>
      </trkpt>
      <trkpt lat="48.37439" lon="2.70818">
        <ele>129.92</ele>
        <time>2013-11-23T09:03:14Z</time>
      </trkpt>
      <trkpt lat="48.37438" lon="2.70827">
        <ele>129.43</ele>
        <time>2013-11-23T09:03:20Z</time>
      </trkpt>
      <trkpt lat="48.37436" lon="2.70833">
        <ele>130.4</ele>
        <time>2013-11-23T09:03:25Z</time>
      </trkpt>
      <trkpt lat="48.37435" lon="2.70848">
        <ele>129.92</ele>
        <time>2013-11-23T09:03:35Z</time>
      </trkpt>
      <trkpt lat="48.37431" lon="2.70872">
        <ele>130.4</ele>
        <time>2013-11-23T09:03:48Z</time>
      </trkpt>
      <trkpt lat="48.37428" lon="2.70891">
        <ele>130.4</ele>
        <time>2013-11-23T09:04:00Z</time>
      </trkpt>
      <trkpt lat="48.37425" lon="2.70916">
        <ele>129.92</ele>
        <time>2013-11-23T09:04:14Z</time>
      </trkpt>
      <trkpt lat="48.37424" lon="2.70938">
        <ele>130.4</ele>
        <time>2013-11-23T09:04:28Z</time>
      </trkpt>
      <trkpt lat="48.3742" lon="2.70963">
        <ele>130.4</ele>
        <time>2013-11-23T09:04:42Z</time>
      </trkpt>
      <trkpt lat="48.37417" lon="2.70987">
        <ele>129.92</ele>
        <time>2013-11-23T09:04:57Z</time>
      </trkpt>
      <trkpt lat="48.37414" lon="2.71018">
        <ele>130.4</ele>
        <time>2013-11-23T09:05:16Z</time>
      </trkpt>
      <trkpt lat="48.37411" lon="2.71041">
        <ele>129.92</ele>
        <time>2013-11-23T09:05:30Z</time>
      </trkpt>
      <trkpt lat="48.37408" lon="2.71057">
        <ele>130.88</ele>
        <time>2013-11-23T09:05:42Z</time>
      </trkpt>
      <trkpt lat="48.37406" lon="2.71077">
        <ele>130.4</ele>
        <time>2013-11-23T09:05:55Z</time>
      </trkpt>
      <trkpt lat="48.37404" lon="2.71081">
        <ele>130.4</ele>
        <time>2013-11-23T09:05:59Z</time>
      </trkpt>
      <trkpt lat="48.37403" lon="2.7109">
        <ele>130.4</ele>
        <time>2013-11-23T09:06:06Z</time>
      </trkpt>
      <trkpt lat="48.37401" lon="2.71102">
        <ele>130.4</ele>
        <time>2013-11-23T09:06:12Z</time>
      </trkpt>
      <trkpt lat="48.374" lon="2.71104">
        <ele>130.4</ele>
        <time>2013-11-23T09:06:13Z</time>
      </trkpt>
      <trkpt lat="48.374" lon="2.71121">
        <ele>130.4</ele>
        <time>2013-11-23T09:06:23Z</time>
      </trkpt>
      <trkpt lat="48.37398" lon="2.71139">
        <ele>129.43</ele>
        <time>2013-11-23T09:06:36Z</time>
      </trkpt>
      <trkpt lat="48.37396" lon="2.7115">
        <ele>129.43</ele>
        <time>2013-11-23T09:06:41Z</time>
      </trkpt>
      <trkpt lat="48.37392" lon="2.71156">
        <ele>128.47</ele>
        <time>2013-11-23T09:06:45Z</time>
      </trkpt>
      <trkpt lat="48.37388" lon="2.71182">
        <ele>126.55</ele>
        <time>2013-11-23T09:07:00Z</time>
      </trkpt>
      <trkpt lat="48.37389" lon="2.71199">
        <ele>124.63</ele>
        <time>2013-11-23T09:07:15Z</time>
      </trkpt>
      <trkpt lat="48.37392" lon="2.71215">
        <ele>122.22</ele>
        <time>2013-11-23T09:07:29Z</time>
      </trkpt>
      <trkpt lat="48.37394" lon="2.71235">
        <ele>120.78</ele>
        <time>2013-11-23T09:07:41Z</time>
      </trkpt>
      <trkpt lat="48.37392" lon="2.71256">
        <ele>117.9</ele>
        <time>2013-11-23T09:07:56Z</time>
      </trkpt>
      <trkpt lat="48.3739" lon="2.71277">
        <ele>116.46</ele>
        <time>2013-11-23T09:08:08Z</time>
      </trkpt>
      <trkpt lat="48.37387" lon="2.71294">
        <ele>114.53</ele>
        <time>2013-11-23T09:08:21Z</time>
      </trkpt>
      <trkpt lat="48.37387" lon="2.71295">
        <ele>114.53</ele>
        <time>2013-11-23T09:08:22Z</time>
      </trkpt>
      <trkpt lat="48.37385" lon="2.71302">
        <ele>113.09</ele>
        <time>2013-11-23T09:08:28Z</time>
      </trkpt>
      <trkpt lat="48.37379" lon="2.71316">
        <ele>112.13</ele>
        <time>2013-11-23T09:08:39Z</time>
      </trkpt>
      <trkpt lat="48.37373" lon="2.71328">
        <ele>111.65</ele>
        <time>2013-11-23T09:08:52Z</time>
      </trkpt>
      <trkpt lat="48.37369" lon="2.71343">
        <ele>110.69</ele>
        <time>2013-11-23T09:09:04Z</time>
      </trkpt>
      <trkpt lat="48.3737" lon="2.71356">
        <ele>110.21</ele>
        <time>2013-11-23T09:09:11Z</time>
      </trkpt>
      <trkpt lat="48.3737" lon="2.71374">
        <ele>109.25</ele>
        <time>2013-11-23T09:09:22Z</time>
      </trkpt>
      <trkpt lat="48.37362" lon="2.71395">
        <ele>108.77</ele>
        <time>2013-11-23T09:09:36Z</time>
      </trkpt>
      <trkpt lat="48.37356" lon="2.71407">
        <ele>107.81</ele>
        <time>2013-11-23T09:09:48Z</time>
      </trkpt>
      <trkpt lat="48.37352" lon="2.71422">
        <ele>106.84</ele>
        <time>2013-11-23T09:10:00Z</time>
      </trkpt>
      <trkpt lat="48.37353" lon="2.71424">
        <ele>106.84</ele>
        <time>2013-11-23T09:10:01Z</time>
      </trkpt>
      <trkpt lat="48.37353" lon="2.71427">
        <ele>106.84</ele>
        <time>2013-11-23T09:10:02Z</time>
      </trkpt>
      <trkpt lat="48.37352" lon="2.71444">
        <ele>105.88</ele>
        <time>2013-11-23T09:10:13Z</time>
      </trkpt>
      <trkpt lat="48.37349" lon="2.71459">
        <ele>105.4</ele>
        <time>2013-11-23T09:10:25Z</time>
      </trkpt>
      <trkpt lat="48.37351" lon="2.71481">
        <ele>105.4</ele>
        <time>2013-11-23T09:10:36Z</time>
      </trkpt>
      <trkpt lat="48.37351" lon="2.71487">
        <ele>105.88</ele>
        <time>2013-11-23T09:10:41Z</time>
      </trkpt>
      <trkpt lat="48.37349" lon="2.71503">
        <ele>104.92</ele>
        <time>2013-11-23T09:10:54Z</time>
      </trkpt>
      <trkpt lat="48.37346" lon="2.7152">
        <ele>103.96</ele>
        <time>2013-11-23T09:11:07Z</time>
      </trkpt>
      <trkpt lat="48.37347" lon="2.71523">
        <ele>104.92</ele>
        <time>2013-11-23T09:11:09Z</time>
      </trkpt>
      <trkpt lat="48.37345" lon="2.71532">
        <ele>103.96</ele>
        <time>2013-11-23T09:11:15Z</time>
      </trkpt>
      <trkpt lat="48.37347" lon="2.71534">
        <ele>103.96</ele>
        <time>2013-11-23T09:11:16Z</time>
      </trkpt>
      <trkpt lat="48.37353" lon="2.71535">
        <ele>104.92</ele>
        <time>2013-11-23T09:11:26Z</time>
      </trkpt>
      <trkpt lat="48.37361" lon="2.71533">
        <ele>107.32</ele>
        <time>2013-11-23T09:11:37Z</time>
      </trkpt>
      <trkpt lat="48.37368" lon="2.71539">
        <ele>108.29</ele>
        <time>2013-11-23T09:11:49Z</time>
      </trkpt>
      <trkpt lat="48.37376" lon="2.7154">
        <ele>111.65</ele>
        <time>2013-11-23T09:11:59Z</time>
      </trkpt>
      <trkpt lat="48.37383" lon="2.71539">
        <ele>113.57</ele>
        <time>2013-11-23T09:12:11Z</time>
      </trkpt>
      <trkpt lat="48.37391" lon="2.71541">
        <ele>115.01</ele>
        <time>2013-11-23T09:12:23Z</time>
      </trkpt>
      <trkpt lat="48.37397" lon="2.7154">
        <ele>117.9</ele>
        <time>2013-11-23T09:12:35Z</time>
      </trkpt>
      <trkpt lat="48.37399" lon="2.7154">
        <ele>118.86</ele>
        <time>2013-11-23T09:12:53Z</time>
      </trkpt>
      <trkpt lat="48.37403" lon="2.71545">
        <ele>119.82</ele>
        <time>2013-11-23T09:13:10Z</time>
      </trkpt>
      <trkpt lat="48.37406" lon="2.71542">
        <ele>119.34</ele>
        <time>2013-11-23T09:13:28Z</time>
      </trkpt>
      <trkpt lat="48.37407" lon="2.71541">
        <ele>119.82</ele>
        <time>2013-11-23T09:13:30Z</time>
      </trkpt>
      <trkpt lat="48.37412" lon="2.71533">
        <ele>122.22</ele>
        <time>2013-11-23T09:13:43Z</time>
      </trkpt>
      <trkpt lat="48.37414" lon="2.71531">
        <ele>125.59</ele>
        <time>2013-11-23T09:13:57Z</time>
      </trkpt>
      <trkpt lat="48.3742" lon="2.71525">
        <ele>125.11</ele>
        <time>2013-11-23T09:14:09Z</time>
      </trkpt>
      <trkpt lat="48.37422" lon="2.71523">
        <ele>125.59</ele>
        <time>2013-11-23T09:14:26Z</time>
      </trkpt>
      <trkpt lat="48.37418" lon="2.71522">
        <ele>126.07</ele>
        <time>2013-11-23T09:14:51Z</time>
      </trkpt>
      <trkpt lat="48.37418" lon="2.71522">
        <ele>126.07</ele>
        <time>2013-11-23T09:15:08Z</time>
      </trkpt>
      <trkpt lat="48.37418" lon="2.71526">
        <ele>126.07</ele>
        <time>2013-11-23T09:15:36Z</time>
      </trkpt>
      <trkpt lat="48.37421" lon="2.71527">
        <ele>126.07</ele>
        <time>2013-11-23T09:15:53Z</time>
      </trkpt>
      <trkpt lat="48.37419" lon="2.71524">
        <ele>125.59</ele>
        <time>2013-11-23T09:16:09Z</time>
      </trkpt>
      <trkpt lat="48.37419" lon="2.71525">
        <ele>126.07</ele>
        <time>2013-11-23T09:16:22Z</time>
      </trkpt>
      <trkpt lat="48.37422" lon="2.71525">
        <ele>125.59</ele>
        <time>2013-11-23T09:16:45Z</time>
      </trkpt>
      <trkpt lat="48.37423" lon="2.71524">
        <ele>125.59</ele>
        <time>2013-11-23T09:17:09Z</time>
      </trkpt>
      <trkpt lat="48.37423" lon="2.71525">
        <ele>125.59</ele>
        <time>2013-11-23T09:17:16Z</time>
      </trkpt>
      <trkpt lat="48.37422" lon="2.71526">
        <ele>125.59</ele>
        <time>2013-11-23T09:17:31Z</time>
      </trkpt>
      <trkpt lat="48.3742" lon="2.71523">
        <ele>125.59</ele>
        <time>2013-11-23T09:17:50Z</time>
      </trkpt>
      <trkpt lat="48.37421" lon="2.71525">
        <ele>126.07</ele>
        <time>2013-11-23T09:18:10Z</time>
      </trkpt>
      <trkpt lat="48.3742" lon="2.71522">
        <ele>126.07</ele>
        <time>2013-11-23T09:18:25Z</time>
      </trkpt>
      <trkpt lat="48.37419" lon="2.7152">
        <ele>126.07</ele>
        <time>2013-11-23T09:18:44Z</time>
      </trkpt>
      <trkpt lat="48.37419" lon="2.71522">
        <ele>125.59</ele>
        <time>2013-11-23T09:19:03Z</time>
      </trkpt>
      <trkpt lat="48.37421" lon="2.71525">
        <ele>126.55</ele>
        <time>2013-11-23T09:19:21Z</time>
      </trkpt>
      <trkpt lat="48.37422" lon="2.71524">
        <ele>125.11</ele>
        <time>2013-11-23T09:19:24Z</time>
      </trkpt>
      <trkpt lat="48.3742" lon="2.7152">
        <ele>128.47</ele>
        <time>2013-11-23T09:19:31Z</time>
      </trkpt>
      <trkpt lat="48.37419" lon="2.71519">
        <ele>128.47</ele>
        <time>2013-11-23T09:19:44Z</time>
      </trkpt>
      <trkpt lat="48.37422" lon="2.71525">
        <ele>127.51</ele>
        <time>2013-11-23T09:20:06Z</time>
      </trkpt>
      <trkpt lat="48.37418" lon="2.71528">
        <ele>124.15</ele>
        <time>2013-11-23T09:20:19Z</time>
      </trkpt>
      <trkpt lat="48.37416" lon="2.71529">
        <ele>125.11</ele>
        <time>2013-11-23T09:20:32Z</time>
      </trkpt>
      <trkpt lat="48.37412" lon="2.71535">
        <ele>121.74</ele>
        <time>2013-11-23T09:20:43Z</time>
      </trkpt>
      <trkpt lat="48.37407" lon="2.71542">
        <ele>119.82</ele>
        <time>2013-11-23T09:20:55Z</time>
      </trkpt>
      <trkpt lat="48.37406" lon="2.71541">
        <ele>119.34</ele>
        <time>2013-11-23T09:20:59Z</time>
      </trkpt>
      <trkpt lat="48.37404" lon="2.71542">
        <ele>119.82</ele>
        <time>2013-11-23T09:21:02Z</time>
      </trkpt>
      <trkpt lat="48.37398" lon="2.71541">
        <ele>117.9</ele>
        <time>2013-11-23T09:21:15Z</time>
      </trkpt>
      <trkpt lat="48.37395" lon="2.71544">
        <ele>115.98</ele>
        <time>2013-11-23T09:21:26Z</time>
      </trkpt>
      <trkpt lat="48.37395" lon="2.71544">
        <ele>115.98</ele>
        <time>2013-11-23T09:21:28Z</time>
      </trkpt>
      <trkpt lat="48.3739" lon="2.71541">
        <ele>113.57</ele>
        <time>2013-11-23T09:21:41Z</time>
      </trkpt>
      <trkpt lat="48.37387" lon="2.71544">
        <ele>113.09</ele>
        <time>2013-11-23T09:22:00Z</time>
      </trkpt>
      <trkpt lat="48.37383" lon="2.71544">
        <ele>110.69</ele>
        <time>2013-11-23T09:22:15Z</time>
      </trkpt>
      <trkpt lat="48.37375" lon="2.71539">
        <ele>110.21</ele>
        <time>2013-11-23T09:22:28Z</time>
      </trkpt>
      <trkpt lat="48.37365" lon="2.71541">
        <ele>109.73</ele>
        <time>2013-11-23T09:22:56Z</time>
      </trkpt>
      <trkpt lat="48.37365" lon="2.71541">
        <ele>109.73</ele>
        <time>2013-11-23T09:23:06Z</time>
      </trkpt>
      <trkpt lat="48.3737" lon="2.71546">
        <ele>109.73</ele>
        <time>2013-11-23T09:23:20Z</time>
      </trkpt>
      <trkpt lat="48.37371" lon="2.71543">
        <ele>109.25</ele>
        <time>2013-11-23T09:23:32Z</time>
      </trkpt>
      <trkpt lat="48.37373" lon="2.71536">
        <ele>108.77</ele>
        <time>2013-11-23T09:23:45Z</time>
      </trkpt>
      <trkpt lat="48.37373" lon="2.71535">
        <ele>108.29</ele>
        <time>2013-11-23T09:23:51Z</time>
      </trkpt>
      <trkpt lat="48.37366" lon="2.71536">
        <ele>106.36</ele>
        <time>2013-11-23T09:24:03Z</time>
      </trkpt>
      <trkpt lat="48.37361" lon="2.71536">
        <ele>105.4</ele>
        <time>2013-11-23T09:24:10Z</time>
      </trkpt>
      <trkpt lat="48.37351" lon="2.71537">
        <ele>104.44</ele>
        <time>2013-11-23T09:24:22Z</time>
      </trkpt>
      <trkpt lat="48.3735" lon="2.71544">
        <ele>103.48</ele>
        <time>2013-11-23T09:24:27Z</time>
      </trkpt>
      <trkpt lat="48.37349" lon="2.71546">
        <ele>105.88</ele>
        <time>2013-11-23T09:24:31Z</time>
      </trkpt>
      <trkpt lat="48.37349" lon="2.71546">
        <ele>104.44</ele>
        <time>2013-11-23T09:24:32Z</time>
      </trkpt>
      <trkpt lat="48.37349" lon="2.71547">
        <ele>105.88</ele>
        <time>2013-11-23T09:24:40Z</time>
      </trkpt>
      <trkpt lat="48.37347" lon="2.71547">
        <ele>104.44</ele>
        <time>2013-11-23T09:24:59Z</time>
      </trkpt>
      <trkpt lat="48.37348" lon="2.71549">
        <ele>103.96</ele>
        <time>2013-11-23T09:25:10Z</time>
      </trkpt>
      <trkpt lat="48.37348" lon="2.71551">
        <ele>103.96</ele>
        <time>2013-11-23T09:25:11Z</time>
      </trkpt>
      <trkpt lat="48.3735" lon="2.71558">
        <ele>103.96</ele>
        <time>2013-11-23T09:25:17Z</time>
      </trkpt>
      <trkpt lat="48.37352" lon="2.71577">
        <ele>103.48</ele>
        <time>2013-11-23T09:25:27Z</time>
      </trkpt>
      <trkpt lat="48.37352" lon="2.71581">
        <ele>102.52</ele>
        <time>2013-11-23T09:25:30Z</time>
      </trkpt>
      <trkpt lat="48.37351" lon="2.71585">
        <ele>103.48</ele>
        <time>2013-11-23T09:25:32Z</time>
      </trkpt>
      <trkpt lat="48.37351" lon="2.71586">
        <ele>103.48</ele>
        <time>2013-11-23T09:25:33Z</time>
      </trkpt>
      <trkpt lat="48.3735" lon="2.71596">
        <ele>102.52</ele>
        <time>2013-11-23T09:25:41Z</time>
      </trkpt>
      <trkpt lat="48.3735" lon="2.71618">
        <ele>101.56</ele>
        <time>2013-11-23T09:25:52Z</time>
      </trkpt>
      <trkpt lat="48.37349" lon="2.71636">
        <ele>101.56</ele>
        <time>2013-11-23T09:26:02Z</time>
      </trkpt>
      <trkpt lat="48.37349" lon="2.71657">
        <ele>101.08</ele>
        <time>2013-11-23T09:26:15Z</time>
      </trkpt>
      <trkpt lat="48.37348" lon="2.7166">
        <ele>100.11</ele>
        <time>2013-11-23T09:26:17Z</time>
      </trkpt>
      <trkpt lat="48.37347" lon="2.71662">
        <ele>100.6</ele>
        <time>2013-11-23T09:26:18Z</time>
      </trkpt>
      <trkpt lat="48.37347" lon="2.71664">
        <ele>100.6</ele>
        <time>2013-11-23T09:26:19Z</time>
      </trkpt>
      <trkpt lat="48.37344" lon="2.7168">
        <ele>99.63</ele>
        <time>2013-11-23T09:26:29Z</time>
      </trkpt>
      <trkpt lat="48.37341" lon="2.71698">
        <ele>98.67</ele>
        <time>2013-11-23T09:26:39Z</time>
      </trkpt>
      <trkpt lat="48.3734" lon="2.71702">
        <ele>99.15</ele>
        <time>2013-11-23T09:26:41Z</time>
      </trkpt>
      <trkpt lat="48.37335" lon="2.71722">
        <ele>99.15</ele>
        <time>2013-11-23T09:26:52Z</time>
      </trkpt>
      <trkpt lat="48.3733" lon="2.71734">
        <ele>98.67</ele>
        <time>2013-11-23T09:27:01Z</time>
      </trkpt>
      <trkpt lat="48.3733" lon="2.71735">
        <ele>99.15</ele>
        <time>2013-11-23T09:27:02Z</time>
      </trkpt>
      <trkpt lat="48.37326" lon="2.71757">
        <ele>98.19</ele>
        <time>2013-11-23T09:27:16Z</time>
      </trkpt>
      <trkpt lat="48.37321" lon="2.71777">
        <ele>98.67</ele>
        <time>2013-11-23T09:27:29Z</time>
      </trkpt>
      <trkpt lat="48.37318" lon="2.71792">
        <ele>97.23</ele>
        <time>2013-11-23T09:27:36Z</time>
      </trkpt>
      <trkpt lat="48.37313" lon="2.71803">
        <ele>98.67</ele>
        <time>2013-11-23T09:27:44Z</time>
      </trkpt>
      <trkpt lat="48.37309" lon="2.71808">
        <ele>97.71</ele>
        <time>2013-11-23T09:27:48Z</time>
      </trkpt>
      <trkpt lat="48.37306" lon="2.71819">
        <ele>97.23</ele>
        <time>2013-11-23T09:27:59Z</time>
      </trkpt>
      <trkpt lat="48.37305" lon="2.71821">
        <ele>98.67</ele>
        <time>2013-11-23T09:28:00Z</time>
      </trkpt>
      <trkpt lat="48.37304" lon="2.71822">
        <ele>98.67</ele>
        <time>2013-11-23T09:28:01Z</time>
      </trkpt>
      <trkpt lat="48.37295" lon="2.71842">
        <ele>98.67</ele>
        <time>2013-11-23T09:28:14Z</time>
      </trkpt>
      <trkpt lat="48.3729" lon="2.71857">
        <ele>97.71</ele>
        <time>2013-11-23T09:28:23Z</time>
      </trkpt>
      <trkpt lat="48.37279" lon="2.71881">
        <ele>98.19</ele>
        <time>2013-11-23T09:28:34Z</time>
      </trkpt>
      <trkpt lat="48.37274" lon="2.71892">
        <ele>98.19</ele>
        <time>2013-11-23T09:28:42Z</time>
      </trkpt>
      <trkpt lat="48.37267" lon="2.71913">
        <ele>96.75</ele>
        <time>2013-11-23T09:28:58Z</time>
      </trkpt>
      <trkpt lat="48.37264" lon="2.7192">
        <ele>92.9</ele>
        <time>2013-11-23T09:29:02Z</time>
      </trkpt>
      <trkpt lat="48.37263" lon="2.71923">
        <ele>97.23</ele>
        <time>2013-11-23T09:29:04Z</time>
      </trkpt>
      <trkpt lat="48.37262" lon="2.71925">
        <ele>95.79</ele>
        <time>2013-11-23T09:29:05Z</time>
      </trkpt>
      <trkpt lat="48.37258" lon="2.71937">
        <ele>92.42</ele>
        <time>2013-11-23T09:29:13Z</time>
      </trkpt>
      <trkpt lat="48.37258" lon="2.71938">
        <ele>97.71</ele>
        <time>2013-11-23T09:29:14Z</time>
      </trkpt>
      <trkpt lat="48.37258" lon="2.7194">
        <ele>94.35</ele>
        <time>2013-11-23T09:29:15Z</time>
      </trkpt>
      <trkpt lat="48.37249" lon="2.71967">
        <ele>92.9</ele>
        <time>2013-11-23T09:29:31Z</time>
      </trkpt>
      <trkpt lat="48.37238" lon="2.71985">
        <ele>91.46</ele>
        <time>2013-11-23T09:29:47Z</time>
      </trkpt>
      <trkpt lat="48.37234" lon="2.71986">
        <ele>88.1</ele>
        <time>2013-11-23T09:29:50Z</time>
      </trkpt>
      <trkpt lat="48.37233" lon="2.71986">
        <ele>91.46</ele>
        <time>2013-11-23T09:29:51Z</time>
      </trkpt>
      <trkpt lat="48.37232" lon="2.71985">
        <ele>90.98</ele>
        <time>2013-11-23T09:29:52Z</time>
      </trkpt>
      <trkpt lat="48.37224" lon="2.71984">
        <ele>88.1</ele>
        <time>2013-11-23T09:29:59Z</time>
      </trkpt>
      <trkpt lat="48.37222" lon="2.71984">
        <ele>90.98</ele>
        <time>2013-11-23T09:30:00Z</time>
      </trkpt>
      <trkpt lat="48.37217" lon="2.71984">
        <ele>90.02</ele>
        <time>2013-11-23T09:30:13Z</time>
      </trkpt>
      <trkpt lat="48.37217" lon="2.71984">
        <ele>89.54</ele>
        <time>2013-11-23T09:30:29Z</time>
      </trkpt>
      <trkpt lat="48.37216" lon="2.71984">
        <ele>89.54</ele>
        <time>2013-11-23T09:30:48Z</time>
      </trkpt>
      <trkpt lat="48.37216" lon="2.71987">
        <ele>89.54</ele>
        <time>2013-11-23T09:31:12Z</time>
      </trkpt>
      <trkpt lat="48.37215" lon="2.71985">
        <ele>90.02</ele>
        <time>2013-11-23T09:31:31Z</time>
      </trkpt>
      <trkpt lat="48.37217" lon="2.71983">
        <ele>89.54</ele>
        <time>2013-11-23T09:31:37Z</time>
      </trkpt>
      <trkpt lat="48.37216" lon="2.71986">
        <ele>89.54</ele>
        <time>2013-11-23T09:31:48Z</time>
      </trkpt>
      <trkpt lat="48.37216" lon="2.71988">
        <ele>89.54</ele>
        <time>2013-11-23T09:32:04Z</time>
      </trkpt>
      <trkpt lat="48.37216" lon="2.71984">
        <ele>89.06</ele>
        <time>2013-11-23T09:32:22Z</time>
      </trkpt>
      <trkpt lat="48.37215" lon="2.71983">
        <ele>90.02</ele>
        <time>2013-11-23T09:32:24Z</time>
      </trkpt>
      <trkpt lat="48.37214" lon="2.71983">
        <ele>91.94</ele>
        <time>2013-11-23T09:32:28Z</time>
      </trkpt>
      <trkpt lat="48.37213" lon="2.71983">
        <ele>88.58</ele>
        <time>2013-11-23T09:32:30Z</time>
      </trkpt>
      <trkpt lat="48.37213" lon="2.71984">
        <ele>91.94</ele>
        <time>2013-11-23T09:32:35Z</time>
      </trkpt>
      <trkpt lat="48.37212" lon="2.71985">
        <ele>88.58</ele>
        <time>2013-11-23T09:32:37Z</time>
      </trkpt>
      <trkpt lat="48.37212" lon="2.71985">
        <ele>89.06</ele>
        <time>2013-11-23T09:32:38Z</time>
      </trkpt>
      <trkpt lat="48.37212" lon="2.71985">
        <ele>90.98</ele>
        <time>2013-11-23T09:32:40Z</time>
      </trkpt>
      <trkpt lat="48.37212" lon="2.71983">
        <ele>89.06</ele>
        <time>2013-11-23T09:32:57Z</time>
      </trkpt>
      <trkpt lat="48.37215" lon="2.71983">
        <ele>89.06</ele>
        <time>2013-11-23T09:33:18Z</time>
      </trkpt>
      <trkpt lat="48.37216" lon="2.71987">
        <ele>88.58</ele>
        <time>2013-11-23T09:33:32Z</time>
      </trkpt>
      <trkpt lat="48.37216" lon="2.71989">
        <ele>90.02</ele>
        <time>2013-11-23T09:33:51Z</time>
      </trkpt>
      <trkpt lat="48.37216" lon="2.71988">
        <ele>89.54</ele>
        <time>2013-11-23T09:33:53Z</time>
      </trkpt>
      <trkpt lat="48.37217" lon="2.71987">
        <ele>89.54</ele>
        <time>2013-11-23T09:33:55Z</time>
      </trkpt>
      <trkpt lat="48.37216" lon="2.71987">
        <ele>88.58</ele>
        <time>2013-11-23T09:34:10Z</time>
      </trkpt>
      <trkpt lat="48.37216" lon="2.71988">
        <ele>89.06</ele>
        <time>2013-11-23T09:34:32Z</time>
      </trkpt>
      <trkpt lat="48.37215" lon="2.71987">
        <ele>88.58</ele>
        <time>2013-11-23T09:34:48Z</time>
      </trkpt>
      <trkpt lat="48.37216" lon="2.71987">
        <ele>89.54</ele>
        <time>2013-11-23T09:35:03Z</time>
      </trkpt>
      <trkpt lat="48.37217" lon="2.71989">
        <ele>86.18</ele>
        <time>2013-11-23T09:35:14Z</time>
      </trkpt>
      <trkpt lat="48.37217" lon="2.71989">
        <ele>91.94</ele>
        <time>2013-11-23T09:35:15Z</time>
      </trkpt>
      <trkpt lat="48.37217" lon="2.71989">
        <ele>86.18</ele>
        <time>2013-11-23T09:35:16Z</time>
      </trkpt>
      <trkpt lat="48.37217" lon="2.71989">
        <ele>90.02</ele>
        <time>2013-11-23T09:35:17Z</time>
      </trkpt>
      <trkpt lat="48.37217" lon="2.71989">
        <ele>87.14</ele>
        <time>2013-11-23T09:35:22Z</time>
      </trkpt>
      <trkpt lat="48.37217" lon="2.71989">
        <ele>91.94</ele>
        <time>2013-11-23T09:35:23Z</time>
      </trkpt>
      <trkpt lat="48.37217" lon="2.71989">
        <ele>87.14</ele>
        <time>2013-11-23T09:35:24Z</time>
      </trkpt>
      <trkpt lat="48.37217" lon="2.71991">
        <ele>90.02</ele>
        <time>2013-11-23T09:35:30Z</time>
      </trkpt>
      <trkpt lat="48.37216" lon="2.71987">
        <ele>89.54</ele>
        <time>2013-11-23T09:35:46Z</time>
      </trkpt>
      <trkpt lat="48.37214" lon="2.71983">
        <ele>91.46</ele>
        <time>2013-11-23T09:36:07Z</time>
      </trkpt>
      <trkpt lat="48.37215" lon="2.71983">
        <ele>89.54</ele>
        <time>2013-11-23T09:36:10Z</time>
      </trkpt>
      <trkpt lat="48.37215" lon="2.71976">
        <ele>89.06</ele>
        <time>2013-11-23T09:36:29Z</time>
      </trkpt>
      <trkpt lat="48.37214" lon="2.71975">
        <ele>89.06</ele>
        <time>2013-11-23T09:36:55Z</time>
      </trkpt>
      <trkpt lat="48.37212" lon="2.71978">
        <ele>89.54</ele>
        <time>2013-11-23T09:37:14Z</time>
      </trkpt>
      <trkpt lat="48.3721" lon="2.71974">
        <ele>89.06</ele>
        <time>2013-11-23T09:37:32Z</time>
      </trkpt>
      <trkpt lat="48.37213" lon="2.71978">
        <ele>88.58</ele>
        <time>2013-11-23T09:38:05Z</time>
      </trkpt>
      <trkpt lat="48.37215" lon="2.71982">
        <ele>89.06</ele>
        <time>2013-11-23T09:38:21Z</time>
      </trkpt>
      <trkpt lat="48.37214" lon="2.71983">
        <ele>90.02</ele>
        <time>2013-11-23T09:38:35Z</time>
      </trkpt>
      <trkpt lat="48.37214" lon="2.71983">
        <ele>88.58</ele>
        <time>2013-11-23T09:38:37Z</time>
      </trkpt>
      <trkpt lat="48.37213" lon="2.71984">
        <ele>85.69</ele>
        <time>2013-11-23T09:38:40Z</time>
      </trkpt>
      <trkpt lat="48.37213" lon="2.71984">
        <ele>87.14</ele>
        <time>2013-11-23T09:38:41Z</time>
      </trkpt>
      <trkpt lat="48.37212" lon="2.71987">
        <ele>89.54</ele>
        <time>2013-11-23T09:38:43Z</time>
      </trkpt>
      <trkpt lat="48.37214" lon="2.71986">
        <ele>88.58</ele>
        <time>2013-11-23T09:39:06Z</time>
      </trkpt>
      <trkpt lat="48.37213" lon="2.71979">
        <ele>88.58</ele>
        <time>2013-11-23T09:39:27Z</time>
      </trkpt>
      <trkpt lat="48.37214" lon="2.71983">
        <ele>88.58</ele>
        <time>2013-11-23T09:39:40Z</time>
      </trkpt>
      <trkpt lat="48.37211" lon="2.71982">
        <ele>89.06</ele>
        <time>2013-11-23T09:39:59Z</time>
      </trkpt>
      <trkpt lat="48.37209" lon="2.71986">
        <ele>88.1</ele>
        <time>2013-11-23T09:40:17Z</time>
      </trkpt>
      <trkpt lat="48.37209" lon="2.71986">
        <ele>88.1</ele>
        <time>2013-11-23T09:40:24Z</time>
      </trkpt>
      <trkpt lat="48.37205" lon="2.71983">
        <ele>88.1</ele>
        <time>2013-11-23T09:40:41Z</time>
      </trkpt>
      <trkpt lat="48.37205" lon="2.71985">
        <ele>88.1</ele>
        <time>2013-11-23T09:41:00Z</time>
      </trkpt>
      <trkpt lat="48.37202" lon="2.71981">
        <ele>88.58</ele>
        <time>2013-11-23T09:41:14Z</time>
      </trkpt>
      <trkpt lat="48.37201" lon="2.71981">
        <ele>88.58</ele>
        <time>2013-11-23T09:41:17Z</time>
      </trkpt>
      <trkpt lat="48.372" lon="2.71981">
        <ele>88.58</ele>
        <time>2013-11-23T09:41:18Z</time>
      </trkpt>
      <trkpt lat="48.37199" lon="2.71981">
        <ele>88.1</ele>
        <time>2013-11-23T09:41:19Z</time>
      </trkpt>
      <trkpt lat="48.37192" lon="2.71982">
        <ele>87.14</ele>
        <time>2013-11-23T09:41:28Z</time>
      </trkpt>
      <trkpt lat="48.37183" lon="2.7198">
        <ele>87.14</ele>
        <time>2013-11-23T09:41:38Z</time>
      </trkpt>
      <trkpt lat="48.37182" lon="2.7198">
        <ele>87.14</ele>
        <time>2013-11-23T09:41:39Z</time>
      </trkpt>
      <trkpt lat="48.3718" lon="2.7198">
        <ele>87.62</ele>
        <time>2013-11-23T09:41:40Z</time>
      </trkpt>
      <trkpt lat="48.37178" lon="2.71981">
        <ele>88.58</ele>
        <time>2013-11-23T09:41:43Z</time>
      </trkpt>
      <trkpt lat="48.37173" lon="2.7198">
        <ele>87.62</ele>
        <time>2013-11-23T09:41:47Z</time>
      </trkpt>
      <trkpt lat="48.37171" lon="2.71981">
        <ele>88.1</ele>
        <time>2013-11-23T09:41:48Z</time>
      </trkpt>
      <trkpt lat="48.3717" lon="2.71981">
        <ele>87.14</ele>
        <time>2013-11-23T09:41:49Z</time>
      </trkpt>
      <trkpt lat="48.37168" lon="2.71981">
        <ele>87.14</ele>
        <time>2013-11-23T09:41:50Z</time>
      </trkpt>
      <trkpt lat="48.37167" lon="2.71981">
        <ele>87.14</ele>
        <time>2013-11-23T09:41:51Z</time>
      </trkpt>
      <trkpt lat="48.37165" lon="2.71982">
        <ele>87.62</ele>
        <time>2013-11-23T09:41:52Z</time>
      </trkpt>
      <trkpt lat="48.37156" lon="2.71983">
        <ele>88.1</ele>
        <time>2013-11-23T09:41:58Z</time>
      </trkpt>
      <trkpt lat="48.37155" lon="2.71982">
        <ele>88.1</ele>
        <time>2013-11-23T09:41:59Z</time>
      </trkpt>
      <trkpt lat="48.37153" lon="2.71981">
        <ele>88.58</ele>
        <time>2013-11-23T09:42:00Z</time>
      </trkpt>
      <trkpt lat="48.37151" lon="2.71981">
        <ele>87.62</ele>
        <time>2013-11-23T09:42:01Z</time>
      </trkpt>
      <trkpt lat="48.3715" lon="2.71981">
        <ele>88.1</ele>
        <time>2013-11-23T09:42:02Z</time>
      </trkpt>
      <trkpt lat="48.37138" lon="2.71979">
        <ele>88.58</ele>
        <time>2013-11-23T09:42:13Z</time>
      </trkpt>
      <trkpt lat="48.37129" lon="2.71979">
        <ele>89.54</ele>
        <time>2013-11-23T09:42:19Z</time>
      </trkpt>
      <trkpt lat="48.37124" lon="2.7197">
        <ele>89.54</ele>
        <time>2013-11-23T09:42:30Z</time>
      </trkpt>
      <trkpt lat="48.37123" lon="2.71968">
        <ele>90.02</ele>
        <time>2013-11-23T09:42:34Z</time>
      </trkpt>
      <trkpt lat="48.37115" lon="2.71954">
        <ele>90.5</ele>
        <time>2013-11-23T09:42:46Z</time>
      </trkpt>
      <trkpt lat="48.37114" lon="2.71953">
        <ele>90.5</ele>
        <time>2013-11-23T09:42:47Z</time>
      </trkpt>
      <trkpt lat="48.37114" lon="2.71952">
        <ele>90.5</ele>
        <time>2013-11-23T09:42:48Z</time>
      </trkpt>
      <trkpt lat="48.37112" lon="2.71951">
        <ele>90.98</ele>
        <time>2013-11-23T09:42:49Z</time>
      </trkpt>
      <trkpt lat="48.37107" lon="2.71944">
        <ele>90.98</ele>
        <time>2013-11-23T09:42:57Z</time>
      </trkpt>
      <trkpt lat="48.37104" lon="2.71938">
        <ele>91.46</ele>
        <time>2013-11-23T09:43:01Z</time>
      </trkpt>
      <trkpt lat="48.37103" lon="2.71935">
        <ele>90.98</ele>
        <time>2013-11-23T09:43:03Z</time>
      </trkpt>
      <trkpt lat="48.37102" lon="2.71933">
        <ele>90.98</ele>
        <time>2013-11-23T09:43:04Z</time>
      </trkpt>
      <trkpt lat="48.37098" lon="2.71925">
        <ele>90.98</ele>
        <time>2013-11-23T09:43:12Z</time>
      </trkpt>
      <trkpt lat="48.37095" lon="2.71922">
        <ele>91.46</ele>
        <time>2013-11-23T09:43:16Z</time>
      </trkpt>
      <trkpt lat="48.37094" lon="2.7192">
        <ele>91.46</ele>
        <time>2013-11-23T09:43:17Z</time>
      </trkpt>
      <trkpt lat="48.37091" lon="2.71914">
        <ele>90.98</ele>
        <time>2013-11-23T09:43:23Z</time>
      </trkpt>
      <trkpt lat="48.37089" lon="2.71911">
        <ele>91.46</ele>
        <time>2013-11-23T09:43:27Z</time>
      </trkpt>
      <trkpt lat="48.37087" lon="2.7191">
        <ele>90.98</ele>
        <time>2013-11-23T09:43:28Z</time>
      </trkpt>
      <trkpt lat="48.37085" lon="2.71908">
        <ele>91.46</ele>
        <time>2013-11-23T09:43:32Z</time>
      </trkpt>
      <trkpt lat="48.37084" lon="2.71907">
        <ele>90.5</ele>
        <time>2013-11-23T09:43:33Z</time>
      </trkpt>
      <trkpt lat="48.37082" lon="2.71905">
        <ele>90.98</ele>
        <time>2013-11-23T09:43:34Z</time>
      </trkpt>
      <trkpt lat="48.37081" lon="2.71903">
        <ele>90.98</ele>
        <time>2013-11-23T09:43:35Z</time>
      </trkpt>
      <trkpt lat="48.3708" lon="2.71896">
        <ele>90.98</ele>
        <time>2013-11-23T09:43:41Z</time>
      </trkpt>
      <trkpt lat="48.37078" lon="2.71894">
        <ele>90.98</ele>
        <time>2013-11-23T09:43:42Z</time>
      </trkpt>
      <trkpt lat="48.37077" lon="2.71891">
        <ele>91.94</ele>
        <time>2013-11-23T09:43:44Z</time>
      </trkpt>
      <trkpt lat="48.37075" lon="2.71883">
        <ele>91.46</ele>
        <time>2013-11-23T09:43:47Z</time>
      </trkpt>
      <trkpt lat="48.37074" lon="2.71881">
        <ele>90.98</ele>
        <time>2013-11-23T09:43:48Z</time>
      </trkpt>
      <trkpt lat="48.37072" lon="2.71879">
        <ele>90.98</ele>
        <time>2013-11-23T09:43:49Z</time>
      </trkpt>
      <trkpt lat="48.37071" lon="2.71877">
        <ele>90.5</ele>
        <time>2013-11-23T09:43:50Z</time>
      </trkpt>
      <trkpt lat="48.37071" lon="2.71876">
        <ele>90.98</ele>
        <time>2013-11-23T09:43:51Z</time>
      </trkpt>
      <trkpt lat="48.37068" lon="2.7187">
        <ele>90.98</ele>
        <time>2013-11-23T09:43:56Z</time>
      </trkpt>
      <trkpt lat="48.37067" lon="2.71868">
        <ele>90.5</ele>
        <time>2013-11-23T09:43:57Z</time>
      </trkpt>
      <trkpt lat="48.37066" lon="2.71866">
        <ele>90.98</ele>
        <time>2013-11-23T09:43:58Z</time>
      </trkpt>
      <trkpt lat="48.37061" lon="2.71853">
        <ele>90.98</ele>
        <time>2013-11-23T09:44:08Z</time>
      </trkpt>
      <trkpt lat="48.37058" lon="2.7185">
        <ele>91.46</ele>
        <time>2013-11-23T09:44:13Z</time>
      </trkpt>
      <trkpt lat="48.37057" lon="2.71849">
        <ele>91.46</ele>
        <time>2013-11-23T09:44:14Z</time>
      </trkpt>
      <trkpt lat="48.37055" lon="2.71848">
        <ele>91.94</ele>
        <time>2013-11-23T09:44:15Z</time>
      </trkpt>
      <trkpt lat="48.37053" lon="2.71842">
        <ele>91.94</ele>
        <time>2013-11-23T09:44:20Z</time>
      </trkpt>
      <trkpt lat="48.37053" lon="2.71839">
        <ele>91.46</ele>
        <time>2013-11-23T09:44:21Z</time>
      </trkpt>
      <trkpt lat="48.3705" lon="2.71832">
        <ele>91.94</ele>
        <time>2013-11-23T09:44:27Z</time>
      </trkpt>
      <trkpt lat="48.37049" lon="2.71831">
        <ele>92.42</ele>
        <time>2013-11-23T09:44:28Z</time>
      </trkpt>
      <trkpt lat="48.37048" lon="2.71829">
        <ele>92.42</ele>
        <time>2013-11-23T09:44:29Z</time>
      </trkpt>
      <trkpt lat="48.37044" lon="2.71816">
        <ele>91.94</ele>
        <time>2013-11-23T09:44:39Z</time>
      </trkpt>
      <trkpt lat="48.37039" lon="2.718">
        <ele>92.42</ele>
        <time>2013-11-23T09:44:50Z</time>
      </trkpt>
      <trkpt lat="48.37033" lon="2.71793">
        <ele>93.39</ele>
        <time>2013-11-23T09:44:55Z</time>
      </trkpt>
      <trkpt lat="48.37032" lon="2.7179">
        <ele>93.39</ele>
        <time>2013-11-23T09:44:56Z</time>
      </trkpt>
      <trkpt lat="48.37031" lon="2.71788">
        <ele>93.39</ele>
        <time>2013-11-23T09:44:57Z</time>
      </trkpt>
      <trkpt lat="48.37024" lon="2.71777">
        <ele>93.87</ele>
        <time>2013-11-23T09:45:06Z</time>
      </trkpt>
      <trkpt lat="48.37013" lon="2.71758">
        <ele>94.35</ele>
        <time>2013-11-23T09:45:18Z</time>
      </trkpt>
      <trkpt lat="48.37008" lon="2.71747">
        <ele>97.71</ele>
        <time>2013-11-23T09:45:25Z</time>
      </trkpt>
      <trkpt lat="48.37006" lon="2.71745">
        <ele>94.35</ele>
        <time>2013-11-23T09:45:26Z</time>
      </trkpt>
      <trkpt lat="48.37" lon="2.71735">
        <ele>94.83</ele>
        <time>2013-11-23T09:45:30Z</time>
      </trkpt>
      <trkpt lat="48.36999" lon="2.71734">
        <ele>97.23</ele>
        <time>2013-11-23T09:45:31Z</time>
      </trkpt>
      <trkpt lat="48.36998" lon="2.71732">
        <ele>96.27</ele>
        <time>2013-11-23T09:45:32Z</time>
      </trkpt>
      <trkpt lat="48.36988" lon="2.71708">
        <ele>95.79</ele>
        <time>2013-11-23T09:45:44Z</time>
      </trkpt>
      <trkpt lat="48.36982" lon="2.71696">
        <ele>96.27</ele>
        <time>2013-11-23T09:45:54Z</time>
      </trkpt>
      <trkpt lat="48.3698" lon="2.71692">
        <ele>96.27</ele>
        <time>2013-11-23T09:45:56Z</time>
      </trkpt>
      <trkpt lat="48.36973" lon="2.7168">
        <ele>95.79</ele>
        <time>2013-11-23T09:46:07Z</time>
      </trkpt>
      <trkpt lat="48.3697" lon="2.71675">
        <ele>95.31</ele>
        <time>2013-11-23T09:46:12Z</time>
      </trkpt>
      <trkpt lat="48.36969" lon="2.71673">
        <ele>95.31</ele>
        <time>2013-11-23T09:46:13Z</time>
      </trkpt>
      <trkpt lat="48.3696" lon="2.71658">
        <ele>95.79</ele>
        <time>2013-11-23T09:46:24Z</time>
      </trkpt>
      <trkpt lat="48.36952" lon="2.71636">
        <ele>92.42</ele>
        <time>2013-11-23T09:46:35Z</time>
      </trkpt>
      <trkpt lat="48.36951" lon="2.71633">
        <ele>96.75</ele>
        <time>2013-11-23T09:46:36Z</time>
      </trkpt>
      <trkpt lat="48.36947" lon="2.7162">
        <ele>94.83</ele>
        <time>2013-11-23T09:46:51Z</time>
      </trkpt>
      <trkpt lat="48.36947" lon="2.7162">
        <ele>96.27</ele>
        <time>2013-11-23T09:47:01Z</time>
      </trkpt>
      <trkpt lat="48.36935" lon="2.71617">
        <ele>94.83</ele>
        <time>2013-11-23T09:47:12Z</time>
      </trkpt>
      <trkpt lat="48.36934" lon="2.71615">
        <ele>94.35</ele>
        <time>2013-11-23T09:47:14Z</time>
      </trkpt>
      <trkpt lat="48.36926" lon="2.71607">
        <ele>94.35</ele>
        <time>2013-11-23T09:47:20Z</time>
      </trkpt>
      <trkpt lat="48.36924" lon="2.71605">
        <ele>95.31</ele>
        <time>2013-11-23T09:47:21Z</time>
      </trkpt>
      <trkpt lat="48.36923" lon="2.71605">
        <ele>94.35</ele>
        <time>2013-11-23T09:47:22Z</time>
      </trkpt>
      <trkpt lat="48.36923" lon="2.71604">
        <ele>94.35</ele>
        <time>2013-11-23T09:47:23Z</time>
      </trkpt>
      <trkpt lat="48.36914" lon="2.71593">
        <ele>93.87</ele>
        <time>2013-11-23T09:47:37Z</time>
      </trkpt>
      <trkpt lat="48.36901" lon="2.71581">
        <ele>94.83</ele>
        <time>2013-11-23T09:47:49Z</time>
      </trkpt>
      <trkpt lat="48.36896" lon="2.71572">
        <ele>91.46</ele>
        <time>2013-11-23T09:47:54Z</time>
      </trkpt>
      <trkpt lat="48.36894" lon="2.7157">
        <ele>94.35</ele>
        <time>2013-11-23T09:47:56Z</time>
      </trkpt>
      <trkpt lat="48.36885" lon="2.71559">
        <ele>92.9</ele>
        <time>2013-11-23T09:48:05Z</time>
      </trkpt>
      <trkpt lat="48.36884" lon="2.71558">
        <ele>93.39</ele>
        <time>2013-11-23T09:48:06Z</time>
      </trkpt>
      <trkpt lat="48.36878" lon="2.71551">
        <ele>93.87</ele>
        <time>2013-11-23T09:48:13Z</time>
      </trkpt>
      <trkpt lat="48.36877" lon="2.7155">
        <ele>93.87</ele>
        <time>2013-11-23T09:48:14Z</time>
      </trkpt>
      <trkpt lat="48.36867" lon="2.71538">
        <ele>96.75</ele>
        <time>2013-11-23T09:48:25Z</time>
      </trkpt>
      <trkpt lat="48.36866" lon="2.71536">
        <ele>93.87</ele>
        <time>2013-11-23T09:48:26Z</time>
      </trkpt>
      <trkpt lat="48.36851" lon="2.71523">
        <ele>93.87</ele>
        <time>2013-11-23T09:48:40Z</time>
      </trkpt>
      <trkpt lat="48.36835" lon="2.71507">
        <ele>98.19</ele>
        <time>2013-11-23T09:48:53Z</time>
      </trkpt>
      <trkpt lat="48.36834" lon="2.71505">
        <ele>94.35</ele>
        <time>2013-11-23T09:48:54Z</time>
      </trkpt>
      <trkpt lat="48.36816" lon="2.71484">
        <ele>94.83</ele>
        <time>2013-11-23T09:49:12Z</time>
      </trkpt>
      <trkpt lat="48.36813" lon="2.7148">
        <ele>95.79</ele>
        <time>2013-11-23T09:49:16Z</time>
      </trkpt>
      <trkpt lat="48.36812" lon="2.71479">
        <ele>94.83</ele>
        <time>2013-11-23T09:49:17Z</time>
      </trkpt>
      <trkpt lat="48.36805" lon="2.71468">
        <ele>95.79</ele>
        <time>2013-11-23T09:49:28Z</time>
      </trkpt>
      <trkpt lat="48.36805" lon="2.71467">
        <ele>95.31</ele>
        <time>2013-11-23T09:49:29Z</time>
      </trkpt>
      <trkpt lat="48.36804" lon="2.71465">
        <ele>95.31</ele>
        <time>2013-11-23T09:49:30Z</time>
      </trkpt>
      <trkpt lat="48.36803" lon="2.71464">
        <ele>95.31</ele>
        <time>2013-11-23T09:49:31Z</time>
      </trkpt>
      <trkpt lat="48.36786" lon="2.71446">
        <ele>95.79</ele>
        <time>2013-11-23T09:49:50Z</time>
      </trkpt>
      <trkpt lat="48.36773" lon="2.71431">
        <ele>97.23</ele>
        <time>2013-11-23T09:50:04Z</time>
      </trkpt>
      <trkpt lat="48.36763" lon="2.71422">
        <ele>98.19</ele>
        <time>2013-11-23T09:50:12Z</time>
      </trkpt>
      <trkpt lat="48.36755" lon="2.71413">
        <ele>99.15</ele>
        <time>2013-11-23T09:50:25Z</time>
      </trkpt>
      <trkpt lat="48.36748" lon="2.71414">
        <ele>99.63</ele>
        <time>2013-11-23T09:50:46Z</time>
      </trkpt>
      <trkpt lat="48.3674" lon="2.71406">
        <ele>99.63</ele>
        <time>2013-11-23T09:50:58Z</time>
      </trkpt>
      <trkpt lat="48.36737" lon="2.71402">
        <ele>99.63</ele>
        <time>2013-11-23T09:51:03Z</time>
      </trkpt>
      <trkpt lat="48.36726" lon="2.71396">
        <ele>98.67</ele>
        <time>2013-11-23T09:51:14Z</time>
      </trkpt>
      <trkpt lat="48.36724" lon="2.71395">
        <ele>98.67</ele>
        <time>2013-11-23T09:51:15Z</time>
      </trkpt>
      <trkpt lat="48.36706" lon="2.71388">
        <ele>99.15</ele>
        <time>2013-11-23T09:51:30Z</time>
      </trkpt>
      <trkpt lat="48.3669" lon="2.71385">
        <ele>97.71</ele>
        <time>2013-11-23T09:51:42Z</time>
      </trkpt>
      <trkpt lat="48.36689" lon="2.71384">
        <ele>98.19</ele>
        <time>2013-11-23T09:51:43Z</time>
      </trkpt>
      <trkpt lat="48.36681" lon="2.7138">
        <ele>94.35</ele>
        <time>2013-11-23T09:51:51Z</time>
      </trkpt>
      <trkpt lat="48.3668" lon="2.7138">
        <ele>99.15</ele>
        <time>2013-11-23T09:51:52Z</time>
      </trkpt>
      <trkpt lat="48.36664" lon="2.71373">
        <ele>96.75</ele>
        <time>2013-11-23T09:52:05Z</time>
      </trkpt>
      <trkpt lat="48.36649" lon="2.71362">
        <ele>95.79</ele>
        <time>2013-11-23T09:52:17Z</time>
      </trkpt>
      <trkpt lat="48.36647" lon="2.71361">
        <ele>95.31</ele>
        <time>2013-11-23T09:52:18Z</time>
      </trkpt>
      <trkpt lat="48.36646" lon="2.7136">
        <ele>94.83</ele>
        <time>2013-11-23T09:52:19Z</time>
      </trkpt>
      <trkpt lat="48.36638" lon="2.71355">
        <ele>93.87</ele>
        <time>2013-11-23T09:52:29Z</time>
      </trkpt>
      <trkpt lat="48.36636" lon="2.71354">
        <ele>93.87</ele>
        <time>2013-11-23T09:52:30Z</time>
      </trkpt>
      <trkpt lat="48.36622" lon="2.71343">
        <ele>92.42</ele>
        <time>2013-11-23T09:52:43Z</time>
      </trkpt>
      <trkpt lat="48.3661" lon="2.71332">
        <ele>91.46</ele>
        <time>2013-11-23T09:52:53Z</time>
      </trkpt>
      <trkpt lat="48.36608" lon="2.7133">
        <ele>90.98</ele>
        <time>2013-11-23T09:52:54Z</time>
      </trkpt>
      <trkpt lat="48.36606" lon="2.71329">
        <ele>90.98</ele>
        <time>2013-11-23T09:52:55Z</time>
      </trkpt>
      <trkpt lat="48.36604" lon="2.71327">
        <ele>91.46</ele>
        <time>2013-11-23T09:52:57Z</time>
      </trkpt>
      <trkpt lat="48.36603" lon="2.71326">
        <ele>90.98</ele>
        <time>2013-11-23T09:52:58Z</time>
      </trkpt>
      <trkpt lat="48.3659" lon="2.71315">
        <ele>90.02</ele>
        <time>2013-11-23T09:53:09Z</time>
      </trkpt>
      <trkpt lat="48.36587" lon="2.71315">
        <ele>90.02</ele>
        <time>2013-11-23T09:53:14Z</time>
      </trkpt>
      <trkpt lat="48.36585" lon="2.71314">
        <ele>90.02</ele>
        <time>2013-11-23T09:53:15Z</time>
      </trkpt>
      <trkpt lat="48.36568" lon="2.71302">
        <ele>90.02</ele>
        <time>2013-11-23T09:53:29Z</time>
      </trkpt>
      <trkpt lat="48.36558" lon="2.71295">
        <ele>90.02</ele>
        <time>2013-11-23T09:53:40Z</time>
      </trkpt>
      <trkpt lat="48.36551" lon="2.7129">
        <ele>90.5</ele>
        <time>2013-11-23T09:53:46Z</time>
      </trkpt>
      <trkpt lat="48.36549" lon="2.71289">
        <ele>90.5</ele>
        <time>2013-11-23T09:53:47Z</time>
      </trkpt>
      <trkpt lat="48.36543" lon="2.71285">
        <ele>90.5</ele>
        <time>2013-11-23T09:53:54Z</time>
      </trkpt>
      <trkpt lat="48.36539" lon="2.71281">
        <ele>90.5</ele>
        <time>2013-11-23T09:53:59Z</time>
      </trkpt>
      <trkpt lat="48.36529" lon="2.71274">
        <ele>91.46</ele>
        <time>2013-11-23T09:54:08Z</time>
      </trkpt>
      <trkpt lat="48.36518" lon="2.71268">
        <ele>91.94</ele>
        <time>2013-11-23T09:54:18Z</time>
      </trkpt>
      <trkpt lat="48.36516" lon="2.71267">
        <ele>91.46</ele>
        <time>2013-11-23T09:54:19Z</time>
      </trkpt>
      <trkpt lat="48.36515" lon="2.71267">
        <ele>91.94</ele>
        <time>2013-11-23T09:54:20Z</time>
      </trkpt>
      <trkpt lat="48.36513" lon="2.71267">
        <ele>91.46</ele>
        <time>2013-11-23T09:54:21Z</time>
      </trkpt>
      <trkpt lat="48.36504" lon="2.71266">
        <ele>91.94</ele>
        <time>2013-11-23T09:54:30Z</time>
      </trkpt>
      <trkpt lat="48.36499" lon="2.71268">
        <ele>93.87</ele>
        <time>2013-11-23T09:54:43Z</time>
      </trkpt>
      <trkpt lat="48.36494" lon="2.71268">
        <ele>89.06</ele>
        <time>2013-11-23T09:54:50Z</time>
      </trkpt>
      <trkpt lat="48.36493" lon="2.71269">
        <ele>94.35</ele>
        <time>2013-11-23T09:54:51Z</time>
      </trkpt>
      <trkpt lat="48.36485" lon="2.7127">
        <ele>92.9</ele>
        <time>2013-11-23T09:55:02Z</time>
      </trkpt>
      <trkpt lat="48.36472" lon="2.7128">
        <ele>93.87</ele>
        <time>2013-11-23T09:55:13Z</time>
      </trkpt>
      <trkpt lat="48.36469" lon="2.71283">
        <ele>93.87</ele>
        <time>2013-11-23T09:55:15Z</time>
      </trkpt>
      <trkpt lat="48.36459" lon="2.71295">
        <ele>95.31</ele>
        <time>2013-11-23T09:55:25Z</time>
      </trkpt>
      <trkpt lat="48.36451" lon="2.71308">
        <ele>96.75</ele>
        <time>2013-11-23T09:55:34Z</time>
      </trkpt>
      <trkpt lat="48.3645" lon="2.71308">
        <ele>97.23</ele>
        <time>2013-11-23T09:55:35Z</time>
      </trkpt>
      <trkpt lat="48.36449" lon="2.71309">
        <ele>96.75</ele>
        <time>2013-11-23T09:55:36Z</time>
      </trkpt>
      <trkpt lat="48.36448" lon="2.7131">
        <ele>96.75</ele>
        <time>2013-11-23T09:55:37Z</time>
      </trkpt>
      <trkpt lat="48.3644" lon="2.71313">
        <ele>98.19</ele>
        <time>2013-11-23T09:55:46Z</time>
      </trkpt>
      <trkpt lat="48.36434" lon="2.71318">
        <ele>100.11</ele>
        <time>2013-11-23T09:55:56Z</time>
      </trkpt>
      <trkpt lat="48.36432" lon="2.71324">
        <ele>100.11</ele>
        <time>2013-11-23T09:56:11Z</time>
      </trkpt>
      <trkpt lat="48.36431" lon="2.71324">
        <ele>101.08</ele>
        <time>2013-11-23T09:56:12Z</time>
      </trkpt>
      <trkpt lat="48.36425" lon="2.71326">
        <ele>101.56</ele>
        <time>2013-11-23T09:56:17Z</time>
      </trkpt>
      <trkpt lat="48.3642" lon="2.71336">
        <ele>103</ele>
        <time>2013-11-23T09:56:26Z</time>
      </trkpt>
      <trkpt lat="48.36418" lon="2.71338">
        <ele>102.52</ele>
        <time>2013-11-23T09:56:27Z</time>
      </trkpt>
      <trkpt lat="48.36417" lon="2.71339">
        <ele>103</ele>
        <time>2013-11-23T09:56:28Z</time>
      </trkpt>
      <trkpt lat="48.3641" lon="2.71349">
        <ele>106.84</ele>
        <time>2013-11-23T09:56:37Z</time>
      </trkpt>
      <trkpt lat="48.36407" lon="2.71353">
        <ele>104.44</ele>
        <time>2013-11-23T09:56:43Z</time>
      </trkpt>
      <trkpt lat="48.36405" lon="2.71353">
        <ele>104.92</ele>
        <time>2013-11-23T09:56:44Z</time>
      </trkpt>
      <trkpt lat="48.36398" lon="2.71356">
        <ele>104.44</ele>
        <time>2013-11-23T09:56:51Z</time>
      </trkpt>
      <trkpt lat="48.36396" lon="2.71356">
        <ele>104.44</ele>
        <time>2013-11-23T09:56:52Z</time>
      </trkpt>
      <trkpt lat="48.3639" lon="2.71356">
        <ele>104.92</ele>
        <time>2013-11-23T09:56:59Z</time>
      </trkpt>
      <trkpt lat="48.36389" lon="2.71356">
        <ele>104.92</ele>
        <time>2013-11-23T09:57:00Z</time>
      </trkpt>
      <trkpt lat="48.36387" lon="2.71356">
        <ele>104.92</ele>
        <time>2013-11-23T09:57:01Z</time>
      </trkpt>
      <trkpt lat="48.36383" lon="2.71355">
        <ele>104.92</ele>
        <time>2013-11-23T09:57:05Z</time>
      </trkpt>
      <trkpt lat="48.36381" lon="2.71355">
        <ele>104.92</ele>
        <time>2013-11-23T09:57:06Z</time>
      </trkpt>
      <trkpt lat="48.3638" lon="2.71354">
        <ele>105.4</ele>
        <time>2013-11-23T09:57:07Z</time>
      </trkpt>
      <trkpt lat="48.3637" lon="2.71349">
        <ele>102.04</ele>
        <time>2013-11-23T09:57:17Z</time>
      </trkpt>
      <trkpt lat="48.36369" lon="2.71348">
        <ele>106.36</ele>
        <time>2013-11-23T09:57:18Z</time>
      </trkpt>
      <trkpt lat="48.36357" lon="2.71341">
        <ele>104.92</ele>
        <time>2013-11-23T09:57:33Z</time>
      </trkpt>
      <trkpt lat="48.36348" lon="2.71333">
        <ele>103.48</ele>
        <time>2013-11-23T09:57:45Z</time>
      </trkpt>
      <trkpt lat="48.36329" lon="2.71319">
        <ele>101.08</ele>
        <time>2013-11-23T09:58:01Z</time>
      </trkpt>
      <trkpt lat="48.36314" lon="2.71312">
        <ele>100.11</ele>
        <time>2013-11-23T09:58:16Z</time>
      </trkpt>
      <trkpt lat="48.36312" lon="2.71311">
        <ele>99.63</ele>
        <time>2013-11-23T09:58:17Z</time>
      </trkpt>
      <trkpt lat="48.36288" lon="2.71301">
        <ele>97.71</ele>
        <time>2013-11-23T09:58:34Z</time>
      </trkpt>
      <trkpt lat="48.36276" lon="2.71294">
        <ele>96.27</ele>
        <time>2013-11-23T09:58:47Z</time>
      </trkpt>
      <trkpt lat="48.36263" lon="2.71289">
        <ele>96.27</ele>
        <time>2013-11-23T09:58:59Z</time>
      </trkpt>
      <trkpt lat="48.36245" lon="2.71281">
        <ele>94.83</ele>
        <time>2013-11-23T09:59:13Z</time>
      </trkpt>
      <trkpt lat="48.36225" lon="2.71277">
        <ele>93.87</ele>
        <time>2013-11-23T09:59:29Z</time>
      </trkpt>
      <trkpt lat="48.36216" lon="2.7126">
        <ele>92.42</ele>
        <time>2013-11-23T09:59:46Z</time>
      </trkpt>
      <trkpt lat="48.36212" lon="2.71247">
        <ele>95.79</ele>
        <time>2013-11-23T09:59:53Z</time>
      </trkpt>
      <trkpt lat="48.36211" lon="2.71238">
        <ele>94.35</ele>
        <time>2013-11-23T09:59:58Z</time>
      </trkpt>
      <trkpt lat="48.36211" lon="2.71235">
        <ele>94.83</ele>
        <time>2013-11-23T09:59:59Z</time>
      </trkpt>
      <trkpt lat="48.36212" lon="2.71212">
        <ele>93.87</ele>
        <time>2013-11-23T10:00:11Z</time>
      </trkpt>
      <trkpt lat="48.36211" lon="2.71195">
        <ele>94.35</ele>
        <time>2013-11-23T10:00:22Z</time>
      </trkpt>
      <trkpt lat="48.36211" lon="2.71193">
        <ele>93.39</ele>
        <time>2013-11-23T10:00:23Z</time>
      </trkpt>
      <trkpt lat="48.36212" lon="2.71191">
        <ele>94.35</ele>
        <time>2013-11-23T10:00:24Z</time>
      </trkpt>
      <trkpt lat="48.3621" lon="2.71172">
        <ele>93.87</ele>
        <time>2013-11-23T10:00:37Z</time>
      </trkpt>
      <trkpt lat="48.36206" lon="2.71143">
        <ele>94.35</ele>
        <time>2013-11-23T10:00:54Z</time>
      </trkpt>
      <trkpt lat="48.36205" lon="2.71138">
        <ele>93.87</ele>
        <time>2013-11-23T10:00:56Z</time>
      </trkpt>
      <trkpt lat="48.36206" lon="2.71136">
        <ele>94.35</ele>
        <time>2013-11-23T10:00:57Z</time>
      </trkpt>
      <trkpt lat="48.36205" lon="2.71133">
        <ele>94.35</ele>
        <time>2013-11-23T10:00:58Z</time>
      </trkpt>
      <trkpt lat="48.36205" lon="2.7113">
        <ele>95.31</ele>
        <time>2013-11-23T10:00:59Z</time>
      </trkpt>
      <trkpt lat="48.36204" lon="2.71111">
        <ele>94.83</ele>
        <time>2013-11-23T10:01:11Z</time>
      </trkpt>
      <trkpt lat="48.36201" lon="2.711">
        <ele>95.79</ele>
        <time>2013-11-23T10:01:18Z</time>
      </trkpt>
      <trkpt lat="48.36201" lon="2.71097">
        <ele>95.31</ele>
        <time>2013-11-23T10:01:19Z</time>
      </trkpt>
      <trkpt lat="48.36201" lon="2.71094">
        <ele>95.31</ele>
        <time>2013-11-23T10:01:20Z</time>
      </trkpt>
      <trkpt lat="48.362" lon="2.71083">
        <ele>95.79</ele>
        <time>2013-11-23T10:01:26Z</time>
      </trkpt>
      <trkpt lat="48.362" lon="2.71081">
        <ele>95.79</ele>
        <time>2013-11-23T10:01:27Z</time>
      </trkpt>
      <trkpt lat="48.36199" lon="2.71073">
        <ele>95.31</ele>
        <time>2013-11-23T10:01:32Z</time>
      </trkpt>
      <trkpt lat="48.36199" lon="2.71071">
        <ele>94.83</ele>
        <time>2013-11-23T10:01:33Z</time>
      </trkpt>
      <trkpt lat="48.36198" lon="2.71068">
        <ele>95.31</ele>
        <time>2013-11-23T10:01:34Z</time>
      </trkpt>
      <trkpt lat="48.36198" lon="2.71065">
        <ele>95.31</ele>
        <time>2013-11-23T10:01:35Z</time>
      </trkpt>
      <trkpt lat="48.36197" lon="2.71045">
        <ele>95.31</ele>
        <time>2013-11-23T10:01:48Z</time>
      </trkpt>
      <trkpt lat="48.36193" lon="2.71023">
        <ele>95.79</ele>
        <time>2013-11-23T10:02:01Z</time>
      </trkpt>
      <trkpt lat="48.36192" lon="2.71018">
        <ele>94.83</ele>
        <time>2013-11-23T10:02:03Z</time>
      </trkpt>
      <trkpt lat="48.36192" lon="2.71016">
        <ele>95.31</ele>
        <time>2013-11-23T10:02:04Z</time>
      </trkpt>
      <trkpt lat="48.36185" lon="2.7099">
        <ele>94.35</ele>
        <time>2013-11-23T10:02:20Z</time>
      </trkpt>
      <trkpt lat="48.36181" lon="2.70968">
        <ele>94.35</ele>
        <time>2013-11-23T10:02:31Z</time>
      </trkpt>
      <trkpt lat="48.36174" lon="2.70946">
        <ele>94.35</ele>
        <time>2013-11-23T10:02:45Z</time>
      </trkpt>
      <trkpt lat="48.36171" lon="2.70926">
        <ele>94.35</ele>
        <time>2013-11-23T10:02:56Z</time>
      </trkpt>
      <trkpt lat="48.36169" lon="2.70922">
        <ele>94.83</ele>
        <time>2013-11-23T10:02:59Z</time>
      </trkpt>
      <trkpt lat="48.36162" lon="2.70902">
        <ele>94.83</ele>
        <time>2013-11-23T10:03:13Z</time>
      </trkpt>
      <trkpt lat="48.3616" lon="2.70901">
        <ele>95.31</ele>
        <time>2013-11-23T10:03:19Z</time>
      </trkpt>
      <trkpt lat="48.36157" lon="2.70894">
        <ele>94.83</ele>
        <time>2013-11-23T10:03:30Z</time>
      </trkpt>
      <trkpt lat="48.36156" lon="2.70891">
        <ele>94.83</ele>
        <time>2013-11-23T10:03:32Z</time>
      </trkpt>
      <trkpt lat="48.36155" lon="2.70889">
        <ele>94.83</ele>
        <time>2013-11-23T10:03:33Z</time>
      </trkpt>
      <trkpt lat="48.36154" lon="2.70881">
        <ele>94.83</ele>
        <time>2013-11-23T10:03:38Z</time>
      </trkpt>
      <trkpt lat="48.36153" lon="2.70879">
        <ele>94.83</ele>
        <time>2013-11-23T10:03:39Z</time>
      </trkpt>
      <trkpt lat="48.36151" lon="2.70871">
        <ele>95.31</ele>
        <time>2013-11-23T10:03:44Z</time>
      </trkpt>
      <trkpt lat="48.3615" lon="2.70869">
        <ele>95.31</ele>
        <time>2013-11-23T10:03:45Z</time>
      </trkpt>
      <trkpt lat="48.3615" lon="2.70867">
        <ele>94.83</ele>
        <time>2013-11-23T10:03:46Z</time>
      </trkpt>
      <trkpt lat="48.36148" lon="2.70858">
        <ele>95.79</ele>
        <time>2013-11-23T10:03:52Z</time>
      </trkpt>
      <trkpt lat="48.36146" lon="2.7081">
        <ele>96.75</ele>
        <time>2013-11-23T10:04:14Z</time>
      </trkpt>
      <trkpt lat="48.36147" lon="2.70796">
        <ele>96.27</ele>
        <time>2013-11-23T10:04:30Z</time>
      </trkpt>
      <trkpt lat="48.36153" lon="2.70768">
        <ele>97.23</ele>
        <time>2013-11-23T10:04:46Z</time>
      </trkpt>
      <trkpt lat="48.36156" lon="2.70751">
        <ele>96.75</ele>
        <time>2013-11-23T10:04:59Z</time>
      </trkpt>
      <trkpt lat="48.36157" lon="2.70738">
        <ele>97.23</ele>
        <time>2013-11-23T10:05:07Z</time>
      </trkpt>
      <trkpt lat="48.36161" lon="2.70723">
        <ele>97.71</ele>
        <time>2013-11-23T10:05:22Z</time>
      </trkpt>
      <trkpt lat="48.36161" lon="2.70714">
        <ele>98.67</ele>
        <time>2013-11-23T10:05:30Z</time>
      </trkpt>
      <trkpt lat="48.36161" lon="2.70707">
        <ele>98.19</ele>
        <time>2013-11-23T10:05:35Z</time>
      </trkpt>
      <trkpt lat="48.3616" lon="2.70705">
        <ele>98.19</ele>
        <time>2013-11-23T10:05:36Z</time>
      </trkpt>
      <trkpt lat="48.36155" lon="2.70688">
        <ele>97.71</ele>
        <time>2013-11-23T10:05:47Z</time>
      </trkpt>
      <trkpt lat="48.36155" lon="2.70661">
        <ele>98.19</ele>
        <time>2013-11-23T10:06:08Z</time>
      </trkpt>
      <trkpt lat="48.36168" lon="2.70646">
        <ele>99.15</ele>
        <time>2013-11-23T10:06:28Z</time>
      </trkpt>
      <trkpt lat="48.36173" lon="2.70633">
        <ele>99.63</ele>
        <time>2013-11-23T10:06:49Z</time>
      </trkpt>
      <trkpt lat="48.36178" lon="2.7061">
        <ele>99.63</ele>
        <time>2013-11-23T10:07:07Z</time>
      </trkpt>
      <trkpt lat="48.36181" lon="2.70598">
        <ele>99.63</ele>
        <time>2013-11-23T10:07:27Z</time>
      </trkpt>
      <trkpt lat="48.36189" lon="2.70594">
        <ele>99.63</ele>
        <time>2013-11-23T10:07:48Z</time>
      </trkpt>
      <trkpt lat="48.36196" lon="2.7058">
        <ele>100.11</ele>
        <time>2013-11-23T10:08:08Z</time>
      </trkpt>
      <trkpt lat="48.36193" lon="2.70574">
        <ele>100.11</ele>
        <time>2013-11-23T10:08:30Z</time>
      </trkpt>
      <trkpt lat="48.36188" lon="2.70583">
        <ele>99.63</ele>
        <time>2013-11-23T10:08:45Z</time>
      </trkpt>
      <trkpt lat="48.36189" lon="2.70597">
        <ele>99.63</ele>
        <time>2013-11-23T10:09:03Z</time>
      </trkpt>
      <trkpt lat="48.36192" lon="2.70596">
        <ele>99.15</ele>
        <time>2013-11-23T10:09:10Z</time>
      </trkpt>
      <trkpt lat="48.36189" lon="2.70601">
        <ele>98.67</ele>
        <time>2013-11-23T10:09:20Z</time>
      </trkpt>
      <trkpt lat="48.36187" lon="2.70606">
        <ele>100.6</ele>
        <time>2013-11-23T10:09:34Z</time>
      </trkpt>
      <trkpt lat="48.36198" lon="2.70602">
        <ele>100.6</ele>
        <time>2013-11-23T10:09:55Z</time>
      </trkpt>
      <trkpt lat="48.36195" lon="2.70604">
        <ele>99.63</ele>
        <time>2013-11-23T10:10:18Z</time>
      </trkpt>
      <trkpt lat="48.36195" lon="2.706">
        <ele>100.11</ele>
        <time>2013-11-23T10:10:31Z</time>
      </trkpt>
      <trkpt lat="48.36198" lon="2.70589">
        <ele>100.11</ele>
        <time>2013-11-23T10:10:46Z</time>
      </trkpt>
      <trkpt lat="48.36198" lon="2.70575">
        <ele>101.08</ele>
        <time>2013-11-23T10:11:01Z</time>
      </trkpt>
      <trkpt lat="48.362" lon="2.70559">
        <ele>102.04</ele>
        <time>2013-11-23T10:11:15Z</time>
      </trkpt>
      <trkpt lat="48.36193" lon="2.70554">
        <ele>101.08</ele>
        <time>2013-11-23T10:11:29Z</time>
      </trkpt>
      <trkpt lat="48.3619" lon="2.7055">
        <ele>102.04</ele>
        <time>2013-11-23T10:11:44Z</time>
      </trkpt>
      <trkpt lat="48.36186" lon="2.70544">
        <ele>101.56</ele>
        <time>2013-11-23T10:11:59Z</time>
      </trkpt>
      <trkpt lat="48.36185" lon="2.70528">
        <ele>103</ele>
        <time>2013-11-23T10:12:18Z</time>
      </trkpt>
      <trkpt lat="48.36194" lon="2.70515">
        <ele>104.92</ele>
        <time>2013-11-23T10:12:36Z</time>
      </trkpt>
      <trkpt lat="48.36197" lon="2.70507">
        <ele>105.88</ele>
        <time>2013-11-23T10:12:52Z</time>
      </trkpt>
      <trkpt lat="48.36189" lon="2.70501">
        <ele>103.96</ele>
        <time>2013-11-23T10:13:08Z</time>
      </trkpt>
      <trkpt lat="48.36181" lon="2.70495">
        <ele>103</ele>
        <time>2013-11-23T10:13:25Z</time>
      </trkpt>
      <trkpt lat="48.36184" lon="2.7049">
        <ele>103.48</ele>
        <time>2013-11-23T10:13:37Z</time>
      </trkpt>
      <trkpt lat="48.36182" lon="2.70483">
        <ele>103.96</ele>
        <time>2013-11-23T10:13:51Z</time>
      </trkpt>
      <trkpt lat="48.36179" lon="2.70479">
        <ele>103.96</ele>
        <time>2013-11-23T10:14:08Z</time>
      </trkpt>
      <trkpt lat="48.36183" lon="2.70469">
        <ele>104.44</ele>
        <time>2013-11-23T10:14:27Z</time>
      </trkpt>
      <trkpt lat="48.36178" lon="2.70459">
        <ele>103.96</ele>
        <time>2013-11-23T10:14:45Z</time>
      </trkpt>
      <trkpt lat="48.36178" lon="2.70458">
        <ele>103.96</ele>
        <time>2013-11-23T10:14:46Z</time>
      </trkpt>
      <trkpt lat="48.3618" lon="2.70451">
        <ele>104.44</ele>
        <time>2013-11-23T10:15:02Z</time>
      </trkpt>
      <trkpt lat="48.36171" lon="2.70439">
        <ele>104.92</ele>
        <time>2013-11-23T10:15:21Z</time>
      </trkpt>
      <trkpt lat="48.36166" lon="2.70432">
        <ele>105.4</ele>
        <time>2013-11-23T10:15:40Z</time>
      </trkpt>
      <trkpt lat="48.36165" lon="2.7042">
        <ele>105.88</ele>
        <time>2013-11-23T10:15:50Z</time>
      </trkpt>
      <trkpt lat="48.36163" lon="2.70402">
        <ele>106.36</ele>
        <time>2013-11-23T10:16:10Z</time>
      </trkpt>
      <trkpt lat="48.36159" lon="2.70389">
        <ele>107.32</ele>
        <time>2013-11-23T10:16:28Z</time>
      </trkpt>
      <trkpt lat="48.36159" lon="2.70395">
        <ele>103.96</ele>
        <time>2013-11-23T10:16:35Z</time>
      </trkpt>
      <trkpt lat="48.36159" lon="2.70395">
        <ele>107.81</ele>
        <time>2013-11-23T10:16:36Z</time>
      </trkpt>
      <trkpt lat="48.36149" lon="2.70415">
        <ele>106.36</ele>
        <time>2013-11-23T10:17:07Z</time>
      </trkpt>
      <trkpt lat="48.36146" lon="2.70387">
        <ele>107.81</ele>
        <time>2013-11-23T10:17:23Z</time>
      </trkpt>
      <trkpt lat="48.36147" lon="2.70373">
        <ele>106.84</ele>
        <time>2013-11-23T10:17:35Z</time>
      </trkpt>
      <trkpt lat="48.36146" lon="2.70349">
        <ele>108.29</ele>
        <time>2013-11-23T10:17:58Z</time>
      </trkpt>
      <trkpt lat="48.36142" lon="2.70343">
        <ele>108.29</ele>
        <time>2013-11-23T10:18:12Z</time>
      </trkpt>
      <trkpt lat="48.36144" lon="2.70338">
        <ele>108.77</ele>
        <time>2013-11-23T10:18:34Z</time>
      </trkpt>
      <trkpt lat="48.36145" lon="2.70311">
        <ele>111.17</ele>
        <time>2013-11-23T10:18:52Z</time>
      </trkpt>
      <trkpt lat="48.36142" lon="2.70296">
        <ele>112.61</ele>
        <time>2013-11-23T10:19:09Z</time>
      </trkpt>
      <trkpt lat="48.36139" lon="2.70294">
        <ele>113.57</ele>
        <time>2013-11-23T10:19:19Z</time>
      </trkpt>
      <trkpt lat="48.3614" lon="2.70288">
        <ele>115.01</ele>
        <time>2013-11-23T10:19:22Z</time>
      </trkpt>
      <trkpt lat="48.36141" lon="2.70276">
        <ele>115.5</ele>
        <time>2013-11-23T10:19:35Z</time>
      </trkpt>
      <trkpt lat="48.3614" lon="2.70269">
        <ele>116.94</ele>
        <time>2013-11-23T10:19:48Z</time>
      </trkpt>
      <trkpt lat="48.36141" lon="2.70256">
        <ele>118.86</ele>
        <time>2013-11-23T10:20:01Z</time>
      </trkpt>
      <trkpt lat="48.36142" lon="2.70236">
        <ele>121.74</ele>
        <time>2013-11-23T10:20:11Z</time>
      </trkpt>
      <trkpt lat="48.36139" lon="2.70225">
        <ele>123.19</ele>
        <time>2013-11-23T10:20:22Z</time>
      </trkpt>
      <trkpt lat="48.36139" lon="2.70214">
        <ele>125.59</ele>
        <time>2013-11-23T10:20:34Z</time>
      </trkpt>
      <trkpt lat="48.36134" lon="2.70205">
        <ele>127.03</ele>
        <time>2013-11-23T10:20:47Z</time>
      </trkpt>
      <trkpt lat="48.36137" lon="2.70195">
        <ele>127.51</ele>
        <time>2013-11-23T10:21:09Z</time>
      </trkpt>
      <trkpt lat="48.36135" lon="2.7019">
        <ele>127.51</ele>
        <time>2013-11-23T10:21:22Z</time>
      </trkpt>
      <trkpt lat="48.36136" lon="2.7019">
        <ele>127.03</ele>
        <time>2013-11-23T10:21:39Z</time>
      </trkpt>
      <trkpt lat="48.36138" lon="2.70186">
        <ele>127.51</ele>
        <time>2013-11-23T10:21:48Z</time>
      </trkpt>
      <trkpt lat="48.36137" lon="2.70175">
        <ele>128.47</ele>
        <time>2013-11-23T10:22:01Z</time>
      </trkpt>
      <trkpt lat="48.36132" lon="2.70158">
        <ele>128.47</ele>
        <time>2013-11-23T10:22:16Z</time>
      </trkpt>
      <trkpt lat="48.36128" lon="2.70125">
        <ele>127.03</ele>
        <time>2013-11-23T10:22:33Z</time>
      </trkpt>
      <trkpt lat="48.36128" lon="2.70115">
        <ele>128.47</ele>
        <time>2013-11-23T10:22:51Z</time>
      </trkpt>
      <trkpt lat="48.36129" lon="2.70116">
        <ele>128.47</ele>
        <time>2013-11-23T10:22:52Z</time>
      </trkpt>
      <trkpt lat="48.3613" lon="2.70139">
        <ele>127.51</ele>
        <time>2013-11-23T10:23:07Z</time>
      </trkpt>
      <trkpt lat="48.36131" lon="2.70141">
        <ele>127.99</ele>
        <time>2013-11-23T10:23:08Z</time>
      </trkpt>
      <trkpt lat="48.3613" lon="2.70143">
        <ele>127.99</ele>
        <time>2013-11-23T10:23:09Z</time>
      </trkpt>
      <trkpt lat="48.3613" lon="2.70146">
        <ele>128.47</ele>
        <time>2013-11-23T10:23:10Z</time>
      </trkpt>
      <trkpt lat="48.36131" lon="2.7015">
        <ele>129.43</ele>
        <time>2013-11-23T10:23:12Z</time>
      </trkpt>
      <trkpt lat="48.36132" lon="2.70174">
        <ele>127.99</ele>
        <time>2013-11-23T10:23:27Z</time>
      </trkpt>
      <trkpt lat="48.36139" lon="2.70186">
        <ele>128.95</ele>
        <time>2013-11-23T10:23:39Z</time>
      </trkpt>
      <trkpt lat="48.36153" lon="2.70189">
        <ele>128.47</ele>
        <time>2013-11-23T10:23:52Z</time>
      </trkpt>
      <trkpt lat="48.36173" lon="2.70189">
        <ele>128.47</ele>
        <time>2013-11-23T10:24:09Z</time>
      </trkpt>
      <trkpt lat="48.36187" lon="2.7019">
        <ele>128.95</ele>
        <time>2013-11-23T10:24:24Z</time>
      </trkpt>
      <trkpt lat="48.36202" lon="2.7019">
        <ele>128.47</ele>
        <time>2013-11-23T10:24:39Z</time>
      </trkpt>
      <trkpt lat="48.36218" lon="2.70193">
        <ele>128.47</ele>
        <time>2013-11-23T10:24:52Z</time>
      </trkpt>
      <trkpt lat="48.36235" lon="2.7019">
        <ele>128.47</ele>
        <time>2013-11-23T10:25:07Z</time>
      </trkpt>
      <trkpt lat="48.36249" lon="2.70185">
        <ele>127.99</ele>
        <time>2013-11-23T10:25:21Z</time>
      </trkpt>
      <trkpt lat="48.36259" lon="2.70183">
        <ele>128.47</ele>
        <time>2013-11-23T10:25:41Z</time>
      </trkpt>
      <trkpt lat="48.36266" lon="2.70185">
        <ele>128.95</ele>
        <time>2013-11-23T10:25:51Z</time>
      </trkpt>
      <trkpt lat="48.36283" lon="2.70183">
        <ele>129.43</ele>
        <time>2013-11-23T10:26:04Z</time>
      </trkpt>
      <trkpt lat="48.36298" lon="2.70185">
        <ele>128.47</ele>
        <time>2013-11-23T10:26:15Z</time>
      </trkpt>
      <trkpt lat="48.36311" lon="2.70183">
        <ele>128.47</ele>
        <time>2013-11-23T10:26:27Z</time>
      </trkpt>
      <trkpt lat="48.36326" lon="2.70178">
        <ele>128.95</ele>
        <time>2013-11-23T10:26:42Z</time>
      </trkpt>
      <trkpt lat="48.36342" lon="2.70177">
        <ele>127.99</ele>
        <time>2013-11-23T10:26:58Z</time>
      </trkpt>
      <trkpt lat="48.3636" lon="2.70176">
        <ele>128.47</ele>
        <time>2013-11-23T10:27:12Z</time>
      </trkpt>
      <trkpt lat="48.36367" lon="2.70179">
        <ele>128.95</ele>
        <time>2013-11-23T10:27:19Z</time>
      </trkpt>
      <trkpt lat="48.36369" lon="2.70179">
        <ele>128.95</ele>
        <time>2013-11-23T10:27:20Z</time>
      </trkpt>
      <trkpt lat="48.3638" lon="2.70176">
        <ele>128.47</ele>
        <time>2013-11-23T10:27:30Z</time>
      </trkpt>
      <trkpt lat="48.36396" lon="2.70174">
        <ele>128.47</ele>
        <time>2013-11-23T10:27:44Z</time>
      </trkpt>
      <trkpt lat="48.36406" lon="2.7017">
        <ele>127.99</ele>
        <time>2013-11-23T10:27:59Z</time>
      </trkpt>
      <trkpt lat="48.36416" lon="2.70172">
        <ele>128.47</ele>
        <time>2013-11-23T10:28:08Z</time>
      </trkpt>
      <trkpt lat="48.36417" lon="2.70173">
        <ele>128.47</ele>
        <time>2013-11-23T10:28:09Z</time>
      </trkpt>
      <trkpt lat="48.36439" lon="2.70172">
        <ele>128.47</ele>
        <time>2013-11-23T10:28:26Z</time>
      </trkpt>
      <trkpt lat="48.36456" lon="2.7017">
        <ele>128.47</ele>
        <time>2013-11-23T10:28:40Z</time>
      </trkpt>
      <trkpt lat="48.36466" lon="2.70169">
        <ele>124.15</ele>
        <time>2013-11-23T10:28:48Z</time>
      </trkpt>
      <trkpt lat="48.36467" lon="2.70169">
        <ele>127.99</ele>
        <time>2013-11-23T10:28:49Z</time>
      </trkpt>
      <trkpt lat="48.36478" lon="2.70168">
        <ele>126.07</ele>
        <time>2013-11-23T10:28:57Z</time>
      </trkpt>
      <trkpt lat="48.36482" lon="2.70167">
        <ele>127.99</ele>
        <time>2013-11-23T10:29:00Z</time>
      </trkpt>
      <trkpt lat="48.36505" lon="2.70166">
        <ele>127.99</ele>
        <time>2013-11-23T10:29:19Z</time>
      </trkpt>
      <trkpt lat="48.36512" lon="2.70165">
        <ele>128.47</ele>
        <time>2013-11-23T10:29:25Z</time>
      </trkpt>
      <trkpt lat="48.36513" lon="2.70165">
        <ele>128.47</ele>
        <time>2013-11-23T10:29:26Z</time>
      </trkpt>
      <trkpt lat="48.36538" lon="2.70162">
        <ele>129.43</ele>
        <time>2013-11-23T10:29:47Z</time>
      </trkpt>
      <trkpt lat="48.36562" lon="2.70159">
        <ele>128.47</ele>
        <time>2013-11-23T10:30:04Z</time>
      </trkpt>
      <trkpt lat="48.36585" lon="2.70157">
        <ele>128.47</ele>
        <time>2013-11-23T10:30:22Z</time>
      </trkpt>
      <trkpt lat="48.3659" lon="2.70157">
        <ele>128.95</ele>
        <time>2013-11-23T10:30:26Z</time>
      </trkpt>
      <trkpt lat="48.36591" lon="2.70158">
        <ele>128.95</ele>
        <time>2013-11-23T10:30:27Z</time>
      </trkpt>
      <trkpt lat="48.36592" lon="2.70158">
        <ele>128.47</ele>
        <time>2013-11-23T10:30:28Z</time>
      </trkpt>
      <trkpt lat="48.36594" lon="2.70158">
        <ele>129.43</ele>
        <time>2013-11-23T10:30:29Z</time>
      </trkpt>
      <trkpt lat="48.36596" lon="2.70157">
        <ele>129.43</ele>
        <time>2013-11-23T10:30:30Z</time>
      </trkpt>
      <trkpt lat="48.36598" lon="2.70157">
        <ele>129.43</ele>
        <time>2013-11-23T10:30:34Z</time>
      </trkpt>
      <trkpt lat="48.36609" lon="2.70156">
        <ele>127.99</ele>
        <time>2013-11-23T10:30:45Z</time>
      </trkpt>
      <trkpt lat="48.3661" lon="2.70155">
        <ele>128.47</ele>
        <time>2013-11-23T10:30:46Z</time>
      </trkpt>
      <trkpt lat="48.36611" lon="2.70155">
        <ele>128.47</ele>
        <time>2013-11-23T10:30:47Z</time>
      </trkpt>
      <trkpt lat="48.36613" lon="2.70155">
        <ele>127.99</ele>
        <time>2013-11-23T10:30:48Z</time>
      </trkpt>
      <trkpt lat="48.36614" lon="2.70155">
        <ele>127.99</ele>
        <time>2013-11-23T10:30:49Z</time>
      </trkpt>
      <trkpt lat="48.36616" lon="2.70155">
        <ele>128.47</ele>
        <time>2013-11-23T10:30:50Z</time>
      </trkpt>
      <trkpt lat="48.36628" lon="2.70155">
        <ele>128.95</ele>
        <time>2013-11-23T10:31:00Z</time>
      </trkpt>
      <trkpt lat="48.36629" lon="2.70154">
        <ele>129.43</ele>
        <time>2013-11-23T10:31:01Z</time>
      </trkpt>
      <trkpt lat="48.3663" lon="2.70155">
        <ele>129.92</ele>
        <time>2013-11-23T10:31:02Z</time>
      </trkpt>
      <trkpt lat="48.36631" lon="2.70155">
        <ele>128.47</ele>
        <time>2013-11-23T10:31:03Z</time>
      </trkpt>
      <trkpt lat="48.36633" lon="2.70155">
        <ele>128.95</ele>
        <time>2013-11-23T10:31:04Z</time>
      </trkpt>
      <trkpt lat="48.36646" lon="2.70154">
        <ele>128.95</ele>
        <time>2013-11-23T10:31:16Z</time>
      </trkpt>
      <trkpt lat="48.36665" lon="2.70153">
        <ele>128.95</ele>
        <time>2013-11-23T10:31:30Z</time>
      </trkpt>
      <trkpt lat="48.3669" lon="2.70152">
        <ele>130.88</ele>
        <time>2013-11-23T10:31:49Z</time>
      </trkpt>
      <trkpt lat="48.36693" lon="2.70151">
        <ele>127.51</ele>
        <time>2013-11-23T10:31:52Z</time>
      </trkpt>
      <trkpt lat="48.36695" lon="2.70151">
        <ele>127.99</ele>
        <time>2013-11-23T10:31:56Z</time>
      </trkpt>
      <trkpt lat="48.36697" lon="2.70151">
        <ele>128.47</ele>
        <time>2013-11-23T10:31:57Z</time>
      </trkpt>
      <trkpt lat="48.36698" lon="2.70151">
        <ele>128.47</ele>
        <time>2013-11-23T10:31:58Z</time>
      </trkpt>
      <trkpt lat="48.36711" lon="2.70151">
        <ele>128.47</ele>
        <time>2013-11-23T10:32:08Z</time>
      </trkpt>
      <trkpt lat="48.36723" lon="2.7015">
        <ele>128.47</ele>
        <time>2013-11-23T10:32:19Z</time>
      </trkpt>
      <trkpt lat="48.36737" lon="2.70148">
        <ele>127.51</ele>
        <time>2013-11-23T10:32:30Z</time>
      </trkpt>
      <trkpt lat="48.36738" lon="2.70149">
        <ele>127.51</ele>
        <time>2013-11-23T10:32:31Z</time>
      </trkpt>
      <trkpt lat="48.3674" lon="2.70149">
        <ele>127.99</ele>
        <time>2013-11-23T10:32:32Z</time>
      </trkpt>
      <trkpt lat="48.36746" lon="2.70149">
        <ele>127.03</ele>
        <time>2013-11-23T10:32:35Z</time>
      </trkpt>
      <trkpt lat="48.36752" lon="2.70147">
        <ele>127.03</ele>
        <time>2013-11-23T10:32:44Z</time>
      </trkpt>
      <trkpt lat="48.36754" lon="2.70147">
        <ele>127.03</ele>
        <time>2013-11-23T10:32:45Z</time>
      </trkpt>
      <trkpt lat="48.36756" lon="2.70146">
        <ele>127.03</ele>
        <time>2013-11-23T10:32:46Z</time>
      </trkpt>
      <trkpt lat="48.36757" lon="2.70146">
        <ele>127.03</ele>
        <time>2013-11-23T10:32:47Z</time>
      </trkpt>
      <trkpt lat="48.36759" lon="2.70147">
        <ele>126.55</ele>
        <time>2013-11-23T10:32:48Z</time>
      </trkpt>
      <trkpt lat="48.36763" lon="2.70146">
        <ele>127.03</ele>
        <time>2013-11-23T10:32:54Z</time>
      </trkpt>
      <trkpt lat="48.36765" lon="2.70146">
        <ele>127.03</ele>
        <time>2013-11-23T10:32:55Z</time>
      </trkpt>
      <trkpt lat="48.36767" lon="2.70145">
        <ele>126.55</ele>
        <time>2013-11-23T10:32:57Z</time>
      </trkpt>
      <trkpt lat="48.36774" lon="2.70143">
        <ele>127.03</ele>
        <time>2013-11-23T10:33:04Z</time>
      </trkpt>
      <trkpt lat="48.36776" lon="2.70142">
        <ele>126.55</ele>
        <time>2013-11-23T10:33:05Z</time>
      </trkpt>
      <trkpt lat="48.36792" lon="2.70144">
        <ele>126.07</ele>
        <time>2013-11-23T10:33:16Z</time>
      </trkpt>
      <trkpt lat="48.36803" lon="2.70145">
        <ele>126.07</ele>
        <time>2013-11-23T10:33:26Z</time>
      </trkpt>
      <trkpt lat="48.36816" lon="2.70145">
        <ele>126.07</ele>
        <time>2013-11-23T10:33:36Z</time>
      </trkpt>
      <trkpt lat="48.36824" lon="2.70143">
        <ele>127.03</ele>
        <time>2013-11-23T10:33:46Z</time>
      </trkpt>
      <trkpt lat="48.36839" lon="2.70142">
        <ele>127.51</ele>
        <time>2013-11-23T10:33:57Z</time>
      </trkpt>
      <trkpt lat="48.36855" lon="2.70141">
        <ele>127.51</ele>
        <time>2013-11-23T10:34:10Z</time>
      </trkpt>
      <trkpt lat="48.36869" lon="2.7014">
        <ele>127.51</ele>
        <time>2013-11-23T10:34:23Z</time>
      </trkpt>
      <trkpt lat="48.36881" lon="2.7014">
        <ele>127.51</ele>
        <time>2013-11-23T10:34:34Z</time>
      </trkpt>
      <trkpt lat="48.36887" lon="2.70139">
        <ele>127.99</ele>
        <time>2013-11-23T10:34:41Z</time>
      </trkpt>
      <trkpt lat="48.36889" lon="2.70139">
        <ele>127.51</ele>
        <time>2013-11-23T10:34:42Z</time>
      </trkpt>
      <trkpt lat="48.36891" lon="2.70139">
        <ele>127.51</ele>
        <time>2013-11-23T10:34:43Z</time>
      </trkpt>
      <trkpt lat="48.36892" lon="2.70139">
        <ele>127.03</ele>
        <time>2013-11-23T10:34:44Z</time>
      </trkpt>
      <trkpt lat="48.36908" lon="2.70136">
        <ele>127.51</ele>
        <time>2013-11-23T10:34:58Z</time>
      </trkpt>
      <trkpt lat="48.36924" lon="2.70135">
        <ele>127.03</ele>
        <time>2013-11-23T10:35:10Z</time>
      </trkpt>
      <trkpt lat="48.36931" lon="2.70136">
        <ele>126.55</ele>
        <time>2013-11-23T10:35:17Z</time>
      </trkpt>
      <trkpt lat="48.36932" lon="2.70136">
        <ele>127.03</ele>
        <time>2013-11-23T10:35:18Z</time>
      </trkpt>
      <trkpt lat="48.36938" lon="2.70135">
        <ele>127.03</ele>
        <time>2013-11-23T10:35:23Z</time>
      </trkpt>
      <trkpt lat="48.3694" lon="2.70134">
        <ele>126.55</ele>
        <time>2013-11-23T10:35:25Z</time>
      </trkpt>
      <trkpt lat="48.36942" lon="2.70135">
        <ele>126.55</ele>
        <time>2013-11-23T10:35:26Z</time>
      </trkpt>
      <trkpt lat="48.36943" lon="2.70135">
        <ele>126.07</ele>
        <time>2013-11-23T10:35:27Z</time>
      </trkpt>
      <trkpt lat="48.36944" lon="2.70135">
        <ele>126.07</ele>
        <time>2013-11-23T10:35:28Z</time>
      </trkpt>
      <trkpt lat="48.36946" lon="2.70135">
        <ele>126.55</ele>
        <time>2013-11-23T10:35:29Z</time>
      </trkpt>
      <trkpt lat="48.36963" lon="2.70134">
        <ele>126.07</ele>
        <time>2013-11-23T10:35:41Z</time>
      </trkpt>
      <trkpt lat="48.3697" lon="2.70134">
        <ele>126.55</ele>
        <time>2013-11-23T10:35:46Z</time>
      </trkpt>
      <trkpt lat="48.36972" lon="2.70134">
        <ele>126.07</ele>
        <time>2013-11-23T10:35:47Z</time>
      </trkpt>
      <trkpt lat="48.36973" lon="2.70134">
        <ele>126.07</ele>
        <time>2013-11-23T10:35:48Z</time>
      </trkpt>
      <trkpt lat="48.36979" lon="2.70133">
        <ele>126.55</ele>
        <time>2013-11-23T10:35:55Z</time>
      </trkpt>
      <trkpt lat="48.36996" lon="2.7013">
        <ele>127.03</ele>
        <time>2013-11-23T10:36:10Z</time>
      </trkpt>
      <trkpt lat="48.36999" lon="2.7013">
        <ele>127.51</ele>
        <time>2013-11-23T10:36:12Z</time>
      </trkpt>
      <trkpt lat="48.37" lon="2.70129">
        <ele>127.51</ele>
        <time>2013-11-23T10:36:13Z</time>
      </trkpt>
      <trkpt lat="48.37001" lon="2.70129">
        <ele>126.55</ele>
        <time>2013-11-23T10:36:14Z</time>
      </trkpt>
      <trkpt lat="48.37003" lon="2.70129">
        <ele>126.55</ele>
        <time>2013-11-23T10:36:15Z</time>
      </trkpt>
      <trkpt lat="48.37005" lon="2.70128">
        <ele>127.03</ele>
        <time>2013-11-23T10:36:16Z</time>
      </trkpt>
      <trkpt lat="48.37007" lon="2.70128">
        <ele>127.03</ele>
        <time>2013-11-23T10:36:17Z</time>
      </trkpt>
      <trkpt lat="48.3701" lon="2.70129">
        <ele>127.51</ele>
        <time>2013-11-23T10:36:21Z</time>
      </trkpt>
      <trkpt lat="48.37011" lon="2.70129">
        <ele>127.03</ele>
        <time>2013-11-23T10:36:22Z</time>
      </trkpt>
      <trkpt lat="48.37024" lon="2.70127">
        <ele>127.51</ele>
        <time>2013-11-23T10:36:34Z</time>
      </trkpt>
      <trkpt lat="48.37033" lon="2.70128">
        <ele>127.03</ele>
        <time>2013-11-23T10:36:43Z</time>
      </trkpt>
      <trkpt lat="48.37035" lon="2.70129">
        <ele>127.51</ele>
        <time>2013-11-23T10:36:44Z</time>
      </trkpt>
      <trkpt lat="48.37047" lon="2.70127">
        <ele>127.51</ele>
        <time>2013-11-23T10:36:56Z</time>
      </trkpt>
      <trkpt lat="48.37054" lon="2.70126">
        <ele>128.47</ele>
        <time>2013-11-23T10:37:02Z</time>
      </trkpt>
      <trkpt lat="48.37058" lon="2.70128">
        <ele>127.99</ele>
        <time>2013-11-23T10:37:04Z</time>
      </trkpt>
      <trkpt lat="48.3706" lon="2.70128">
        <ele>127.51</ele>
        <time>2013-11-23T10:37:05Z</time>
      </trkpt>
      <trkpt lat="48.37071" lon="2.70127">
        <ele>127.99</ele>
        <time>2013-11-23T10:37:15Z</time>
      </trkpt>
      <trkpt lat="48.37073" lon="2.70127">
        <ele>127.99</ele>
        <time>2013-11-23T10:37:16Z</time>
      </trkpt>
      <trkpt lat="48.37075" lon="2.70127">
        <ele>127.51</ele>
        <time>2013-11-23T10:37:17Z</time>
      </trkpt>
      <trkpt lat="48.37077" lon="2.70127">
        <ele>127.99</ele>
        <time>2013-11-23T10:37:18Z</time>
      </trkpt>
      <trkpt lat="48.37078" lon="2.70126">
        <ele>127.51</ele>
        <time>2013-11-23T10:37:19Z</time>
      </trkpt>
      <trkpt lat="48.3708" lon="2.70126">
        <ele>127.51</ele>
        <time>2013-11-23T10:37:20Z</time>
      </trkpt>
      <trkpt lat="48.37081" lon="2.70126">
        <ele>127.99</ele>
        <time>2013-11-23T10:37:21Z</time>
      </trkpt>
      <trkpt lat="48.37084" lon="2.70126">
        <ele>128.47</ele>
        <time>2013-11-23T10:37:23Z</time>
      </trkpt>
      <trkpt lat="48.37102" lon="2.70124">
        <ele>127.03</ele>
        <time>2013-11-23T10:37:39Z</time>
      </trkpt>
      <trkpt lat="48.37117" lon="2.70122">
        <ele>127.51</ele>
        <time>2013-11-23T10:37:51Z</time>
      </trkpt>
      <trkpt lat="48.37136" lon="2.70122">
        <ele>127.51</ele>
        <time>2013-11-23T10:38:04Z</time>
      </trkpt>
      <trkpt lat="48.37152" lon="2.70123">
        <ele>127.51</ele>
        <time>2013-11-23T10:38:15Z</time>
      </trkpt>
      <trkpt lat="48.37155" lon="2.70123">
        <ele>127.51</ele>
        <time>2013-11-23T10:38:17Z</time>
      </trkpt>
      <trkpt lat="48.3716" lon="2.70122">
        <ele>127.51</ele>
        <time>2013-11-23T10:38:21Z</time>
      </trkpt>
      <trkpt lat="48.37161" lon="2.70122">
        <ele>127.03</ele>
        <time>2013-11-23T10:38:22Z</time>
      </trkpt>
      <trkpt lat="48.37162" lon="2.70121">
        <ele>127.51</ele>
        <time>2013-11-23T10:38:23Z</time>
      </trkpt>
      <trkpt lat="48.3717" lon="2.70121">
        <ele>127.03</ele>
        <time>2013-11-23T10:38:32Z</time>
      </trkpt>
      <trkpt lat="48.37187" lon="2.70116">
        <ele>126.55</ele>
        <time>2013-11-23T10:38:46Z</time>
      </trkpt>
      <trkpt lat="48.3719" lon="2.70115">
        <ele>123.19</ele>
        <time>2013-11-23T10:38:49Z</time>
      </trkpt>
      <trkpt lat="48.37191" lon="2.70115">
        <ele>127.03</ele>
        <time>2013-11-23T10:38:50Z</time>
      </trkpt>
      <trkpt lat="48.37194" lon="2.70114">
        <ele>123.67</ele>
        <time>2013-11-23T10:38:55Z</time>
      </trkpt>
      <trkpt lat="48.37195" lon="2.70114">
        <ele>128.95</ele>
        <time>2013-11-23T10:38:57Z</time>
      </trkpt>
      <trkpt lat="48.37196" lon="2.70114">
        <ele>126.55</ele>
        <time>2013-11-23T10:38:58Z</time>
      </trkpt>
      <trkpt lat="48.37223" lon="2.70114">
        <ele>126.07</ele>
        <time>2013-11-23T10:39:12Z</time>
      </trkpt>
      <trkpt lat="48.37228" lon="2.70114">
        <ele>125.59</ele>
        <time>2013-11-23T10:39:16Z</time>
      </trkpt>
      <trkpt lat="48.37248" lon="2.70114">
        <ele>125.59</ele>
        <time>2013-11-23T10:39:31Z</time>
      </trkpt>
      <trkpt lat="48.37255" lon="2.70116">
        <ele>125.59</ele>
        <time>2013-11-23T10:39:38Z</time>
      </trkpt>
      <trkpt lat="48.37263" lon="2.70115">
        <ele>127.03</ele>
        <time>2013-11-23T10:39:45Z</time>
      </trkpt>
      <trkpt lat="48.3728" lon="2.70116">
        <ele>125.59</ele>
        <time>2013-11-23T10:39:55Z</time>
      </trkpt>
      <trkpt lat="48.37283" lon="2.70117">
        <ele>125.59</ele>
        <time>2013-11-23T10:39:57Z</time>
      </trkpt>
      <trkpt lat="48.37284" lon="2.70118">
        <ele>125.11</ele>
        <time>2013-11-23T10:39:58Z</time>
      </trkpt>
      <trkpt lat="48.37285" lon="2.70119">
        <ele>124.63</ele>
        <time>2013-11-23T10:39:59Z</time>
      </trkpt>
      <trkpt lat="48.37286" lon="2.70119">
        <ele>125.11</ele>
        <time>2013-11-23T10:40:00Z</time>
      </trkpt>
      <trkpt lat="48.3729" lon="2.70123">
        <ele>125.11</ele>
        <time>2013-11-23T10:40:06Z</time>
      </trkpt>
      <trkpt lat="48.37296" lon="2.70128">
        <ele>125.59</ele>
        <time>2013-11-23T10:40:11Z</time>
      </trkpt>
      <trkpt lat="48.373" lon="2.70131">
        <ele>124.63</ele>
        <time>2013-11-23T10:40:23Z</time>
      </trkpt>
      <trkpt lat="48.37308" lon="2.70139">
        <ele>125.11</ele>
        <time>2013-11-23T10:40:32Z</time>
      </trkpt>
      <trkpt lat="48.37309" lon="2.7014">
        <ele>125.11</ele>
        <time>2013-11-23T10:40:33Z</time>
      </trkpt>
      <trkpt lat="48.3731" lon="2.70142">
        <ele>124.63</ele>
        <time>2013-11-23T10:40:34Z</time>
      </trkpt>
      <trkpt lat="48.37311" lon="2.70144">
        <ele>124.63</ele>
        <time>2013-11-23T10:40:35Z</time>
      </trkpt>
      <trkpt lat="48.37318" lon="2.70156">
        <ele>124.63</ele>
        <time>2013-11-23T10:40:45Z</time>
      </trkpt>
      <trkpt lat="48.37323" lon="2.70161">
        <ele>124.15</ele>
        <time>2013-11-23T10:40:49Z</time>
      </trkpt>
      <trkpt lat="48.37324" lon="2.70162">
        <ele>124.15</ele>
        <time>2013-11-23T10:40:50Z</time>
      </trkpt>
      <trkpt lat="48.37325" lon="2.70164">
        <ele>124.63</ele>
        <time>2013-11-23T10:40:51Z</time>
      </trkpt>
      <trkpt lat="48.37326" lon="2.70165">
        <ele>124.63</ele>
        <time>2013-11-23T10:40:52Z</time>
      </trkpt>
      <trkpt lat="48.37328" lon="2.70167">
        <ele>124.15</ele>
        <time>2013-11-23T10:40:53Z</time>
      </trkpt>
      <trkpt lat="48.3733" lon="2.7017">
        <ele>124.15</ele>
        <time>2013-11-23T10:40:54Z</time>
      </trkpt>
      <trkpt lat="48.37335" lon="2.70175">
        <ele>124.15</ele>
        <time>2013-11-23T10:40:59Z</time>
      </trkpt>
      <trkpt lat="48.37337" lon="2.70176">
        <ele>123.67</ele>
        <time>2013-11-23T10:41:00Z</time>
      </trkpt>
      <trkpt lat="48.37338" lon="2.70177">
        <ele>124.15</ele>
        <time>2013-11-23T10:41:01Z</time>
      </trkpt>
      <trkpt lat="48.37353" lon="2.70195">
        <ele>123.19</ele>
        <time>2013-11-23T10:41:15Z</time>
      </trkpt>
      <trkpt lat="48.37355" lon="2.70199">
        <ele>123.67</ele>
        <time>2013-11-23T10:41:20Z</time>
      </trkpt>
      <trkpt lat="48.37356" lon="2.70201">
        <ele>123.19</ele>
        <time>2013-11-23T10:41:21Z</time>
      </trkpt>
      <trkpt lat="48.3736" lon="2.70205">
        <ele>123.19</ele>
        <time>2013-11-23T10:41:26Z</time>
      </trkpt>
      <trkpt lat="48.37361" lon="2.70207">
        <ele>123.19</ele>
        <time>2013-11-23T10:41:27Z</time>
      </trkpt>
      <trkpt lat="48.37363" lon="2.70208">
        <ele>123.19</ele>
        <time>2013-11-23T10:41:28Z</time>
      </trkpt>
      <trkpt lat="48.3738" lon="2.70228">
        <ele>120.78</ele>
        <time>2013-11-23T10:41:43Z</time>
      </trkpt>
      <trkpt lat="48.37385" lon="2.70233">
        <ele>120.78</ele>
        <time>2013-11-23T10:41:49Z</time>
      </trkpt>
      <trkpt lat="48.37386" lon="2.70233">
        <ele>120.78</ele>
        <time>2013-11-23T10:41:50Z</time>
      </trkpt>
      <trkpt lat="48.37389" lon="2.70236">
        <ele>120.3</ele>
        <time>2013-11-23T10:41:52Z</time>
      </trkpt>
      <trkpt lat="48.3739" lon="2.70238">
        <ele>120.3</ele>
        <time>2013-11-23T10:41:53Z</time>
      </trkpt>
      <trkpt lat="48.37391" lon="2.70239">
        <ele>119.82</ele>
        <time>2013-11-23T10:41:54Z</time>
      </trkpt>
      <trkpt lat="48.37392" lon="2.70241">
        <ele>119.82</ele>
        <time>2013-11-23T10:41:55Z</time>
      </trkpt>
      <trkpt lat="48.374" lon="2.70249">
        <ele>118.86</ele>
        <time>2013-11-23T10:42:04Z</time>
      </trkpt>
      <trkpt lat="48.37411" lon="2.70261">
        <ele>118.38</ele>
        <time>2013-11-23T10:42:16Z</time>
      </trkpt>
      <trkpt lat="48.3742" lon="2.70276">
        <ele>116.94</ele>
        <time>2013-11-23T10:42:26Z</time>
      </trkpt>
      <trkpt lat="48.3743" lon="2.70288">
        <ele>120.78</ele>
        <time>2013-11-23T10:42:35Z</time>
      </trkpt>
      <trkpt lat="48.37431" lon="2.70289">
        <ele>117.42</ele>
        <time>2013-11-23T10:42:36Z</time>
      </trkpt>
      <trkpt lat="48.37444" lon="2.70299">
        <ele>119.34</ele>
        <time>2013-11-23T10:42:50Z</time>
      </trkpt>
      <trkpt lat="48.37457" lon="2.70298">
        <ele>119.82</ele>
        <time>2013-11-23T10:43:01Z</time>
      </trkpt>
      <trkpt lat="48.37469" lon="2.70298">
        <ele>120.3</ele>
        <time>2013-11-23T10:43:14Z</time>
      </trkpt>
      <trkpt lat="48.37485" lon="2.70297">
        <ele>119.82</ele>
        <time>2013-11-23T10:43:26Z</time>
      </trkpt>
      <trkpt lat="48.37498" lon="2.70298">
        <ele>119.82</ele>
        <time>2013-11-23T10:43:37Z</time>
      </trkpt>
      <trkpt lat="48.37509" lon="2.70298">
        <ele>120.78</ele>
        <time>2013-11-23T10:43:48Z</time>
      </trkpt>
      <trkpt lat="48.37511" lon="2.70298">
        <ele>120.78</ele>
        <time>2013-11-23T10:43:49Z</time>
      </trkpt>
      <trkpt lat="48.37524" lon="2.703">
        <ele>121.26</ele>
        <time>2013-11-23T10:44:01Z</time>
      </trkpt>
      <trkpt lat="48.37538" lon="2.70308">
        <ele>120.3</ele>
        <time>2013-11-23T10:44:15Z</time>
      </trkpt>
      <trkpt lat="48.3754" lon="2.70311">
        <ele>119.82</ele>
        <time>2013-11-23T10:44:18Z</time>
      </trkpt>
      <trkpt lat="48.37541" lon="2.70313">
        <ele>119.82</ele>
        <time>2013-11-23T10:44:19Z</time>
      </trkpt>
      <trkpt lat="48.37543" lon="2.70314">
        <ele>120.3</ele>
        <time>2013-11-23T10:44:20Z</time>
      </trkpt>
      <trkpt lat="48.37544" lon="2.70316">
        <ele>119.82</ele>
        <time>2013-11-23T10:44:21Z</time>
      </trkpt>
      <trkpt lat="48.37551" lon="2.7033">
        <ele>119.34</ele>
        <time>2013-11-23T10:44:34Z</time>
      </trkpt>
      <trkpt lat="48.37558" lon="2.70348">
        <ele>119.34</ele>
        <time>2013-11-23T10:44:48Z</time>
      </trkpt>
      <trkpt lat="48.3756" lon="2.70354">
        <ele>119.82</ele>
        <time>2013-11-23T10:44:52Z</time>
      </trkpt>
      <trkpt lat="48.3757" lon="2.70365">
        <ele>120.3</ele>
        <time>2013-11-23T10:45:06Z</time>
      </trkpt>
      <trkpt lat="48.37579" lon="2.70384">
        <ele>119.82</ele>
        <time>2013-11-23T10:45:26Z</time>
      </trkpt>
      <trkpt lat="48.37583" lon="2.7041">
        <ele>121.26</ele>
        <time>2013-11-23T10:45:42Z</time>
      </trkpt>
      <trkpt lat="48.37587" lon="2.70421">
        <ele>121.26</ele>
        <time>2013-11-23T10:45:49Z</time>
      </trkpt>
      <trkpt lat="48.37588" lon="2.70422">
        <ele>121.74</ele>
        <time>2013-11-23T10:45:50Z</time>
      </trkpt>
      <trkpt lat="48.37592" lon="2.70443">
        <ele>121.74</ele>
        <time>2013-11-23T10:46:05Z</time>
      </trkpt>
      <trkpt lat="48.37607" lon="2.70461">
        <ele>122.71</ele>
        <time>2013-11-23T10:46:23Z</time>
      </trkpt>
      <trkpt lat="48.37619" lon="2.70466">
        <ele>122.71</ele>
        <time>2013-11-23T10:46:31Z</time>
      </trkpt>
      <trkpt lat="48.37625" lon="2.70466">
        <ele>126.07</ele>
        <time>2013-11-23T10:46:37Z</time>
      </trkpt>
      <trkpt lat="48.37634" lon="2.70467">
        <ele>122.71</ele>
        <time>2013-11-23T10:46:43Z</time>
      </trkpt>
      <trkpt lat="48.37649" lon="2.7046">
        <ele>124.15</ele>
        <time>2013-11-23T10:46:57Z</time>
      </trkpt>
      <trkpt lat="48.3765" lon="2.70459">
        <ele>124.15</ele>
        <time>2013-11-23T10:46:59Z</time>
      </trkpt>
      <trkpt lat="48.37652" lon="2.70458">
        <ele>124.63</ele>
        <time>2013-11-23T10:47:00Z</time>
      </trkpt>
      <trkpt lat="48.37665" lon="2.70455">
        <ele>124.15</ele>
        <time>2013-11-23T10:47:13Z</time>
      </trkpt>
      <trkpt lat="48.37679" lon="2.7045">
        <ele>124.63</ele>
        <time>2013-11-23T10:47:27Z</time>
      </trkpt>
      <trkpt lat="48.37685" lon="2.70433">
        <ele>124.63</ele>
        <time>2013-11-23T10:47:39Z</time>
      </trkpt>
      <trkpt lat="48.37684" lon="2.70432">
        <ele>124.15</ele>
        <time>2013-11-23T10:47:40Z</time>
      </trkpt>
      <trkpt lat="48.37685" lon="2.7043">
        <ele>124.63</ele>
        <time>2013-11-23T10:47:41Z</time>
      </trkpt>
      <trkpt lat="48.37686" lon="2.70421">
        <ele>125.11</ele>
        <time>2013-11-23T10:47:52Z</time>
      </trkpt>
      <trkpt lat="48.37687" lon="2.70418">
        <ele>121.26</ele>
        <time>2013-11-23T10:47:53Z</time>
      </trkpt>
      <trkpt lat="48.37687" lon="2.70416">
        <ele>126.07</ele>
        <time>2013-11-23T10:47:54Z</time>
      </trkpt>
      <trkpt lat="48.3769" lon="2.70397">
        <ele>125.11</ele>
        <time>2013-11-23T10:48:06Z</time>
      </trkpt>
      <trkpt lat="48.37691" lon="2.70392">
        <ele>128.47</ele>
        <time>2013-11-23T10:48:07Z</time>
      </trkpt>
      <trkpt lat="48.37691" lon="2.7039">
        <ele>125.11</ele>
        <time>2013-11-23T10:48:08Z</time>
      </trkpt>
      <trkpt lat="48.37697" lon="2.70369">
        <ele>126.55</ele>
        <time>2013-11-23T10:48:18Z</time>
      </trkpt>
      <trkpt lat="48.37699" lon="2.70356">
        <ele>125.59</ele>
        <time>2013-11-23T10:48:24Z</time>
      </trkpt>
      <trkpt lat="48.37699" lon="2.70346">
        <ele>124.63</ele>
        <time>2013-11-23T10:48:30Z</time>
      </trkpt>
      <trkpt lat="48.37699" lon="2.70344">
        <ele>124.63</ele>
        <time>2013-11-23T10:48:31Z</time>
      </trkpt>
      <trkpt lat="48.37699" lon="2.70342">
        <ele>125.11</ele>
        <time>2013-11-23T10:48:32Z</time>
      </trkpt>
      <trkpt lat="48.37705" lon="2.70316">
        <ele>125.11</ele>
        <time>2013-11-23T10:48:46Z</time>
      </trkpt>
      <trkpt lat="48.37706" lon="2.70312">
        <ele>125.11</ele>
        <time>2013-11-23T10:48:48Z</time>
      </trkpt>
      <trkpt lat="48.37709" lon="2.70291">
        <ele>125.11</ele>
        <time>2013-11-23T10:49:00Z</time>
      </trkpt>
      <trkpt lat="48.37712" lon="2.70281">
        <ele>125.11</ele>
        <time>2013-11-23T10:49:07Z</time>
      </trkpt>
      <trkpt lat="48.37712" lon="2.70278">
        <ele>124.15</ele>
        <time>2013-11-23T10:49:08Z</time>
      </trkpt>
      <trkpt lat="48.37713" lon="2.70276">
        <ele>124.15</ele>
        <time>2013-11-23T10:49:09Z</time>
      </trkpt>
      <trkpt lat="48.37713" lon="2.70274">
        <ele>124.15</ele>
        <time>2013-11-23T10:49:10Z</time>
      </trkpt>
      <trkpt lat="48.37713" lon="2.70271">
        <ele>124.63</ele>
        <time>2013-11-23T10:49:11Z</time>
      </trkpt>
      <trkpt lat="48.37714" lon="2.70269">
        <ele>124.63</ele>
        <time>2013-11-23T10:49:12Z</time>
      </trkpt>
      <trkpt lat="48.37714" lon="2.70262">
        <ele>124.63</ele>
        <time>2013-11-23T10:49:18Z</time>
      </trkpt>
      <trkpt lat="48.37714" lon="2.7026">
        <ele>124.63</ele>
        <time>2013-11-23T10:49:19Z</time>
      </trkpt>
      <trkpt lat="48.37714" lon="2.70238">
        <ele>124.15</ele>
        <time>2013-11-23T10:49:31Z</time>
      </trkpt>
      <trkpt lat="48.37714" lon="2.70231">
        <ele>123.67</ele>
        <time>2013-11-23T10:49:34Z</time>
      </trkpt>
      <trkpt lat="48.37713" lon="2.70227">
        <ele>123.19</ele>
        <time>2013-11-23T10:49:37Z</time>
      </trkpt>
      <trkpt lat="48.37706" lon="2.70224">
        <ele>123.19</ele>
        <time>2013-11-23T10:49:51Z</time>
      </trkpt>
      <trkpt lat="48.37708" lon="2.70222">
        <ele>123.19</ele>
        <time>2013-11-23T10:49:53Z</time>
      </trkpt>
      <trkpt lat="48.37709" lon="2.7022">
        <ele>123.67</ele>
        <time>2013-11-23T10:49:54Z</time>
      </trkpt>
      <trkpt lat="48.37713" lon="2.70203">
        <ele>121.74</ele>
        <time>2013-11-23T10:50:05Z</time>
      </trkpt>
      <trkpt lat="48.37716" lon="2.7017">
        <ele>119.34</ele>
        <time>2013-11-23T10:50:23Z</time>
      </trkpt>
      <trkpt lat="48.37718" lon="2.70161">
        <ele>118.86</ele>
        <time>2013-11-23T10:50:29Z</time>
      </trkpt>
      <trkpt lat="48.37719" lon="2.70158">
        <ele>118.38</ele>
        <time>2013-11-23T10:50:30Z</time>
      </trkpt>
      <trkpt lat="48.37724" lon="2.70138">
        <ele>116.94</ele>
        <time>2013-11-23T10:50:43Z</time>
      </trkpt>
      <trkpt lat="48.37726" lon="2.70129">
        <ele>115.98</ele>
        <time>2013-11-23T10:50:50Z</time>
      </trkpt>
      <trkpt lat="48.37725" lon="2.70127">
        <ele>115.98</ele>
        <time>2013-11-23T10:50:51Z</time>
      </trkpt>
      <trkpt lat="48.37725" lon="2.7012">
        <ele>115.5</ele>
        <time>2013-11-23T10:50:55Z</time>
      </trkpt>
      <trkpt lat="48.37728" lon="2.70096">
        <ele>113.57</ele>
        <time>2013-11-23T10:51:08Z</time>
      </trkpt>
      <trkpt lat="48.3773" lon="2.70088">
        <ele>111.65</ele>
        <time>2013-11-23T10:51:14Z</time>
      </trkpt>
      <trkpt lat="48.37734" lon="2.70064">
        <ele>112.13</ele>
        <time>2013-11-23T10:51:27Z</time>
      </trkpt>
      <trkpt lat="48.37734" lon="2.70062">
        <ele>112.13</ele>
        <time>2013-11-23T10:51:28Z</time>
      </trkpt>
      <trkpt lat="48.37735" lon="2.7006">
        <ele>112.13</ele>
        <time>2013-11-23T10:51:29Z</time>
      </trkpt>
      <trkpt lat="48.37735" lon="2.70057">
        <ele>112.13</ele>
        <time>2013-11-23T10:51:30Z</time>
      </trkpt>
      <trkpt lat="48.37736" lon="2.70054">
        <ele>111.65</ele>
        <time>2013-11-23T10:51:31Z</time>
      </trkpt>
      <trkpt lat="48.37736" lon="2.70051">
        <ele>111.65</ele>
        <time>2013-11-23T10:51:32Z</time>
      </trkpt>
      <trkpt lat="48.37736" lon="2.70048">
        <ele>111.65</ele>
        <time>2013-11-23T10:51:33Z</time>
      </trkpt>
      <trkpt lat="48.37736" lon="2.70045">
        <ele>111.17</ele>
        <time>2013-11-23T10:51:34Z</time>
      </trkpt>
      <trkpt lat="48.37737" lon="2.70043">
        <ele>111.17</ele>
        <time>2013-11-23T10:51:35Z</time>
      </trkpt>
      <trkpt lat="48.3774" lon="2.70021">
        <ele>110.69</ele>
        <time>2013-11-23T10:51:47Z</time>
      </trkpt>
      <trkpt lat="48.37742" lon="2.70008">
        <ele>109.73</ele>
        <time>2013-11-23T10:51:56Z</time>
      </trkpt>
      <trkpt lat="48.37742" lon="2.70006">
        <ele>109.73</ele>
        <time>2013-11-23T10:51:57Z</time>
      </trkpt>
      <trkpt lat="48.37742" lon="2.70004">
        <ele>109.73</ele>
        <time>2013-11-23T10:51:58Z</time>
      </trkpt>
      <trkpt lat="48.37742" lon="2.70002">
        <ele>109.25</ele>
        <time>2013-11-23T10:51:59Z</time>
      </trkpt>
      <trkpt lat="48.37743" lon="2.7">
        <ele>108.77</ele>
        <time>2013-11-23T10:52:00Z</time>
      </trkpt>
      <trkpt lat="48.37743" lon="2.69998">
        <ele>108.77</ele>
        <time>2013-11-23T10:52:01Z</time>
      </trkpt>
      <trkpt lat="48.37743" lon="2.69995">
        <ele>109.25</ele>
        <time>2013-11-23T10:52:02Z</time>
      </trkpt>
      <trkpt lat="48.37748" lon="2.69976">
        <ele>108.29</ele>
        <time>2013-11-23T10:52:14Z</time>
      </trkpt>
      <trkpt lat="48.37749" lon="2.6996">
        <ele>107.81</ele>
        <time>2013-11-23T10:52:23Z</time>
      </trkpt>
      <trkpt lat="48.37748" lon="2.69958">
        <ele>108.29</ele>
        <time>2013-11-23T10:52:24Z</time>
      </trkpt>
      <trkpt lat="48.37748" lon="2.69945">
        <ele>106.84</ele>
        <time>2013-11-23T10:52:29Z</time>
      </trkpt>
      <trkpt lat="48.37748" lon="2.69942">
        <ele>107.32</ele>
        <time>2013-11-23T10:52:30Z</time>
      </trkpt>
      <trkpt lat="48.37748" lon="2.6994">
        <ele>107.32</ele>
        <time>2013-11-23T10:52:31Z</time>
      </trkpt>
      <trkpt lat="48.37755" lon="2.69932">
        <ele>106.84</ele>
        <time>2013-11-23T10:52:38Z</time>
      </trkpt>
      <trkpt lat="48.37755" lon="2.6993">
        <ele>106.36</ele>
        <time>2013-11-23T10:52:39Z</time>
      </trkpt>
      <trkpt lat="48.37755" lon="2.69927">
        <ele>106.36</ele>
        <time>2013-11-23T10:52:40Z</time>
      </trkpt>
      <trkpt lat="48.37756" lon="2.69925">
        <ele>106.84</ele>
        <time>2013-11-23T10:52:41Z</time>
      </trkpt>
      <trkpt lat="48.37756" lon="2.69922">
        <ele>106.36</ele>
        <time>2013-11-23T10:52:42Z</time>
      </trkpt>
      <trkpt lat="48.37757" lon="2.69919">
        <ele>105.88</ele>
        <time>2013-11-23T10:52:43Z</time>
      </trkpt>
      <trkpt lat="48.37757" lon="2.69916">
        <ele>106.36</ele>
        <time>2013-11-23T10:52:44Z</time>
      </trkpt>
      <trkpt lat="48.3776" lon="2.69905">
        <ele>104.44</ele>
        <time>2013-11-23T10:52:53Z</time>
      </trkpt>
      <trkpt lat="48.37761" lon="2.6989">
        <ele>104.44</ele>
        <time>2013-11-23T10:53:05Z</time>
      </trkpt>
      <trkpt lat="48.37766" lon="2.69861">
        <ele>103.96</ele>
        <time>2013-11-23T10:53:18Z</time>
      </trkpt>
      <trkpt lat="48.37769" lon="2.6985">
        <ele>102.52</ele>
        <time>2013-11-23T10:53:24Z</time>
      </trkpt>
      <trkpt lat="48.37774" lon="2.69848">
        <ele>103.48</ele>
        <time>2013-11-23T10:53:32Z</time>
      </trkpt>
      <trkpt lat="48.37774" lon="2.6985">
        <ele>103</ele>
        <time>2013-11-23T10:53:33Z</time>
      </trkpt>
      <trkpt lat="48.37779" lon="2.69855">
        <ele>102.04</ele>
        <time>2013-11-23T10:53:38Z</time>
      </trkpt>
      <trkpt lat="48.37781" lon="2.69855">
        <ele>106.36</ele>
        <time>2013-11-23T10:53:39Z</time>
      </trkpt>
      <trkpt lat="48.37782" lon="2.69856">
        <ele>100.6</ele>
        <time>2013-11-23T10:53:40Z</time>
      </trkpt>
      <trkpt lat="48.37783" lon="2.69857">
        <ele>104.92</ele>
        <time>2013-11-23T10:53:41Z</time>
      </trkpt>
      <trkpt lat="48.37791" lon="2.69867">
        <ele>105.88</ele>
        <time>2013-11-23T10:53:53Z</time>
      </trkpt>
      <trkpt lat="48.37805" lon="2.69882">
        <ele>108.29</ele>
        <time>2013-11-23T10:54:09Z</time>
      </trkpt>
      <trkpt lat="48.37825" lon="2.69901">
        <ele>110.69</ele>
        <time>2013-11-23T10:54:27Z</time>
      </trkpt>
      <trkpt lat="48.37834" lon="2.69911">
        <ele>111.65</ele>
        <time>2013-11-23T10:54:36Z</time>
      </trkpt>
      <trkpt lat="48.37844" lon="2.69922">
        <ele>114.05</ele>
        <time>2013-11-23T10:54:52Z</time>
      </trkpt>
      <trkpt lat="48.37845" lon="2.69923">
        <ele>114.05</ele>
        <time>2013-11-23T10:54:53Z</time>
      </trkpt>
      <trkpt lat="48.37853" lon="2.69933">
        <ele>116.94</ele>
        <time>2013-11-23T10:55:06Z</time>
      </trkpt>
      <trkpt lat="48.37859" lon="2.69938">
        <ele>117.9</ele>
        <time>2013-11-23T10:55:18Z</time>
      </trkpt>
      <trkpt lat="48.3786" lon="2.6994">
        <ele>119.34</ele>
        <time>2013-11-23T10:55:20Z</time>
      </trkpt>
      <trkpt lat="48.37872" lon="2.6995">
        <ele>121.26</ele>
        <time>2013-11-23T10:55:32Z</time>
      </trkpt>
      <trkpt lat="48.37879" lon="2.69956">
        <ele>121.74</ele>
        <time>2013-11-23T10:55:39Z</time>
      </trkpt>
      <trkpt lat="48.37884" lon="2.69957">
        <ele>123.67</ele>
        <time>2013-11-23T10:55:51Z</time>
      </trkpt>
      <trkpt lat="48.37891" lon="2.69962">
        <ele>124.63</ele>
        <time>2013-11-23T10:56:06Z</time>
      </trkpt>
      <trkpt lat="48.37905" lon="2.6998">
        <ele>124.15</ele>
        <time>2013-11-23T10:56:16Z</time>
      </trkpt>
      <trkpt lat="48.37913" lon="2.69993">
        <ele>123.67</ele>
        <time>2013-11-23T10:56:30Z</time>
      </trkpt>
      <trkpt lat="48.37931" lon="2.70009">
        <ele>121.74</ele>
        <time>2013-11-23T10:56:47Z</time>
      </trkpt>
      <trkpt lat="48.37951" lon="2.70024">
        <ele>123.67</ele>
        <time>2013-11-23T10:57:04Z</time>
      </trkpt>
      <trkpt lat="48.37963" lon="2.70017">
        <ele>123.67</ele>
        <time>2013-11-23T10:57:19Z</time>
      </trkpt>
      <trkpt lat="48.37976" lon="2.70011">
        <ele>122.71</ele>
        <time>2013-11-23T10:57:30Z</time>
      </trkpt>
      <trkpt lat="48.37978" lon="2.70008">
        <ele>126.07</ele>
        <time>2013-11-23T10:57:33Z</time>
      </trkpt>
      <trkpt lat="48.37979" lon="2.70007">
        <ele>122.71</ele>
        <time>2013-11-23T10:57:34Z</time>
      </trkpt>
      <trkpt lat="48.37985" lon="2.70003">
        <ele>122.22</ele>
        <time>2013-11-23T10:57:41Z</time>
      </trkpt>
      <trkpt lat="48.37986" lon="2.70001">
        <ele>122.71</ele>
        <time>2013-11-23T10:57:42Z</time>
      </trkpt>
      <trkpt lat="48.37987" lon="2.70001">
        <ele>122.22</ele>
        <time>2013-11-23T10:57:43Z</time>
      </trkpt>
      <trkpt lat="48.38012" lon="2.69984">
        <ele>122.22</ele>
        <time>2013-11-23T10:58:04Z</time>
      </trkpt>
      <trkpt lat="48.3803" lon="2.69967">
        <ele>122.22</ele>
        <time>2013-11-23T10:58:22Z</time>
      </trkpt>
      <trkpt lat="48.38053" lon="2.69952">
        <ele>120.3</ele>
        <time>2013-11-23T10:58:43Z</time>
      </trkpt>
      <trkpt lat="48.38064" lon="2.69943">
        <ele>116.46</ele>
        <time>2013-11-23T10:58:54Z</time>
      </trkpt>
      <trkpt lat="48.38065" lon="2.69942">
        <ele>120.78</ele>
        <time>2013-11-23T10:58:55Z</time>
      </trkpt>
      <trkpt lat="48.38081" lon="2.69932">
        <ele>115.5</ele>
        <time>2013-11-23T10:59:08Z</time>
      </trkpt>
      <trkpt lat="48.38082" lon="2.69932">
        <ele>120.78</ele>
        <time>2013-11-23T10:59:09Z</time>
      </trkpt>
      <trkpt lat="48.38103" lon="2.6992">
        <ele>119.82</ele>
        <time>2013-11-23T10:59:29Z</time>
      </trkpt>
      <trkpt lat="48.38104" lon="2.69919">
        <ele>119.34</ele>
        <time>2013-11-23T10:59:30Z</time>
      </trkpt>
      <trkpt lat="48.38116" lon="2.6991">
        <ele>118.38</ele>
        <time>2013-11-23T10:59:41Z</time>
      </trkpt>
      <trkpt lat="48.38129" lon="2.69903">
        <ele>116.94</ele>
        <time>2013-11-23T10:59:54Z</time>
      </trkpt>
      <trkpt lat="48.38133" lon="2.69899">
        <ele>116.46</ele>
        <time>2013-11-23T10:59:58Z</time>
      </trkpt>
      <trkpt lat="48.38135" lon="2.69897">
        <ele>116.46</ele>
        <time>2013-11-23T10:59:59Z</time>
      </trkpt>
      <trkpt lat="48.38146" lon="2.6989">
        <ele>115.5</ele>
        <time>2013-11-23T11:00:09Z</time>
      </trkpt>
      <trkpt lat="48.38151" lon="2.69888">
        <ele>114.05</ele>
        <time>2013-11-23T11:00:15Z</time>
      </trkpt>
      <trkpt lat="48.38152" lon="2.69887">
        <ele>114.05</ele>
        <time>2013-11-23T11:00:16Z</time>
      </trkpt>
      <trkpt lat="48.38154" lon="2.69886">
        <ele>114.05</ele>
        <time>2013-11-23T11:00:17Z</time>
      </trkpt>
      <trkpt lat="48.38168" lon="2.6988">
        <ele>112.13</ele>
        <time>2013-11-23T11:00:29Z</time>
      </trkpt>
      <trkpt lat="48.38175" lon="2.69875">
        <ele>109.73</ele>
        <time>2013-11-23T11:00:43Z</time>
      </trkpt>
      <trkpt lat="48.38176" lon="2.69875">
        <ele>108.77</ele>
        <time>2013-11-23T11:00:44Z</time>
      </trkpt>
      <trkpt lat="48.38184" lon="2.69872">
        <ele>106.36</ele>
        <time>2013-11-23T11:00:55Z</time>
      </trkpt>
      <trkpt lat="48.38194" lon="2.69863">
        <ele>103.96</ele>
        <time>2013-11-23T11:01:07Z</time>
      </trkpt>
      <trkpt lat="48.38197" lon="2.69862">
        <ele>103</ele>
        <time>2013-11-23T11:01:11Z</time>
      </trkpt>
      <trkpt lat="48.38201" lon="2.6986">
        <ele>102.52</ele>
        <time>2013-11-23T11:01:14Z</time>
      </trkpt>
      <trkpt lat="48.38203" lon="2.69858">
        <ele>102.52</ele>
        <time>2013-11-23T11:01:15Z</time>
      </trkpt>
      <trkpt lat="48.38205" lon="2.69857">
        <ele>102.04</ele>
        <time>2013-11-23T11:01:16Z</time>
      </trkpt>
      <trkpt lat="48.38212" lon="2.69852">
        <ele>97.23</ele>
        <time>2013-11-23T11:01:26Z</time>
      </trkpt>
      <trkpt lat="48.38213" lon="2.69851">
        <ele>101.56</ele>
        <time>2013-11-23T11:01:27Z</time>
      </trkpt>
      <trkpt lat="48.38216" lon="2.69851">
        <ele>97.71</ele>
        <time>2013-11-23T11:01:29Z</time>
      </trkpt>
      <trkpt lat="48.38239" lon="2.69838">
        <ele>99.15</ele>
        <time>2013-11-23T11:01:46Z</time>
      </trkpt>
      <trkpt lat="48.38242" lon="2.69835">
        <ele>96.27</ele>
        <time>2013-11-23T11:01:50Z</time>
      </trkpt>
      <trkpt lat="48.38243" lon="2.69834">
        <ele>98.67</ele>
        <time>2013-11-23T11:01:51Z</time>
      </trkpt>
      <trkpt lat="48.38257" lon="2.69827">
        <ele>97.23</ele>
        <time>2013-11-23T11:02:04Z</time>
      </trkpt>
      <trkpt lat="48.38268" lon="2.69819">
        <ele>94.35</ele>
        <time>2013-11-23T11:02:17Z</time>
      </trkpt>
      <trkpt lat="48.3827" lon="2.69817">
        <ele>97.23</ele>
        <time>2013-11-23T11:02:20Z</time>
      </trkpt>
      <trkpt lat="48.38272" lon="2.69816">
        <ele>93.87</ele>
        <time>2013-11-23T11:02:22Z</time>
      </trkpt>
      <trkpt lat="48.38273" lon="2.69815">
        <ele>97.23</ele>
        <time>2013-11-23T11:02:23Z</time>
      </trkpt>
      <trkpt lat="48.38285" lon="2.69808">
        <ele>95.31</ele>
        <time>2013-11-23T11:02:30Z</time>
      </trkpt>
      <trkpt lat="48.38298" lon="2.69801">
        <ele>93.87</ele>
        <time>2013-11-23T11:02:41Z</time>
      </trkpt>
      <trkpt lat="48.38313" lon="2.69794">
        <ele>93.39</ele>
        <time>2013-11-23T11:02:54Z</time>
      </trkpt>
      <trkpt lat="48.38328" lon="2.69787">
        <ele>93.39</ele>
        <time>2013-11-23T11:03:06Z</time>
      </trkpt>
      <trkpt lat="48.38346" lon="2.69783">
        <ele>92.9</ele>
        <time>2013-11-23T11:03:22Z</time>
      </trkpt>
      <trkpt lat="48.38349" lon="2.69782">
        <ele>92.42</ele>
        <time>2013-11-23T11:03:24Z</time>
      </trkpt>
      <trkpt lat="48.38351" lon="2.6978">
        <ele>92.42</ele>
        <time>2013-11-23T11:03:25Z</time>
      </trkpt>
      <trkpt lat="48.38352" lon="2.69779">
        <ele>92.42</ele>
        <time>2013-11-23T11:03:26Z</time>
      </trkpt>
      <trkpt lat="48.38359" lon="2.69773">
        <ele>92.42</ele>
        <time>2013-11-23T11:03:37Z</time>
      </trkpt>
      <trkpt lat="48.38369" lon="2.69766">
        <ele>92.42</ele>
        <time>2013-11-23T11:03:49Z</time>
      </trkpt>
      <trkpt lat="48.38375" lon="2.69769">
        <ele>92.9</ele>
        <time>2013-11-23T11:03:56Z</time>
      </trkpt>
      <trkpt lat="48.38376" lon="2.69771">
        <ele>93.87</ele>
        <time>2013-11-23T11:03:57Z</time>
      </trkpt>
      <trkpt lat="48.3838" lon="2.69771">
        <ele>93.87</ele>
        <time>2013-11-23T11:04:02Z</time>
      </trkpt>
      <trkpt lat="48.38381" lon="2.69771">
        <ele>94.35</ele>
        <time>2013-11-23T11:04:03Z</time>
      </trkpt>
      <trkpt lat="48.38392" lon="2.69773">
        <ele>95.79</ele>
        <time>2013-11-23T11:04:16Z</time>
      </trkpt>
      <trkpt lat="48.38404" lon="2.69784">
        <ele>96.75</ele>
        <time>2013-11-23T11:04:27Z</time>
      </trkpt>
      <trkpt lat="48.38412" lon="2.69783">
        <ele>98.67</ele>
        <time>2013-11-23T11:04:41Z</time>
      </trkpt>
      <trkpt lat="48.38414" lon="2.69785">
        <ele>98.67</ele>
        <time>2013-11-23T11:04:44Z</time>
      </trkpt>
      <trkpt lat="48.38416" lon="2.69786">
        <ele>99.15</ele>
        <time>2013-11-23T11:04:45Z</time>
      </trkpt>
      <trkpt lat="48.38425" lon="2.69794">
        <ele>100.6</ele>
        <time>2013-11-23T11:04:58Z</time>
      </trkpt>
      <trkpt lat="48.38433" lon="2.69805">
        <ele>102.52</ele>
        <time>2013-11-23T11:05:12Z</time>
      </trkpt>
      <trkpt lat="48.38442" lon="2.69819">
        <ele>105.4</ele>
        <time>2013-11-23T11:05:31Z</time>
      </trkpt>
      <trkpt lat="48.38452" lon="2.69823">
        <ele>108.29</ele>
        <time>2013-11-23T11:05:45Z</time>
      </trkpt>
      <trkpt lat="48.38457" lon="2.69835">
        <ele>109.73</ele>
        <time>2013-11-23T11:06:02Z</time>
      </trkpt>
      <trkpt lat="48.38463" lon="2.69837">
        <ele>110.69</ele>
        <time>2013-11-23T11:06:09Z</time>
      </trkpt>
      <trkpt lat="48.38475" lon="2.69832">
        <ele>112.61</ele>
        <time>2013-11-23T11:06:21Z</time>
      </trkpt>
      <trkpt lat="48.38477" lon="2.69827">
        <ele>109.25</ele>
        <time>2013-11-23T11:06:33Z</time>
      </trkpt>
      <trkpt lat="48.38478" lon="2.69826">
        <ele>114.53</ele>
        <time>2013-11-23T11:06:34Z</time>
      </trkpt>
      <trkpt lat="48.38481" lon="2.69825">
        <ele>109.73</ele>
        <time>2013-11-23T11:06:38Z</time>
      </trkpt>
      <trkpt lat="48.38482" lon="2.69824">
        <ele>113.09</ele>
        <time>2013-11-23T11:06:39Z</time>
      </trkpt>
      <trkpt lat="48.38483" lon="2.69821">
        <ele>108.77</ele>
        <time>2013-11-23T11:06:45Z</time>
      </trkpt>
      <trkpt lat="48.38484" lon="2.6982">
        <ele>112.13</ele>
        <time>2013-11-23T11:06:46Z</time>
      </trkpt>
      <trkpt lat="48.3848" lon="2.69812">
        <ele>112.61</ele>
        <time>2013-11-23T11:07:02Z</time>
      </trkpt>
      <trkpt lat="48.38477" lon="2.69795">
        <ele>112.13</ele>
        <time>2013-11-23T11:07:26Z</time>
      </trkpt>
      <trkpt lat="48.38477" lon="2.698">
        <ele>112.61</ele>
        <time>2013-11-23T11:07:43Z</time>
      </trkpt>
      <trkpt lat="48.38478" lon="2.69806">
        <ele>112.13</ele>
        <time>2013-11-23T11:07:57Z</time>
      </trkpt>
      <trkpt lat="48.38479" lon="2.69809">
        <ele>112.13</ele>
        <time>2013-11-23T11:07:58Z</time>
      </trkpt>
      <trkpt lat="48.38479" lon="2.69811">
        <ele>112.13</ele>
        <time>2013-11-23T11:07:59Z</time>
      </trkpt>
      <trkpt lat="48.38487" lon="2.69818">
        <ele>109.25</ele>
        <time>2013-11-23T11:08:14Z</time>
      </trkpt>
      <trkpt lat="48.38495" lon="2.69819">
        <ele>107.32</ele>
        <time>2013-11-23T11:08:28Z</time>
      </trkpt>
      <trkpt lat="48.38499" lon="2.69814">
        <ele>105.88</ele>
        <time>2013-11-23T11:08:42Z</time>
      </trkpt>
      <trkpt lat="48.38502" lon="2.69822">
        <ele>102.52</ele>
        <time>2013-11-23T11:08:53Z</time>
      </trkpt>
      <trkpt lat="48.38504" lon="2.69831">
        <ele>99.15</ele>
        <time>2013-11-23T11:09:02Z</time>
      </trkpt>
      <trkpt lat="48.38513" lon="2.69838">
        <ele>99.15</ele>
        <time>2013-11-23T11:09:15Z</time>
      </trkpt>
      <trkpt lat="48.38517" lon="2.69843">
        <ele>96.75</ele>
        <time>2013-11-23T11:09:26Z</time>
      </trkpt>
      <trkpt lat="48.3852" lon="2.69846">
        <ele>95.31</ele>
        <time>2013-11-23T11:09:38Z</time>
      </trkpt>
      <trkpt lat="48.38527" lon="2.69841">
        <ele>92.42</ele>
        <time>2013-11-23T11:09:49Z</time>
      </trkpt>
      <trkpt lat="48.38529" lon="2.69838">
        <ele>87.62</ele>
        <time>2013-11-23T11:09:54Z</time>
      </trkpt>
      <trkpt lat="48.38529" lon="2.69839">
        <ele>93.39</ele>
        <time>2013-11-23T11:09:55Z</time>
      </trkpt>
      <trkpt lat="48.38532" lon="2.69839">
        <ele>90.02</ele>
        <time>2013-11-23T11:10:00Z</time>
      </trkpt>
      <trkpt lat="48.38542" lon="2.6984">
        <ele>87.14</ele>
        <time>2013-11-23T11:10:11Z</time>
      </trkpt>
      <trkpt lat="48.38548" lon="2.69845">
        <ele>83.77</ele>
        <time>2013-11-23T11:10:16Z</time>
      </trkpt>
      <trkpt lat="48.38548" lon="2.69845">
        <ele>87.62</ele>
        <time>2013-11-23T11:10:17Z</time>
      </trkpt>
      <trkpt lat="48.38553" lon="2.69844">
        <ele>83.77</ele>
        <time>2013-11-23T11:10:23Z</time>
      </trkpt>
      <trkpt lat="48.38561" lon="2.69846">
        <ele>82.33</ele>
        <time>2013-11-23T11:10:35Z</time>
      </trkpt>
      <trkpt lat="48.38562" lon="2.69845">
        <ele>82.33</ele>
        <time>2013-11-23T11:10:36Z</time>
      </trkpt>
      <trkpt lat="48.38567" lon="2.69844">
        <ele>81.85</ele>
        <time>2013-11-23T11:10:48Z</time>
      </trkpt>
      <trkpt lat="48.38568" lon="2.6984">
        <ele>81.37</ele>
        <time>2013-11-23T11:11:04Z</time>
      </trkpt>
      <trkpt lat="48.38578" lon="2.69843">
        <ele>80.89</ele>
        <time>2013-11-23T11:11:13Z</time>
      </trkpt>
      <trkpt lat="48.38586" lon="2.69847">
        <ele>79.93</ele>
        <time>2013-11-23T11:11:20Z</time>
      </trkpt>
      <trkpt lat="48.38605" lon="2.69851">
        <ele>79.45</ele>
        <time>2013-11-23T11:11:34Z</time>
      </trkpt>
      <trkpt lat="48.38607" lon="2.69851">
        <ele>79.45</ele>
        <time>2013-11-23T11:11:35Z</time>
      </trkpt>
      <trkpt lat="48.38621" lon="2.69857">
        <ele>78</ele>
        <time>2013-11-23T11:11:49Z</time>
      </trkpt>
      <trkpt lat="48.38626" lon="2.69859">
        <ele>78</ele>
        <time>2013-11-23T11:11:53Z</time>
      </trkpt>
      <trkpt lat="48.38628" lon="2.6986">
        <ele>78</ele>
        <time>2013-11-23T11:11:55Z</time>
      </trkpt>
      <trkpt lat="48.38631" lon="2.69861">
        <ele>78.48</ele>
        <time>2013-11-23T11:12:01Z</time>
      </trkpt>
      <trkpt lat="48.38632" lon="2.69861">
        <ele>78.48</ele>
        <time>2013-11-23T11:12:02Z</time>
      </trkpt>
      <trkpt lat="48.38634" lon="2.69861">
        <ele>78.48</ele>
        <time>2013-11-23T11:12:03Z</time>
      </trkpt>
      <trkpt lat="48.38641" lon="2.69865">
        <ele>78.97</ele>
        <time>2013-11-23T11:12:17Z</time>
      </trkpt>
      <trkpt lat="48.38649" lon="2.69868">
        <ele>84.25</ele>
        <time>2013-11-23T11:12:25Z</time>
      </trkpt>
      <trkpt lat="48.3865" lon="2.69869">
        <ele>78.97</ele>
        <time>2013-11-23T11:12:26Z</time>
      </trkpt>
      <trkpt lat="48.38652" lon="2.69871">
        <ele>78.97</ele>
        <time>2013-11-23T11:12:27Z</time>
      </trkpt>
      <trkpt lat="48.38653" lon="2.69871">
        <ele>82.33</ele>
        <time>2013-11-23T11:12:28Z</time>
      </trkpt>
      <trkpt lat="48.38656" lon="2.69873">
        <ele>78.97</ele>
        <time>2013-11-23T11:12:30Z</time>
      </trkpt>
      <trkpt lat="48.38667" lon="2.69876">
        <ele>78.97</ele>
        <time>2013-11-23T11:12:39Z</time>
      </trkpt>
      <trkpt lat="48.38669" lon="2.69877">
        <ele>78.97</ele>
        <time>2013-11-23T11:12:40Z</time>
      </trkpt>
      <trkpt lat="48.38674" lon="2.69881">
        <ele>78.48</ele>
        <time>2013-11-23T11:12:44Z</time>
      </trkpt>
      <trkpt lat="48.38685" lon="2.69889">
        <ele>78</ele>
        <time>2013-11-23T11:12:56Z</time>
      </trkpt>
      <trkpt lat="48.38694" lon="2.69895">
        <ele>78.97</ele>
        <time>2013-11-23T11:13:08Z</time>
      </trkpt>
      <trkpt lat="48.38707" lon="2.69901">
        <ele>79.45</ele>
        <time>2013-11-23T11:13:20Z</time>
      </trkpt>
      <trkpt lat="48.38708" lon="2.69902">
        <ele>79.45</ele>
        <time>2013-11-23T11:13:21Z</time>
      </trkpt>
      <trkpt lat="48.38709" lon="2.69903">
        <ele>79.45</ele>
        <time>2013-11-23T11:13:22Z</time>
      </trkpt>
      <trkpt lat="48.38717" lon="2.69907">
        <ele>78.97</ele>
        <time>2013-11-23T11:13:30Z</time>
      </trkpt>
      <trkpt lat="48.38722" lon="2.69911">
        <ele>79.45</ele>
        <time>2013-11-23T11:13:33Z</time>
      </trkpt>
      <trkpt lat="48.38736" lon="2.69917">
        <ele>78.48</ele>
        <time>2013-11-23T11:13:45Z</time>
      </trkpt>
      <trkpt lat="48.3875" lon="2.69923">
        <ele>78.97</ele>
        <time>2013-11-23T11:13:58Z</time>
      </trkpt>
      <trkpt lat="48.38766" lon="2.69931">
        <ele>79.45</ele>
        <time>2013-11-23T11:14:10Z</time>
      </trkpt>
      <trkpt lat="48.38779" lon="2.69939">
        <ele>78.97</ele>
        <time>2013-11-23T11:14:23Z</time>
      </trkpt>
      <trkpt lat="48.38782" lon="2.69942">
        <ele>78.97</ele>
        <time>2013-11-23T11:14:27Z</time>
      </trkpt>
      <trkpt lat="48.38784" lon="2.69943">
        <ele>79.45</ele>
        <time>2013-11-23T11:14:28Z</time>
      </trkpt>
      <trkpt lat="48.38786" lon="2.69944">
        <ele>78.97</ele>
        <time>2013-11-23T11:14:29Z</time>
      </trkpt>
      <trkpt lat="48.38799" lon="2.69954">
        <ele>78.48</ele>
        <time>2013-11-23T11:14:40Z</time>
      </trkpt>
      <trkpt lat="48.38805" lon="2.6996">
        <ele>78.97</ele>
        <time>2013-11-23T11:14:47Z</time>
      </trkpt>
      <trkpt lat="48.38806" lon="2.6996">
        <ele>78.97</ele>
        <time>2013-11-23T11:14:48Z</time>
      </trkpt>
      <trkpt lat="48.38807" lon="2.6996">
        <ele>79.45</ele>
        <time>2013-11-23T11:14:49Z</time>
      </trkpt>
      <trkpt lat="48.38814" lon="2.69963">
        <ele>79.45</ele>
        <time>2013-11-23T11:14:58Z</time>
      </trkpt>
      <trkpt lat="48.38815" lon="2.69965">
        <ele>79.93</ele>
        <time>2013-11-23T11:14:59Z</time>
      </trkpt>
      <trkpt lat="48.38817" lon="2.69966">
        <ele>79.45</ele>
        <time>2013-11-23T11:15:00Z</time>
      </trkpt>
      <trkpt lat="48.38818" lon="2.69967">
        <ele>78.97</ele>
        <time>2013-11-23T11:15:01Z</time>
      </trkpt>
      <trkpt lat="48.38831" lon="2.69973">
        <ele>79.45</ele>
        <time>2013-11-23T11:15:13Z</time>
      </trkpt>
      <trkpt lat="48.38848" lon="2.69982">
        <ele>79.93</ele>
        <time>2013-11-23T11:15:27Z</time>
      </trkpt>
      <trkpt lat="48.38855" lon="2.69989">
        <ele>79.45</ele>
        <time>2013-11-23T11:15:35Z</time>
      </trkpt>
      <trkpt lat="48.3886" lon="2.69992">
        <ele>79.45</ele>
        <time>2013-11-23T11:15:39Z</time>
      </trkpt>
      <trkpt lat="48.38861" lon="2.69993">
        <ele>79.45</ele>
        <time>2013-11-23T11:15:40Z</time>
      </trkpt>
      <trkpt lat="48.38867" lon="2.69995">
        <ele>79.93</ele>
        <time>2013-11-23T11:15:57Z</time>
      </trkpt>
      <trkpt lat="48.38864" lon="2.69993">
        <ele>79.93</ele>
        <time>2013-11-23T11:16:18Z</time>
      </trkpt>
      <trkpt lat="48.38863" lon="2.69994">
        <ele>79.45</ele>
        <time>2013-11-23T11:16:38Z</time>
      </trkpt>
      <trkpt lat="48.38864" lon="2.69994">
        <ele>80.41</ele>
        <time>2013-11-23T11:16:58Z</time>
      </trkpt>
      <trkpt lat="48.38866" lon="2.69994">
        <ele>79.93</ele>
        <time>2013-11-23T11:17:21Z</time>
      </trkpt>
      <trkpt lat="48.38867" lon="2.69993">
        <ele>80.41</ele>
        <time>2013-11-23T11:17:37Z</time>
      </trkpt>
      <trkpt lat="48.38869" lon="2.69997">
        <ele>80.41</ele>
        <time>2013-11-23T11:17:46Z</time>
      </trkpt>
      <trkpt lat="48.38874" lon="2.70002">
        <ele>80.89</ele>
        <time>2013-11-23T11:17:52Z</time>
      </trkpt>
      <trkpt lat="48.38876" lon="2.70003">
        <ele>80.41</ele>
        <time>2013-11-23T11:17:53Z</time>
      </trkpt>
      <trkpt lat="48.38877" lon="2.70004">
        <ele>80.41</ele>
        <time>2013-11-23T11:17:54Z</time>
      </trkpt>
      <trkpt lat="48.38888" lon="2.70015">
        <ele>79.45</ele>
        <time>2013-11-23T11:18:08Z</time>
      </trkpt>
      <trkpt lat="48.389" lon="2.70021">
        <ele>79.45</ele>
        <time>2013-11-23T11:18:21Z</time>
      </trkpt>
      <trkpt lat="48.38911" lon="2.70028">
        <ele>79.93</ele>
        <time>2013-11-23T11:18:31Z</time>
      </trkpt>
      <trkpt lat="48.38913" lon="2.70028">
        <ele>78.97</ele>
        <time>2013-11-23T11:18:32Z</time>
      </trkpt>
      <trkpt lat="48.38926" lon="2.70037">
        <ele>78.97</ele>
        <time>2013-11-23T11:18:44Z</time>
      </trkpt>
      <trkpt lat="48.38938" lon="2.70043">
        <ele>79.45</ele>
        <time>2013-11-23T11:18:54Z</time>
      </trkpt>
      <trkpt lat="48.38945" lon="2.70046">
        <ele>78.97</ele>
        <time>2013-11-23T11:19:00Z</time>
      </trkpt>
      <trkpt lat="48.38947" lon="2.70047">
        <ele>78.97</ele>
        <time>2013-11-23T11:19:01Z</time>
      </trkpt>
      <trkpt lat="48.38948" lon="2.70048">
        <ele>78.97</ele>
        <time>2013-11-23T11:19:02Z</time>
      </trkpt>
      <trkpt lat="48.38956" lon="2.70056">
        <ele>79.45</ele>
        <time>2013-11-23T11:19:09Z</time>
      </trkpt>
      <trkpt lat="48.38957" lon="2.70058">
        <ele>79.45</ele>
        <time>2013-11-23T11:19:10Z</time>
      </trkpt>
      <trkpt lat="48.38962" lon="2.70065">
        <ele>78.97</ele>
        <time>2013-11-23T11:19:16Z</time>
      </trkpt>
      <trkpt lat="48.38967" lon="2.70076">
        <ele>78.97</ele>
        <time>2013-11-23T11:19:25Z</time>
      </trkpt>
      <trkpt lat="48.38971" lon="2.70082">
        <ele>78.97</ele>
        <time>2013-11-23T11:19:32Z</time>
      </trkpt>
      <trkpt lat="48.38973" lon="2.70084">
        <ele>79.93</ele>
        <time>2013-11-23T11:19:33Z</time>
      </trkpt>
      <trkpt lat="48.38983" lon="2.70096">
        <ele>79.45</ele>
        <time>2013-11-23T11:19:44Z</time>
      </trkpt>
      <trkpt lat="48.38994" lon="2.70112">
        <ele>80.89</ele>
        <time>2013-11-23T11:19:57Z</time>
      </trkpt>
      <trkpt lat="48.39006" lon="2.70133">
        <ele>80.89</ele>
        <time>2013-11-23T11:20:11Z</time>
      </trkpt>
      <trkpt lat="48.39019" lon="2.70156">
        <ele>80.89</ele>
        <time>2013-11-23T11:20:26Z</time>
      </trkpt>
      <trkpt lat="48.3902" lon="2.70157">
        <ele>81.37</ele>
        <time>2013-11-23T11:20:27Z</time>
      </trkpt>
      <trkpt lat="48.39021" lon="2.70159">
        <ele>81.37</ele>
        <time>2013-11-23T11:20:28Z</time>
      </trkpt>
      <trkpt lat="48.39035" lon="2.70178">
        <ele>81.85</ele>
        <time>2013-11-23T11:20:42Z</time>
      </trkpt>
      <trkpt lat="48.39049" lon="2.70197">
        <ele>81.85</ele>
        <time>2013-11-23T11:20:59Z</time>
      </trkpt>
      <trkpt lat="48.39062" lon="2.70217">
        <ele>81.85</ele>
        <time>2013-11-23T11:21:12Z</time>
      </trkpt>
      <trkpt lat="48.39064" lon="2.70219">
        <ele>81.37</ele>
        <time>2013-11-23T11:21:14Z</time>
      </trkpt>
      <trkpt lat="48.39074" lon="2.70235">
        <ele>81.85</ele>
        <time>2013-11-23T11:21:27Z</time>
      </trkpt>
      <trkpt lat="48.39085" lon="2.70248">
        <ele>81.37</ele>
        <time>2013-11-23T11:21:39Z</time>
      </trkpt>
      <trkpt lat="48.39086" lon="2.70249">
        <ele>81.85</ele>
        <time>2013-11-23T11:21:40Z</time>
      </trkpt>
      <trkpt lat="48.39087" lon="2.7025">
        <ele>81.37</ele>
        <time>2013-11-23T11:21:41Z</time>
      </trkpt>
      <trkpt lat="48.391" lon="2.70269">
        <ele>82.33</ele>
        <time>2013-11-23T11:21:56Z</time>
      </trkpt>
      <trkpt lat="48.39106" lon="2.70283">
        <ele>82.33</ele>
        <time>2013-11-23T11:22:08Z</time>
      </trkpt>
      <trkpt lat="48.39117" lon="2.70299">
        <ele>82.33</ele>
        <time>2013-11-23T11:22:21Z</time>
      </trkpt>
      <trkpt lat="48.39129" lon="2.70316">
        <ele>82.33</ele>
        <time>2013-11-23T11:22:34Z</time>
      </trkpt>
      <trkpt lat="48.39136" lon="2.70328">
        <ele>83.29</ele>
        <time>2013-11-23T11:22:46Z</time>
      </trkpt>
      <trkpt lat="48.39149" lon="2.70348">
        <ele>81.85</ele>
        <time>2013-11-23T11:23:00Z</time>
      </trkpt>
      <trkpt lat="48.39168" lon="2.70373">
        <ele>83.77</ele>
        <time>2013-11-23T11:23:12Z</time>
      </trkpt>
    </trkseg>
  </trk>
</gpx>